<?xml version='1.0' encoding='UTF-8'?><gpx version="1.1" creator="JPX - https://github.com/jenetics/jpx" xmlns="http://www.topografix.com/GPX/1/1"><trk><trkseg><trkpt lat="45.9951606" lon="11.7596121"><ele>636.0</ele><time>2026-05-02T14:06:22.078Z</time></trkpt><trkpt lat="45.9952219" lon="11.759648"><ele>636.0</ele><time>2026-05-02T14:06:26.136Z</time></trkpt><trkpt lat="45.9952752" lon="11.7595792"><ele>636.0</ele><time>2026-05-02T14:06:36.108Z</time></trkpt><trkpt lat="45.9953438" lon="11.7595312"><ele>636.0</ele><time>2026-05-02T14:06:43.181Z</time></trkpt><trkpt lat="45.9954621" lon="11.7594717"><ele>636.0</ele><time>2026-05-02T14:06:54.129Z</time></trkpt><trkpt lat="45.9951257" lon="11.7596192"><ele>636.0</ele><time>2026-05-02T14:07:09.153Z</time></trkpt><trkpt lat="45.9950664" lon="11.7596685"><ele>636.0</ele><time>2026-05-02T14:07:32.1Z</time></trkpt><trkpt lat="45.994996" lon="11.7597235"><ele>636.0</ele><time>2026-05-02T14:07:48.097Z</time></trkpt><trkpt lat="45.9949856" lon="11.7598236"><ele>636.0</ele><time>2026-05-02T14:07:51.111Z</time></trkpt><trkpt lat="45.9949312" lon="11.7598936"><ele>636.0</ele><time>2026-05-02T14:07:54.125Z</time></trkpt><trkpt lat="45.9948562" lon="11.7598661"><ele>636.0</ele><time>2026-05-02T14:07:58.12Z</time></trkpt><trkpt lat="45.9948216" lon="11.75979"><ele>636.0</ele><time>2026-05-02T14:08:00.017Z</time></trkpt><trkpt lat="45.9947926" lon="11.7596684"><ele>630.4</ele><time>2026-05-02T14:08:01.007Z</time></trkpt><trkpt lat="45.9947802" lon="11.7595415"><ele>624.8</ele><time>2026-05-02T14:08:02.006Z</time></trkpt><trkpt lat="45.9947754" lon="11.7594334"><ele>619.1999999999999</ele><time>2026-05-02T14:08:03.006Z</time></trkpt><trkpt lat="45.9947759" lon="11.759339"><ele>613.6</ele><time>2026-05-02T14:08:04.006Z</time></trkpt><trkpt lat="45.994761" lon="11.7591709"><ele>608.0</ele><time>2026-05-02T14:08:06.006Z</time></trkpt><trkpt lat="45.9947187" lon="11.7590125"><ele>608.0</ele><time>2026-05-02T14:08:08.006Z</time></trkpt><trkpt lat="45.9946795" lon="11.7589253"><ele>608.0</ele><time>2026-05-02T14:08:09.006Z</time></trkpt><trkpt lat="45.9946389" lon="11.75883"><ele>608.0</ele><time>2026-05-02T14:08:10.007Z</time></trkpt><trkpt lat="45.9946113" lon="11.7587377"><ele>608.0</ele><time>2026-05-02T14:08:11.006Z</time></trkpt><trkpt lat="45.9945903" lon="11.7586482"><ele>608.0</ele><time>2026-05-02T14:08:12.006Z</time></trkpt><trkpt lat="45.9945575" lon="11.758481"><ele>608.0</ele><time>2026-05-02T14:08:14.007Z</time></trkpt><trkpt lat="45.9945356" lon="11.7583949"><ele>609.1666666666666</ele><time>2026-05-02T14:08:15.007Z</time></trkpt><trkpt lat="45.9945087" lon="11.7583119"><ele>610.3333333333333</ele><time>2026-05-02T14:08:16.006Z</time></trkpt><trkpt lat="45.9944834" lon="11.7582268"><ele>611.5</ele><time>2026-05-02T14:08:17.006Z</time></trkpt><trkpt lat="45.9944194" lon="11.7580821"><ele>612.6666666666666</ele><time>2026-05-02T14:08:19.007Z</time></trkpt><trkpt lat="45.9943618" lon="11.7579645"><ele>613.8333333333334</ele><time>2026-05-02T14:08:22.006Z</time></trkpt><trkpt lat="45.9943341" lon="11.7578281"><ele>615.0</ele><time>2026-05-02T14:08:25.006Z</time></trkpt><trkpt lat="45.994327" lon="11.7577257"><ele>618.75</ele><time>2026-05-02T14:08:26.007Z</time></trkpt><trkpt lat="45.9942958" lon="11.757601"><ele>622.5</ele><time>2026-05-02T14:08:27.006Z</time></trkpt><trkpt lat="45.9942216" lon="11.7574351"><ele>626.25</ele><time>2026-05-02T14:08:28.006Z</time></trkpt><trkpt lat="45.9941747" lon="11.757276"><ele>630.0</ele><time>2026-05-02T14:08:29.007Z</time></trkpt><trkpt lat="45.9941451" lon="11.7571029"><ele>626.3333333333334</ele><time>2026-05-02T14:08:30.007Z</time></trkpt><trkpt lat="45.9941435" lon="11.7569732"><ele>622.6666666666666</ele><time>2026-05-02T14:08:31.006Z</time></trkpt><trkpt lat="45.9941426" lon="11.7568531"><ele>619.0</ele><time>2026-05-02T14:08:32.006Z</time></trkpt><trkpt lat="45.9941416" lon="11.7567274"><ele>615.3333333333333</ele><time>2026-05-02T14:08:33.006Z</time></trkpt><trkpt lat="45.9941514" lon="11.7565948"><ele>611.6666666666666</ele><time>2026-05-02T14:08:34.006Z</time></trkpt><trkpt lat="45.9941577" lon="11.7564728"><ele>608.0</ele><time>2026-05-02T14:08:35.006Z</time></trkpt><trkpt lat="45.9941647" lon="11.756359"><ele>612.8571428571428</ele><time>2026-05-02T14:08:36.007Z</time></trkpt><trkpt lat="45.9941735" lon="11.7562612"><ele>617.7142857142858</ele><time>2026-05-02T14:08:37.006Z</time></trkpt><trkpt lat="45.9941838" lon="11.7561668"><ele>622.5714285714286</ele><time>2026-05-02T14:08:38.007Z</time></trkpt><trkpt lat="45.9941914" lon="11.7560687"><ele>627.4285714285713</ele><time>2026-05-02T14:08:39.007Z</time></trkpt><trkpt lat="45.9941988" lon="11.7559733"><ele>632.2857142857142</ele><time>2026-05-02T14:08:40.007Z</time></trkpt><trkpt lat="45.9942084" lon="11.7558812"><ele>637.1428571428571</ele><time>2026-05-02T14:08:41.006Z</time></trkpt><trkpt lat="45.9942213" lon="11.7557915"><ele>642.0</ele><time>2026-05-02T14:08:42.007Z</time></trkpt><trkpt lat="45.9942639" lon="11.7557237"><ele>642.0</ele><time>2026-05-02T14:08:43.007Z</time></trkpt><trkpt lat="45.9943217" lon="11.7556701"><ele>642.0</ele><time>2026-05-02T14:08:44.006Z</time></trkpt><trkpt lat="45.9943799" lon="11.7556216"><ele>642.0</ele><time>2026-05-02T14:08:45.007Z</time></trkpt><trkpt lat="45.9944394" lon="11.75546"><ele>642.0</ele><time>2026-05-02T14:08:47.008Z</time></trkpt><trkpt lat="45.9944376" lon="11.755362"><ele>642.0</ele><time>2026-05-02T14:08:48.007Z</time></trkpt><trkpt lat="45.9944266" lon="11.7552683"><ele>642.0</ele><time>2026-05-02T14:08:49.007Z</time></trkpt><trkpt lat="45.9944265" lon="11.7551737"><ele>641.8571428571428</ele><time>2026-05-02T14:08:50.007Z</time></trkpt><trkpt lat="45.994444" lon="11.755082"><ele>641.7142857142857</ele><time>2026-05-02T14:08:51.007Z</time></trkpt><trkpt lat="45.9944612" lon="11.7549898"><ele>641.5714285714286</ele><time>2026-05-02T14:08:52.006Z</time></trkpt><trkpt lat="45.9944703" lon="11.7548947"><ele>641.4285714285713</ele><time>2026-05-02T14:08:53.007Z</time></trkpt><trkpt lat="45.9944716" lon="11.7547993"><ele>641.2857142857142</ele><time>2026-05-02T14:08:54.007Z</time></trkpt><trkpt lat="45.9944596" lon="11.7547066"><ele>641.1428571428571</ele><time>2026-05-02T14:08:55.007Z</time></trkpt><trkpt lat="45.9944383" lon="11.7546148"><ele>641.0</ele><time>2026-05-02T14:08:56.006Z</time></trkpt><trkpt lat="45.9944132" lon="11.7545208"><ele>641.0</ele><time>2026-05-02T14:08:57.007Z</time></trkpt><trkpt lat="45.9943973" lon="11.7544203"><ele>641.0</ele><time>2026-05-02T14:08:58.007Z</time></trkpt><trkpt lat="45.9943946" lon="11.7543181"><ele>641.0</ele><time>2026-05-02T14:08:59.007Z</time></trkpt><trkpt lat="45.9943964" lon="11.7542159"><ele>641.0</ele><time>2026-05-02T14:09:00.006Z</time></trkpt><trkpt lat="45.9943994" lon="11.754114"><ele>641.0</ele><time>2026-05-02T14:09:01.006Z</time></trkpt><trkpt lat="45.9944039" lon="11.7540135"><ele>641.0</ele><time>2026-05-02T14:09:02.007Z</time></trkpt><trkpt lat="45.9944026" lon="11.7539129"><ele>641.0</ele><time>2026-05-02T14:09:03.006Z</time></trkpt><trkpt lat="45.9944006" lon="11.753811"><ele>642.1666666666666</ele><time>2026-05-02T14:09:04.007Z</time></trkpt><trkpt lat="45.9943957" lon="11.7537052"><ele>643.3333333333333</ele><time>2026-05-02T14:09:05.008Z</time></trkpt><trkpt lat="45.9943924" lon="11.7535978"><ele>644.5</ele><time>2026-05-02T14:09:06.007Z</time></trkpt><trkpt lat="45.99439" lon="11.7534854"><ele>645.6666666666666</ele><time>2026-05-02T14:09:07.007Z</time></trkpt><trkpt lat="45.9943899" lon="11.7533729"><ele>646.8333333333334</ele><time>2026-05-02T14:09:08.008Z</time></trkpt><trkpt lat="45.9943937" lon="11.7532596"><ele>648.0</ele><time>2026-05-02T14:09:09.007Z</time></trkpt><trkpt lat="45.9944032" lon="11.7531481"><ele>649.3333333333334</ele><time>2026-05-02T14:09:10.007Z</time></trkpt><trkpt lat="45.9944154" lon="11.7530358"><ele>650.6666666666666</ele><time>2026-05-02T14:09:11.007Z</time></trkpt><trkpt lat="45.9944259" lon="11.7529202"><ele>652.0</ele><time>2026-05-02T14:09:12.007Z</time></trkpt><trkpt lat="45.9944356" lon="11.7528122"><ele>653.3333333333333</ele><time>2026-05-02T14:09:13.007Z</time></trkpt><trkpt lat="45.9944467" lon="11.7527074"><ele>654.6666666666666</ele><time>2026-05-02T14:09:14.007Z</time></trkpt><trkpt lat="45.994463" lon="11.7526023"><ele>656.0</ele><time>2026-05-02T14:09:15.007Z</time></trkpt><trkpt lat="45.994485" lon="11.7524942"><ele>656.0</ele><time>2026-05-02T14:09:16.008Z</time></trkpt><trkpt lat="45.9945084" lon="11.7523766"><ele>656.0</ele><time>2026-05-02T14:09:18.007Z</time></trkpt><trkpt lat="45.994518" lon="11.7522594"><ele>656.0</ele><time>2026-05-02T14:09:22.007Z</time></trkpt><trkpt lat="45.9945387" lon="11.7521098"><ele>656.0</ele><time>2026-05-02T14:09:24.007Z</time></trkpt><trkpt lat="45.9945709" lon="11.7519848"><ele>656.0</ele><time>2026-05-02T14:09:26.007Z</time></trkpt><trkpt lat="45.994592" lon="11.7518957"><ele>656.0</ele><time>2026-05-02T14:09:27.007Z</time></trkpt><trkpt lat="45.9946175" lon="11.7517911"><ele>655.5</ele><time>2026-05-02T14:09:28.007Z</time></trkpt><trkpt lat="45.9946395" lon="11.7516859"><ele>655.0</ele><time>2026-05-02T14:09:29.007Z</time></trkpt><trkpt lat="45.9946632" lon="11.7515718"><ele>654.5</ele><time>2026-05-02T14:09:30.007Z</time></trkpt><trkpt lat="45.9946905" lon="11.7514599"><ele>654.0</ele><time>2026-05-02T14:09:31.007Z</time></trkpt><trkpt lat="45.9947178" lon="11.7513522"><ele>653.5</ele><time>2026-05-02T14:09:32.007Z</time></trkpt><trkpt lat="45.9947448" lon="11.751251"><ele>653.0</ele><time>2026-05-02T14:09:33.007Z</time></trkpt><trkpt lat="45.9947715" lon="11.7511476"><ele>651.5</ele><time>2026-05-02T14:09:34.008Z</time></trkpt><trkpt lat="45.9947976" lon="11.7510359"><ele>650.0</ele><time>2026-05-02T14:09:35.008Z</time></trkpt><trkpt lat="45.9948244" lon="11.7509261"><ele>648.5</ele><time>2026-05-02T14:09:36.007Z</time></trkpt><trkpt lat="45.9948453" lon="11.7508258"><ele>647.0</ele><time>2026-05-02T14:09:37.007Z</time></trkpt><trkpt lat="45.9948888" lon="11.7507306"><ele>645.5</ele><time>2026-05-02T14:09:38.007Z</time></trkpt><trkpt lat="45.9949363" lon="11.7506521"><ele>644.0</ele><time>2026-05-02T14:09:39.007Z</time></trkpt><trkpt lat="45.994984" lon="11.7505724"><ele>652.8333333333333</ele><time>2026-05-02T14:09:40.007Z</time></trkpt><trkpt lat="45.9950208" lon="11.7504933"><ele>661.6666666666666</ele><time>2026-05-02T14:09:41.007Z</time></trkpt><trkpt lat="45.9950515" lon="11.7504023"><ele>670.5</ele><time>2026-05-02T14:09:42.007Z</time></trkpt><trkpt lat="45.9950744" lon="11.7503076"><ele>679.3333333333334</ele><time>2026-05-02T14:09:43.007Z</time></trkpt><trkpt lat="45.9950896" lon="11.7502142"><ele>688.1666666666667</ele><time>2026-05-02T14:09:44.007Z</time></trkpt><trkpt lat="45.9951032" lon="11.7500331"><ele>697.0</ele><time>2026-05-02T14:09:46.007Z</time></trkpt><trkpt lat="45.995112" lon="11.7499043"><ele>697.0</ele><time>2026-05-02T14:09:47.008Z</time></trkpt><trkpt lat="45.9951102" lon="11.7497888"><ele>697.0</ele><time>2026-05-02T14:09:48.007Z</time></trkpt><trkpt lat="45.9951114" lon="11.749654"><ele>697.0</ele><time>2026-05-02T14:09:49.008Z</time></trkpt><trkpt lat="45.9951107" lon="11.7495209"><ele>697.0</ele><time>2026-05-02T14:09:50.007Z</time></trkpt><trkpt lat="45.9951169" lon="11.7493854"><ele>697.0</ele><time>2026-05-02T14:09:51.008Z</time></trkpt><trkpt lat="45.9951282" lon="11.7492499"><ele>696.0</ele><time>2026-05-02T14:09:52.007Z</time></trkpt><trkpt lat="45.9951548" lon="11.7491173"><ele>695.0</ele><time>2026-05-02T14:09:53.008Z</time></trkpt><trkpt lat="45.9951901" lon="11.7489922"><ele>694.0</ele><time>2026-05-02T14:09:54.008Z</time></trkpt><trkpt lat="45.995232" lon="11.7488737"><ele>693.0</ele><time>2026-05-02T14:09:55.008Z</time></trkpt><trkpt lat="45.995278" lon="11.7487613"><ele>692.0</ele><time>2026-05-02T14:09:56.008Z</time></trkpt><trkpt lat="45.9953303" lon="11.7486481"><ele>688.4000000000001</ele><time>2026-05-02T14:09:57.009Z</time></trkpt><trkpt lat="45.995382" lon="11.7485345"><ele>684.8000000000001</ele><time>2026-05-02T14:09:58.008Z</time></trkpt><trkpt lat="45.9954325" lon="11.7484238"><ele>681.2</ele><time>2026-05-02T14:09:59.008Z</time></trkpt><trkpt lat="45.9954822" lon="11.7483105"><ele>677.6</ele><time>2026-05-02T14:10:00.008Z</time></trkpt><trkpt lat="45.9955326" lon="11.7481956"><ele>674.0</ele><time>2026-05-02T14:10:01.008Z</time></trkpt><trkpt lat="45.9955836" lon="11.7480827"><ele>674.0</ele><time>2026-05-02T14:10:02.008Z</time></trkpt><trkpt lat="45.995643" lon="11.7479757"><ele>674.0</ele><time>2026-05-02T14:10:03.008Z</time></trkpt><trkpt lat="45.9957065" lon="11.7478749"><ele>674.0</ele><time>2026-05-02T14:10:04.007Z</time></trkpt><trkpt lat="45.9957714" lon="11.7477733"><ele>674.0</ele><time>2026-05-02T14:10:05.007Z</time></trkpt><trkpt lat="45.9958375" lon="11.7476747"><ele>674.0</ele><time>2026-05-02T14:10:06.007Z</time></trkpt><trkpt lat="45.9959044" lon="11.7475727"><ele>674.0</ele><time>2026-05-02T14:10:07.007Z</time></trkpt><trkpt lat="45.9959678" lon="11.7474747"><ele>674.0</ele><time>2026-05-02T14:10:08.008Z</time></trkpt><trkpt lat="45.996032" lon="11.7473856"><ele>674.0</ele><time>2026-05-02T14:10:09.008Z</time></trkpt><trkpt lat="45.9960913" lon="11.7472954"><ele>674.0</ele><time>2026-05-02T14:10:10.008Z</time></trkpt><trkpt lat="45.9961591" lon="11.7472175"><ele>674.0</ele><time>2026-05-02T14:10:11.009Z</time></trkpt><trkpt lat="45.9962302" lon="11.7471361"><ele>674.0</ele><time>2026-05-02T14:10:12.009Z</time></trkpt><trkpt lat="45.996311" lon="11.7470758"><ele>674.0</ele><time>2026-05-02T14:10:13.009Z</time></trkpt><trkpt lat="45.9963946" lon="11.7470127"><ele>674.0</ele><time>2026-05-02T14:10:14.008Z</time></trkpt><trkpt lat="45.9964734" lon="11.7469606"><ele>674.0</ele><time>2026-05-02T14:10:15.008Z</time></trkpt><trkpt lat="45.9965537" lon="11.7469151"><ele>674.0</ele><time>2026-05-02T14:10:16.008Z</time></trkpt><trkpt lat="45.996642" lon="11.7468891"><ele>674.0</ele><time>2026-05-02T14:10:17.008Z</time></trkpt><trkpt lat="45.9967375" lon="11.7468867"><ele>675.8000000000001</ele><time>2026-05-02T14:10:18.008Z</time></trkpt><trkpt lat="45.9968239" lon="11.7468975"><ele>677.6</ele><time>2026-05-02T14:10:19.009Z</time></trkpt><trkpt lat="45.9969055" lon="11.7469366"><ele>679.4</ele><time>2026-05-02T14:10:20.008Z</time></trkpt><trkpt lat="45.9969983" lon="11.747047"><ele>681.2</ele><time>2026-05-02T14:10:21.008Z</time></trkpt><trkpt lat="45.9970923" lon="11.7471456"><ele>683.0</ele><time>2026-05-02T14:10:22.008Z</time></trkpt><trkpt lat="45.9971644" lon="11.7471814"><ele>683.0</ele><time>2026-05-02T14:10:23.008Z</time></trkpt><trkpt lat="45.9972508" lon="11.747144"><ele>683.0</ele><time>2026-05-02T14:10:25.009Z</time></trkpt><trkpt lat="45.9972851" lon="11.7469154"><ele>683.0</ele><time>2026-05-02T14:10:27.008Z</time></trkpt><trkpt lat="45.9973055" lon="11.7467725"><ele>683.0</ele><time>2026-05-02T14:10:28.008Z</time></trkpt><trkpt lat="45.9973587" lon="11.7466301"><ele>681.0</ele><time>2026-05-02T14:10:29.008Z</time></trkpt><trkpt lat="45.9974602" lon="11.7464263"><ele>679.0</ele><time>2026-05-02T14:10:30.008Z</time></trkpt><trkpt lat="45.997536" lon="11.7462556"><ele>677.0</ele><time>2026-05-02T14:10:31.008Z</time></trkpt><trkpt lat="45.9975974" lon="11.7461036"><ele>675.0</ele><time>2026-05-02T14:10:32.009Z</time></trkpt><trkpt lat="45.9976556" lon="11.7459672"><ele>675.0</ele><time>2026-05-02T14:10:33.008Z</time></trkpt><trkpt lat="45.9977126" lon="11.7458492"><ele>675.0</ele><time>2026-05-02T14:10:34.009Z</time></trkpt><trkpt lat="45.9977619" lon="11.7457396"><ele>675.0</ele><time>2026-05-02T14:10:35.009Z</time></trkpt><trkpt lat="45.9978114" lon="11.745616"><ele>675.0</ele><time>2026-05-02T14:10:36.008Z</time></trkpt><trkpt lat="45.9978369" lon="11.7454939"><ele>675.0</ele><time>2026-05-02T14:10:37.008Z</time></trkpt><trkpt lat="45.9978364" lon="11.745354"><ele>675.0</ele><time>2026-05-02T14:10:38.008Z</time></trkpt><trkpt lat="45.9978366" lon="11.7452183"><ele>675.0</ele><time>2026-05-02T14:10:39.008Z</time></trkpt><trkpt lat="45.9978383" lon="11.7450918"><ele>675.0</ele><time>2026-05-02T14:10:40.008Z</time></trkpt><trkpt lat="45.9978557" lon="11.7449951"><ele>675.0</ele><time>2026-05-02T14:10:41.008Z</time></trkpt><trkpt lat="45.9979097" lon="11.7449217"><ele>675.0</ele><time>2026-05-02T14:10:42.008Z</time></trkpt><trkpt lat="45.9979706" lon="11.7448598"><ele>675.0</ele><time>2026-05-02T14:10:43.008Z</time></trkpt><trkpt lat="45.9980374" lon="11.7448034"><ele>675.3333333333334</ele><time>2026-05-02T14:10:44.008Z</time></trkpt><trkpt lat="45.9981061" lon="11.7447437"><ele>675.6666666666666</ele><time>2026-05-02T14:10:45.008Z</time></trkpt><trkpt lat="45.9981749" lon="11.7446909"><ele>676.0</ele><time>2026-05-02T14:10:46.008Z</time></trkpt><trkpt lat="45.9982427" lon="11.7446382"><ele>676.3333333333333</ele><time>2026-05-02T14:10:47.009Z</time></trkpt><trkpt lat="45.9983123" lon="11.7445802"><ele>676.6666666666666</ele><time>2026-05-02T14:10:48.008Z</time></trkpt><trkpt lat="45.9983751" lon="11.7445055"><ele>677.0</ele><time>2026-05-02T14:10:49.009Z</time></trkpt><trkpt lat="45.9984257" lon="11.7443993"><ele>677.6</ele><time>2026-05-02T14:10:50.008Z</time></trkpt><trkpt lat="45.9984634" lon="11.7442702"><ele>678.2</ele><time>2026-05-02T14:10:51.008Z</time></trkpt><trkpt lat="45.9984825" lon="11.7441141"><ele>678.8</ele><time>2026-05-02T14:10:52.008Z</time></trkpt><trkpt lat="45.9985" lon="11.743962"><ele>679.4</ele><time>2026-05-02T14:10:53.008Z</time></trkpt><trkpt lat="45.9985226" lon="11.7438147"><ele>680.0</ele><time>2026-05-02T14:10:54.008Z</time></trkpt><trkpt lat="45.9985502" lon="11.7436691"><ele>680.3333333333333</ele><time>2026-05-02T14:10:55.008Z</time></trkpt><trkpt lat="45.9985822" lon="11.7435318"><ele>680.6666666666666</ele><time>2026-05-02T14:10:56.009Z</time></trkpt><trkpt lat="45.9986149" lon="11.7434147"><ele>681.0</ele><time>2026-05-02T14:10:57.009Z</time></trkpt><trkpt lat="45.9986349" lon="11.7432595"><ele>681.3333333333334</ele><time>2026-05-02T14:10:59.009Z</time></trkpt><trkpt lat="45.9986042" lon="11.7431637"><ele>681.6666666666667</ele><time>2026-05-02T14:12:34.011Z</time></trkpt><trkpt lat="45.9985934" lon="11.7432577"><ele>682.0</ele><time>2026-05-02T14:12:39.01Z</time></trkpt><trkpt lat="45.9986536" lon="11.7431506"><ele>682.0</ele><time>2026-05-02T14:13:14.01Z</time></trkpt><trkpt lat="45.9986956" lon="11.7430823"><ele>682.0</ele><time>2026-05-02T14:13:15.01Z</time></trkpt><trkpt lat="45.9987469" lon="11.7430094"><ele>682.0</ele><time>2026-05-02T14:13:16.011Z</time></trkpt><trkpt lat="45.9987959" lon="11.7429351"><ele>682.0</ele><time>2026-05-02T14:13:17.011Z</time></trkpt><trkpt lat="45.9988735" lon="11.7428289"><ele>682.0</ele><time>2026-05-02T14:13:19.011Z</time></trkpt><trkpt lat="45.9989032" lon="11.7427209"><ele>682.0</ele><time>2026-05-02T14:13:21.01Z</time></trkpt><trkpt lat="45.9989427" lon="11.7426279"><ele>685.8333333333334</ele><time>2026-05-02T14:13:23.01Z</time></trkpt><trkpt lat="45.9990208" lon="11.742539"><ele>689.6666666666667</ele><time>2026-05-02T14:13:25.011Z</time></trkpt><trkpt lat="45.9990798" lon="11.7424926"><ele>693.5</ele><time>2026-05-02T14:13:26.01Z</time></trkpt><trkpt lat="45.9991455" lon="11.7424482"><ele>697.3333333333334</ele><time>2026-05-02T14:13:27.011Z</time></trkpt><trkpt lat="45.9992083" lon="11.742412"><ele>701.1666666666666</ele><time>2026-05-02T14:13:28.01Z</time></trkpt><trkpt lat="45.999281" lon="11.742389"><ele>705.0</ele><time>2026-05-02T14:13:29.01Z</time></trkpt><trkpt lat="45.999351" lon="11.7423889"><ele>706.0</ele><time>2026-05-02T14:13:30.01Z</time></trkpt><trkpt lat="45.9994175" lon="11.7423863"><ele>707.0</ele><time>2026-05-02T14:13:31.011Z</time></trkpt><trkpt lat="45.9994928" lon="11.742397"><ele>708.0</ele><time>2026-05-02T14:13:32.011Z</time></trkpt><trkpt lat="45.9995739" lon="11.7424191"><ele>709.0</ele><time>2026-05-02T14:13:33.011Z</time></trkpt><trkpt lat="45.9996646" lon="11.7424403"><ele>710.0</ele><time>2026-05-02T14:13:34.012Z</time></trkpt><trkpt lat="45.9997617" lon="11.7424574"><ele>711.0</ele><time>2026-05-02T14:13:35.011Z</time></trkpt><trkpt lat="45.9998416" lon="11.7424455"><ele>711.0</ele><time>2026-05-02T14:13:36.011Z</time></trkpt><trkpt lat="45.9999291" lon="11.7424313"><ele>711.0</ele><time>2026-05-02T14:13:37.011Z</time></trkpt><trkpt lat="46.0000224" lon="11.7423995"><ele>711.0</ele><time>2026-05-02T14:13:38.011Z</time></trkpt><trkpt lat="46.0000918" lon="11.7423907"><ele>711.0</ele><time>2026-05-02T14:13:39.011Z</time></trkpt><trkpt lat="46.0001673" lon="11.7424077"><ele>711.0</ele><time>2026-05-02T14:13:40.012Z</time></trkpt><trkpt lat="46.0002737" lon="11.7424541"><ele>711.0</ele><time>2026-05-02T14:13:42.011Z</time></trkpt><trkpt lat="46.0003357" lon="11.7424994"><ele>711.0</ele><time>2026-05-02T14:13:43.012Z</time></trkpt><trkpt lat="46.0004175" lon="11.7425521"><ele>711.0</ele><time>2026-05-02T14:13:44.011Z</time></trkpt><trkpt lat="46.0004819" lon="11.7425987"><ele>711.0</ele><time>2026-05-02T14:13:45.011Z</time></trkpt><trkpt lat="46.0005631" lon="11.7426866"><ele>711.0</ele><time>2026-05-02T14:13:47.011Z</time></trkpt><trkpt lat="46.0006765" lon="11.742757"><ele>711.0</ele><time>2026-05-02T14:13:49.011Z</time></trkpt><trkpt lat="46.0007564" lon="11.7427931"><ele>710.1666666666666</ele><time>2026-05-02T14:13:50.011Z</time></trkpt><trkpt lat="46.0008403" lon="11.7428396"><ele>709.3333333333334</ele><time>2026-05-02T14:13:51.011Z</time></trkpt><trkpt lat="46.0009013" lon="11.7428766"><ele>708.5</ele><time>2026-05-02T14:13:52.011Z</time></trkpt><trkpt lat="46.000992" lon="11.7428515"><ele>707.6666666666667</ele><time>2026-05-02T14:13:54.011Z</time></trkpt><trkpt lat="46.0010788" lon="11.7428778"><ele>706.8333333333334</ele><time>2026-05-02T14:14:11.011Z</time></trkpt><trkpt lat="46.0011805" lon="11.7429179"><ele>706.0</ele><time>2026-05-02T14:14:14.011Z</time></trkpt><trkpt lat="46.0012677" lon="11.7429312"><ele>706.0</ele><time>2026-05-02T14:14:16.011Z</time></trkpt><trkpt lat="46.0013415" lon="11.7429908"><ele>706.0</ele><time>2026-05-02T14:14:19.011Z</time></trkpt><trkpt lat="46.00145" lon="11.7430959"><ele>706.0</ele><time>2026-05-02T14:14:22.011Z</time></trkpt><trkpt lat="46.0015252" lon="11.7431396"><ele>706.0</ele><time>2026-05-02T14:14:23.011Z</time></trkpt><trkpt lat="46.0016251" lon="11.7431139"><ele>706.0</ele><time>2026-05-02T14:14:25.011Z</time></trkpt><trkpt lat="46.0017027" lon="11.7431362"><ele>708.5</ele><time>2026-05-02T14:14:26.012Z</time></trkpt><trkpt lat="46.0017831" lon="11.7431705"><ele>711.0</ele><time>2026-05-02T14:14:27.011Z</time></trkpt><trkpt lat="46.0018532" lon="11.7431935"><ele>713.5</ele><time>2026-05-02T14:14:28.012Z</time></trkpt><trkpt lat="46.0019306" lon="11.7432209"><ele>716.0</ele><time>2026-05-02T14:14:29.013Z</time></trkpt><trkpt lat="46.0020064" lon="11.7432054"><ele>718.5</ele><time>2026-05-02T14:14:30.012Z</time></trkpt><trkpt lat="46.0020797" lon="11.7432321"><ele>721.0</ele><time>2026-05-02T14:14:31.011Z</time></trkpt><trkpt lat="46.0021548" lon="11.7432385"><ele>721.0</ele><time>2026-05-02T14:14:32.011Z</time></trkpt><trkpt lat="46.0022826" lon="11.7432628"><ele>721.0</ele><time>2026-05-02T14:14:34.012Z</time></trkpt><trkpt lat="46.0023764" lon="11.743258"><ele>721.0</ele><time>2026-05-02T14:14:36.012Z</time></trkpt><trkpt lat="46.0024585" lon="11.7432695"><ele>721.0</ele><time>2026-05-02T14:14:38.012Z</time></trkpt><trkpt lat="46.0025631" lon="11.7433128"><ele>721.0</ele><time>2026-05-02T14:14:40.012Z</time></trkpt><trkpt lat="46.0026435" lon="11.7433551"><ele>726.8</ele><time>2026-05-02T14:14:41.012Z</time></trkpt><trkpt lat="46.0027324" lon="11.7434025"><ele>732.5999999999999</ele><time>2026-05-02T14:14:42.012Z</time></trkpt><trkpt lat="46.0028478" lon="11.7433803"><ele>738.4</ele><time>2026-05-02T14:14:44.012Z</time></trkpt><trkpt lat="46.0029188" lon="11.7433467"><ele>744.2</ele><time>2026-05-02T14:14:47.012Z</time></trkpt><trkpt lat="46.0030623" lon="11.7433595"><ele>750.0</ele><time>2026-05-02T14:14:49.013Z</time></trkpt><trkpt lat="46.0031354" lon="11.7433853"><ele>750.0</ele><time>2026-05-02T14:14:50.012Z</time></trkpt><trkpt lat="46.0032652" lon="11.7434787"><ele>750.0</ele><time>2026-05-02T14:14:51.012Z</time></trkpt><trkpt lat="46.0033825" lon="11.7435892"><ele>750.0</ele><time>2026-05-02T14:14:52.012Z</time></trkpt><trkpt lat="46.0034775" lon="11.7436772"><ele>750.0</ele><time>2026-05-02T14:14:53.012Z</time></trkpt><trkpt lat="46.0035664" lon="11.7437679"><ele>746.2</ele><time>2026-05-02T14:14:54.012Z</time></trkpt><trkpt lat="46.0036677" lon="11.7438483"><ele>742.4</ele><time>2026-05-02T14:14:55.012Z</time></trkpt><trkpt lat="46.0037746" lon="11.7439013"><ele>738.5999999999999</ele><time>2026-05-02T14:14:56.013Z</time></trkpt><trkpt lat="46.0038854" lon="11.7439299"><ele>734.8</ele><time>2026-05-02T14:14:57.012Z</time></trkpt><trkpt lat="46.0039904" lon="11.7439532"><ele>731.0</ele><time>2026-05-02T14:14:58.012Z</time></trkpt><trkpt lat="46.0040885" lon="11.7439551"><ele>734.8</ele><time>2026-05-02T14:14:59.012Z</time></trkpt><trkpt lat="46.0041706" lon="11.7439435"><ele>738.5999999999999</ele><time>2026-05-02T14:15:00.012Z</time></trkpt><trkpt lat="46.004266" lon="11.7439172"><ele>742.4</ele><time>2026-05-02T14:15:02.012Z</time></trkpt><trkpt lat="46.0043356" lon="11.743855"><ele>746.2</ele><time>2026-05-02T14:15:05.012Z</time></trkpt><trkpt lat="46.0044261" lon="11.7437996"><ele>750.0</ele><time>2026-05-02T14:15:07.012Z</time></trkpt><trkpt lat="46.0045012" lon="11.7436881"><ele>750.0</ele><time>2026-05-02T14:15:09.012Z</time></trkpt><trkpt lat="46.0045417" lon="11.7436163"><ele>750.0</ele><time>2026-05-02T14:15:10.012Z</time></trkpt><trkpt lat="46.0045882" lon="11.7434461"><ele>750.0</ele><time>2026-05-02T14:15:12.012Z</time></trkpt><trkpt lat="46.0046158" lon="11.7433416"><ele>750.0</ele><time>2026-05-02T14:15:13.012Z</time></trkpt><trkpt lat="46.0045819" lon="11.7431957"><ele>750.0</ele><time>2026-05-02T14:15:15.012Z</time></trkpt><trkpt lat="46.0045834" lon="11.7430617"><ele>757.1666666666666</ele><time>2026-05-02T14:15:17.012Z</time></trkpt><trkpt lat="46.0046273" lon="11.7428874"><ele>764.3333333333333</ele><time>2026-05-02T14:15:19.013Z</time></trkpt><trkpt lat="46.0046522" lon="11.7427885"><ele>771.5</ele><time>2026-05-02T14:15:20.012Z</time></trkpt><trkpt lat="46.0046784" lon="11.7426907"><ele>778.6666666666666</ele><time>2026-05-02T14:15:21.012Z</time></trkpt><trkpt lat="46.0047139" lon="11.7425908"><ele>785.8333333333333</ele><time>2026-05-02T14:15:22.012Z</time></trkpt><trkpt lat="46.0047468" lon="11.7424663"><ele>793.0</ele><time>2026-05-02T14:15:23.012Z</time></trkpt><trkpt lat="46.0047823" lon="11.742351"><ele>793.8333333333333</ele><time>2026-05-02T14:15:24.013Z</time></trkpt><trkpt lat="46.0048172" lon="11.7422663"><ele>794.6666666666666</ele><time>2026-05-02T14:15:25.012Z</time></trkpt><trkpt lat="46.0048616" lon="11.7421812"><ele>795.5</ele><time>2026-05-02T14:15:26.012Z</time></trkpt><trkpt lat="46.0049563" lon="11.7420636"><ele>796.3333333333333</ele><time>2026-05-02T14:15:28.013Z</time></trkpt><trkpt lat="46.0050157" lon="11.7419785"><ele>797.1666666666666</ele><time>2026-05-02T14:15:29.012Z</time></trkpt><trkpt lat="46.0050655" lon="11.7418789"><ele>798.0</ele><time>2026-05-02T14:15:30.013Z</time></trkpt><trkpt lat="46.0051215" lon="11.7417523"><ele>803.0</ele><time>2026-05-02T14:15:31.013Z</time></trkpt><trkpt lat="46.0051572" lon="11.7416177"><ele>808.0</ele><time>2026-05-02T14:15:32.012Z</time></trkpt><trkpt lat="46.0051982" lon="11.7414622"><ele>813.0</ele><time>2026-05-02T14:15:33.013Z</time></trkpt><trkpt lat="46.0052626" lon="11.7413042"><ele>818.0</ele><time>2026-05-02T14:15:34.013Z</time></trkpt><trkpt lat="46.0053211" lon="11.7411799"><ele>823.0</ele><time>2026-05-02T14:15:35.013Z</time></trkpt><trkpt lat="46.0053802" lon="11.7410431"><ele>829.25</ele><time>2026-05-02T14:15:36.013Z</time></trkpt><trkpt lat="46.0054522" lon="11.7409052"><ele>835.5</ele><time>2026-05-02T14:15:37.013Z</time></trkpt><trkpt lat="46.0055596" lon="11.7407816"><ele>841.75</ele><time>2026-05-02T14:15:38.013Z</time></trkpt><trkpt lat="46.005683" lon="11.7406502"><ele>848.0</ele><time>2026-05-02T14:15:39.012Z</time></trkpt><trkpt lat="46.0057896" lon="11.7405374"><ele>848.8</ele><time>2026-05-02T14:15:40.012Z</time></trkpt><trkpt lat="46.0058904" lon="11.7404045"><ele>849.5999999999999</ele><time>2026-05-02T14:15:41.013Z</time></trkpt><trkpt lat="46.0059542" lon="11.7402885"><ele>850.4000000000001</ele><time>2026-05-02T14:15:42.012Z</time></trkpt><trkpt lat="46.0060028" lon="11.74019"><ele>851.2</ele><time>2026-05-02T14:15:43.013Z</time></trkpt><trkpt lat="46.0060403" lon="11.7400341"><ele>852.0</ele><time>2026-05-02T14:15:45.012Z</time></trkpt><trkpt lat="46.0060813" lon="11.7398535"><ele>852.0</ele><time>2026-05-02T14:15:47.013Z</time></trkpt><trkpt lat="46.0061047" lon="11.7397565"><ele>852.0</ele><time>2026-05-02T14:15:48.013Z</time></trkpt><trkpt lat="46.0061339" lon="11.7396699"><ele>852.0</ele><time>2026-05-02T14:15:49.013Z</time></trkpt><trkpt lat="46.0061682" lon="11.7395768"><ele>852.0</ele><time>2026-05-02T14:15:50.013Z</time></trkpt><trkpt lat="46.0062019" lon="11.7394675"><ele>852.0</ele><time>2026-05-02T14:15:51.013Z</time></trkpt><trkpt lat="46.0062716" lon="11.7392988"><ele>852.0</ele><time>2026-05-02T14:15:53.014Z</time></trkpt><trkpt lat="46.0063356" lon="11.7391769"><ele>859.5</ele><time>2026-05-02T14:15:54.014Z</time></trkpt><trkpt lat="46.0063909" lon="11.7390573"><ele>867.0</ele><time>2026-05-02T14:15:55.013Z</time></trkpt><trkpt lat="46.0064587" lon="11.738919"><ele>874.5</ele><time>2026-05-02T14:15:56.013Z</time></trkpt><trkpt lat="46.0065339" lon="11.7387798"><ele>882.0</ele><time>2026-05-02T14:15:57.013Z</time></trkpt><trkpt lat="46.0066092" lon="11.7386231"><ele>882.0</ele><time>2026-05-02T14:15:58.014Z</time></trkpt><trkpt lat="46.0066736" lon="11.738466"><ele>882.0</ele><time>2026-05-02T14:15:59.013Z</time></trkpt><trkpt lat="46.0067398" lon="11.7383404"><ele>882.0</ele><time>2026-05-02T14:16:00.013Z</time></trkpt><trkpt lat="46.0068101" lon="11.7381778"><ele>882.0</ele><time>2026-05-02T14:16:01.014Z</time></trkpt><trkpt lat="46.0068849" lon="11.738028"><ele>882.0</ele><time>2026-05-02T14:16:02.013Z</time></trkpt><trkpt lat="46.0070328" lon="11.7377274"><ele>882.0</ele><time>2026-05-02T14:16:03.013Z</time></trkpt><trkpt lat="46.0071154" lon="11.7375915"><ele>882.0</ele><time>2026-05-02T14:16:04.014Z</time></trkpt><trkpt lat="46.0071734" lon="11.7374732"><ele>889.75</ele><time>2026-05-02T14:16:05.013Z</time></trkpt><trkpt lat="46.0072141" lon="11.7373134"><ele>897.5</ele><time>2026-05-02T14:16:06.013Z</time></trkpt><trkpt lat="46.0072748" lon="11.7370891"><ele>905.25</ele><time>2026-05-02T14:16:07.013Z</time></trkpt><trkpt lat="46.0073259" lon="11.7369626"><ele>913.0</ele><time>2026-05-02T14:16:08.013Z</time></trkpt><trkpt lat="46.0073817" lon="11.7368329"><ele>910.5</ele><time>2026-05-02T14:16:09.013Z</time></trkpt><trkpt lat="46.0074582" lon="11.7367157"><ele>908.0</ele><time>2026-05-02T14:16:10.013Z</time></trkpt><trkpt lat="46.0075276" lon="11.7366156"><ele>905.5</ele><time>2026-05-02T14:16:11.013Z</time></trkpt><trkpt lat="46.0076067" lon="11.7364926"><ele>903.0</ele><time>2026-05-02T14:16:12.013Z</time></trkpt><trkpt lat="46.0076694" lon="11.7363183"><ele>903.0</ele><time>2026-05-02T14:16:13.013Z</time></trkpt><trkpt lat="46.0077303" lon="11.7362267"><ele>903.0</ele><time>2026-05-02T14:16:14.013Z</time></trkpt><trkpt lat="46.0077865" lon="11.7360642"><ele>903.0</ele><time>2026-05-02T14:16:15.013Z</time></trkpt><trkpt lat="46.0078451" lon="11.7358927"><ele>903.0</ele><time>2026-05-02T14:16:16.013Z</time></trkpt><trkpt lat="46.0078592" lon="11.7357643"><ele>903.0</ele><time>2026-05-02T14:16:17.014Z</time></trkpt><trkpt lat="46.0078555" lon="11.7356415"><ele>907.2</ele><time>2026-05-02T14:16:18.013Z</time></trkpt><trkpt lat="46.0078668" lon="11.7355031"><ele>911.4</ele><time>2026-05-02T14:16:19.013Z</time></trkpt><trkpt lat="46.007909" lon="11.7353637"><ele>915.6000000000001</ele><time>2026-05-02T14:16:21.013Z</time></trkpt><trkpt lat="46.0078488" lon="11.7352944"><ele>919.8000000000001</ele><time>2026-05-02T14:16:33.013Z</time></trkpt><trkpt lat="46.0078481" lon="11.7352036"><ele>924.0</ele><time>2026-05-02T14:16:34.013Z</time></trkpt><trkpt lat="46.0078738" lon="11.7350356"><ele>928.0</ele><time>2026-05-02T14:16:36.013Z</time></trkpt><trkpt lat="46.0079042" lon="11.7349358"><ele>932.0</ele><time>2026-05-02T14:16:38.014Z</time></trkpt><trkpt lat="46.0079586" lon="11.734741"><ele>936.0</ele><time>2026-05-02T14:16:40.014Z</time></trkpt><trkpt lat="46.0079726" lon="11.7346473"><ele>940.0</ele><time>2026-05-02T14:16:43.015Z</time></trkpt><trkpt lat="46.0079973" lon="11.7345528"><ele>944.0</ele><time>2026-05-02T14:16:45.014Z</time></trkpt><trkpt lat="46.0080153" lon="11.7344562"><ele>948.0</ele><time>2026-05-02T14:16:55.013Z</time></trkpt><trkpt lat="46.008023" lon="11.734339"><ele>950.1666666666666</ele><time>2026-05-02T14:16:57.014Z</time></trkpt><trkpt lat="46.0080404" lon="11.7341989"><ele>952.3333333333333</ele><time>2026-05-02T14:17:00.014Z</time></trkpt><trkpt lat="46.0080307" lon="11.7340664"><ele>954.5</ele><time>2026-05-02T14:17:02.014Z</time></trkpt><trkpt lat="46.0079999" lon="11.7339853"><ele>956.6666666666666</ele><time>2026-05-02T14:17:04.014Z</time></trkpt><trkpt lat="46.0079829" lon="11.7338482"><ele>958.8333333333333</ele><time>2026-05-02T14:17:06.014Z</time></trkpt><trkpt lat="46.0079691" lon="11.7337558"><ele>961.0</ele><time>2026-05-02T14:17:07.014Z</time></trkpt><trkpt lat="46.0079599" lon="11.7336088"><ele>961.0</ele><time>2026-05-02T14:17:09.014Z</time></trkpt><trkpt lat="46.0079788" lon="11.733488"><ele>960.9999999999999</ele><time>2026-05-02T14:17:11.014Z</time></trkpt><trkpt lat="46.008022" lon="11.7333795"><ele>960.9999999999999</ele><time>2026-05-02T14:17:14.015Z</time></trkpt><trkpt lat="46.0080876" lon="11.733464"><ele>961.0</ele><time>2026-05-02T14:17:19.014Z</time></trkpt><trkpt lat="46.0081317" lon="11.7335459"><ele>961.0</ele><time>2026-05-02T14:17:20.014Z</time></trkpt><trkpt lat="46.0082166" lon="11.733664"><ele>960.9999999999999</ele><time>2026-05-02T14:17:22.014Z</time></trkpt><trkpt lat="46.0082733" lon="11.7337454"><ele>961.0</ele><time>2026-05-02T14:17:23.014Z</time></trkpt><trkpt lat="46.0083362" lon="11.7338277"><ele>961.0</ele><time>2026-05-02T14:17:24.014Z</time></trkpt><trkpt lat="46.0084079" lon="11.7339219"><ele>961.0</ele><time>2026-05-02T14:17:25.014Z</time></trkpt><trkpt lat="46.0084477" lon="11.7340264"><ele>960.9999999999999</ele><time>2026-05-02T14:17:26.014Z</time></trkpt><trkpt lat="46.0084686" lon="11.7341143"><ele>961.0</ele><time>2026-05-02T14:17:27.015Z</time></trkpt><trkpt lat="46.008502" lon="11.7341978"><ele>960.9999999999999</ele><time>2026-05-02T14:17:28.014Z</time></trkpt><trkpt lat="46.008529" lon="11.7342813"><ele>961.0</ele><time>2026-05-02T14:17:29.014Z</time></trkpt><trkpt lat="46.0085861" lon="11.7343732"><ele>961.0</ele><time>2026-05-02T14:17:31.014Z</time></trkpt><trkpt lat="46.0086591" lon="11.73445"><ele>961.0</ele><time>2026-05-02T14:17:33.014Z</time></trkpt><trkpt lat="46.0086999" lon="11.7345205"><ele>960.9999999999999</ele><time>2026-05-02T14:17:34.014Z</time></trkpt><trkpt lat="46.0088092" lon="11.7345686"><ele>961.0</ele><time>2026-05-02T14:17:36.014Z</time></trkpt><trkpt lat="46.0089136" lon="11.7346234"><ele>961.0</ele><time>2026-05-02T14:17:37.014Z</time></trkpt><trkpt lat="46.0090011" lon="11.7345678"><ele>960.9999999999999</ele><time>2026-05-02T14:17:38.014Z</time></trkpt><trkpt lat="46.0090819" lon="11.7344759"><ele>960.9999999999999</ele><time>2026-05-02T14:17:40.014Z</time></trkpt><trkpt lat="46.0091142" lon="11.7343949"><ele>961.0</ele><time>2026-05-02T14:17:45.014Z</time></trkpt><trkpt lat="46.0090274" lon="11.7343259"><ele>961.0</ele><time>2026-05-02T14:17:59.015Z</time></trkpt><trkpt lat="46.0089295" lon="11.7342328"><ele>960.9999999999999</ele><time>2026-05-02T14:18:01.016Z</time></trkpt><trkpt lat="46.0088959" lon="11.734144"><ele>961.0</ele><time>2026-05-02T14:18:02.015Z</time></trkpt><trkpt lat="46.0088768" lon="11.7340497"><ele>961.0</ele><time>2026-05-02T14:18:03.016Z</time></trkpt><trkpt lat="46.0088586" lon="11.7339217"><ele>961.0</ele><time>2026-05-02T14:18:04.015Z</time></trkpt><trkpt lat="46.0088405" lon="11.7337846"><ele>960.9999999999999</ele><time>2026-05-02T14:18:05.015Z</time></trkpt><trkpt lat="46.0088189" lon="11.7336254"><ele>961.0</ele><time>2026-05-02T14:18:06.016Z</time></trkpt><trkpt lat="46.0087946" lon="11.7334825"><ele>964.4</ele><time>2026-05-02T14:18:07.015Z</time></trkpt><trkpt lat="46.0087708" lon="11.7333459"><ele>967.8</ele><time>2026-05-02T14:18:08.015Z</time></trkpt><trkpt lat="46.008741" lon="11.7332053"><ele>971.1999999999999</ele><time>2026-05-02T14:18:09.015Z</time></trkpt><trkpt lat="46.0087092" lon="11.7330731"><ele>974.5999999999999</ele><time>2026-05-02T14:18:10.015Z</time></trkpt><trkpt lat="46.0086718" lon="11.7329357"><ele>978.0</ele><time>2026-05-02T14:18:11.015Z</time></trkpt><trkpt lat="46.008643" lon="11.7327912"><ele>980.8</ele><time>2026-05-02T14:18:12.015Z</time></trkpt><trkpt lat="46.0086182" lon="11.7326516"><ele>983.5999999999999</ele><time>2026-05-02T14:18:13.015Z</time></trkpt><trkpt lat="46.0085991" lon="11.7325124"><ele>986.4000000000001</ele><time>2026-05-02T14:18:14.016Z</time></trkpt><trkpt lat="46.0085921" lon="11.7323613"><ele>989.2</ele><time>2026-05-02T14:18:15.015Z</time></trkpt><trkpt lat="46.008613" lon="11.7322138"><ele>992.0</ele><time>2026-05-02T14:18:16.016Z</time></trkpt><trkpt lat="46.0086449" lon="11.7320516"><ele>995.25</ele><time>2026-05-02T14:18:17.016Z</time></trkpt><trkpt lat="46.0086812" lon="11.7318758"><ele>998.5</ele><time>2026-05-02T14:18:18.015Z</time></trkpt><trkpt lat="46.0087136" lon="11.7316946"><ele>1001.75</ele><time>2026-05-02T14:18:19.015Z</time></trkpt><trkpt lat="46.008736" lon="11.7315053"><ele>1005.0</ele><time>2026-05-02T14:18:20.015Z</time></trkpt><trkpt lat="46.0087406" lon="11.7313242"><ele>1005.0</ele><time>2026-05-02T14:18:21.015Z</time></trkpt><trkpt lat="46.0087335" lon="11.7311655"><ele>1005.0</ele><time>2026-05-02T14:18:22.015Z</time></trkpt><trkpt lat="46.0087296" lon="11.7310332"><ele>1005.0</ele><time>2026-05-02T14:18:23.015Z</time></trkpt><trkpt lat="46.008738" lon="11.7309053"><ele>1005.0</ele><time>2026-05-02T14:18:25.015Z</time></trkpt><trkpt lat="46.0088102" lon="11.7309598"><ele>1005.0</ele><time>2026-05-02T14:18:28.015Z</time></trkpt><trkpt lat="46.008819" lon="11.7310526"><ele>1005.0</ele><time>2026-05-02T14:18:29.015Z</time></trkpt><trkpt lat="46.0088221" lon="11.7311757"><ele>1005.0</ele><time>2026-05-02T14:18:30.015Z</time></trkpt><trkpt lat="46.0088114" lon="11.7313192"><ele>1005.0</ele><time>2026-05-02T14:18:31.015Z</time></trkpt><trkpt lat="46.0088074" lon="11.7314829"><ele>1005.0</ele><time>2026-05-02T14:18:32.015Z</time></trkpt><trkpt lat="46.0088121" lon="11.7316431"><ele>1005.0</ele><time>2026-05-02T14:18:33.015Z</time></trkpt><trkpt lat="46.0088185" lon="11.7318098"><ele>1005.0</ele><time>2026-05-02T14:18:34.015Z</time></trkpt><trkpt lat="46.0088226" lon="11.7319949"><ele>1002.4</ele><time>2026-05-02T14:18:35.015Z</time></trkpt><trkpt lat="46.0088197" lon="11.7321552"><ele>999.8</ele><time>2026-05-02T14:18:36.015Z</time></trkpt><trkpt lat="46.0088164" lon="11.7323156"><ele>997.2</ele><time>2026-05-02T14:18:37.015Z</time></trkpt><trkpt lat="46.0088313" lon="11.7324644"><ele>994.6</ele><time>2026-05-02T14:18:38.015Z</time></trkpt><trkpt lat="46.0088688" lon="11.7326015"><ele>992.0</ele><time>2026-05-02T14:18:39.015Z</time></trkpt><trkpt lat="46.0089256" lon="11.7327419"><ele>989.2</ele><time>2026-05-02T14:18:40.015Z</time></trkpt><trkpt lat="46.008992" lon="11.7328854"><ele>986.4000000000001</ele><time>2026-05-02T14:18:41.015Z</time></trkpt><trkpt lat="46.0090597" lon="11.7330257"><ele>983.5999999999999</ele><time>2026-05-02T14:18:42.015Z</time></trkpt><trkpt lat="46.009128" lon="11.7331312"><ele>980.8</ele><time>2026-05-02T14:18:43.015Z</time></trkpt><trkpt lat="46.0091993" lon="11.7331995"><ele>978.0</ele><time>2026-05-02T14:18:44.015Z</time></trkpt><trkpt lat="46.0092861" lon="11.7332554"><ele>983.1666666666666</ele><time>2026-05-02T14:18:45.015Z</time></trkpt><trkpt lat="46.0093739" lon="11.7332372"><ele>988.3333333333333</ele><time>2026-05-02T14:18:46.015Z</time></trkpt><trkpt lat="46.009457" lon="11.7331909"><ele>993.5</ele><time>2026-05-02T14:18:47.016Z</time></trkpt><trkpt lat="46.0095347" lon="11.7331174"><ele>998.6666666666666</ele><time>2026-05-02T14:18:48.016Z</time></trkpt><trkpt lat="46.0096016" lon="11.7330272"><ele>1003.8333333333333</ele><time>2026-05-02T14:18:49.015Z</time></trkpt><trkpt lat="46.0096637" lon="11.7329453"><ele>1009.0</ele><time>2026-05-02T14:18:50.015Z</time></trkpt><trkpt lat="46.0097565" lon="11.7328961"><ele>1009.0</ele><time>2026-05-02T14:18:52.015Z</time></trkpt><trkpt lat="46.0098341" lon="11.7329987"><ele>1009.0000000000001</ele><time>2026-05-02T14:18:54.016Z</time></trkpt><trkpt lat="46.0098585" lon="11.7331296"><ele>1009.0000000000001</ele><time>2026-05-02T14:18:55.015Z</time></trkpt><trkpt lat="46.0098776" lon="11.7332938"><ele>1009.0</ele><time>2026-05-02T14:18:56.015Z</time></trkpt><trkpt lat="46.0098995" lon="11.7334613"><ele>1009.0</ele><time>2026-05-02T14:18:57.016Z</time></trkpt><trkpt lat="46.0099253" lon="11.733629"><ele>1010.2</ele><time>2026-05-02T14:18:58.016Z</time></trkpt><trkpt lat="46.0099528" lon="11.7337939"><ele>1011.4000000000001</ele><time>2026-05-02T14:18:59.015Z</time></trkpt><trkpt lat="46.0099754" lon="11.733948"><ele>1012.6</ele><time>2026-05-02T14:19:00.016Z</time></trkpt><trkpt lat="46.0099934" lon="11.7340957"><ele>1013.8</ele><time>2026-05-02T14:19:01.015Z</time></trkpt><trkpt lat="46.0100111" lon="11.7342345"><ele>1015.0</ele><time>2026-05-02T14:19:02.016Z</time></trkpt><trkpt lat="46.0100279" lon="11.7343453"><ele>1014.9999999999999</ele><time>2026-05-02T14:19:03.017Z</time></trkpt><trkpt lat="46.010043" lon="11.7344553"><ele>1015.0</ele><time>2026-05-02T14:19:05.016Z</time></trkpt><trkpt lat="46.0100597" lon="11.7345533"><ele>1015.0</ele><time>2026-05-02T14:19:07.016Z</time></trkpt><trkpt lat="46.0100541" lon="11.7344587"><ele>1015.0</ele><time>2026-05-02T14:19:11.016Z</time></trkpt><trkpt lat="46.0100364" lon="11.7343698"><ele>1014.9999999999999</ele><time>2026-05-02T14:19:12.016Z</time></trkpt><trkpt lat="46.0099934" lon="11.7342609"><ele>1015.0</ele><time>2026-05-02T14:19:17.016Z</time></trkpt><trkpt lat="46.0099225" lon="11.7341651"><ele>1011.6666666666666</ele><time>2026-05-02T14:19:19.016Z</time></trkpt><trkpt lat="46.0098572" lon="11.7340605"><ele>1008.3333333333333</ele><time>2026-05-02T14:19:21.016Z</time></trkpt><trkpt lat="46.0098159" lon="11.7339846"><ele>1005.0</ele><time>2026-05-02T14:19:22.016Z</time></trkpt><trkpt lat="46.0097758" lon="11.7338827"><ele>1001.6666666666667</ele><time>2026-05-02T14:19:24.016Z</time></trkpt><trkpt lat="46.0097261" lon="11.7338075"><ele>998.3333333333334</ele><time>2026-05-02T14:19:34.016Z</time></trkpt><trkpt lat="46.0096813" lon="11.7337342"><ele>995.0</ele><time>2026-05-02T14:19:42.016Z</time></trkpt><trkpt lat="46.0096613" lon="11.7338258"><ele>995.0000000000001</ele><time>2026-05-02T14:20:12.018Z</time></trkpt><trkpt lat="46.0097212" lon="11.7338889"><ele>995.0</ele><time>2026-05-02T14:20:25.017Z</time></trkpt><trkpt lat="46.0097707" lon="11.7339525"><ele>995.0</ele><time>2026-05-02T14:20:36.017Z</time></trkpt><trkpt lat="46.0098313" lon="11.7340002"><ele>995.0</ele><time>2026-05-02T14:20:53.018Z</time></trkpt><trkpt lat="46.0098938" lon="11.7341004"><ele>995.0000000000001</ele><time>2026-05-02T14:20:55.017Z</time></trkpt><trkpt lat="46.0099349" lon="11.7341973"><ele>995.0</ele><time>2026-05-02T14:20:58.017Z</time></trkpt><trkpt lat="46.0099862" lon="11.7343258"><ele>998.2</ele><time>2026-05-02T14:21:00.017Z</time></trkpt><trkpt lat="46.0100186" lon="11.7344491"><ele>1001.4</ele><time>2026-05-02T14:21:01.017Z</time></trkpt><trkpt lat="46.0100488" lon="11.7345815"><ele>1004.5999999999999</ele><time>2026-05-02T14:21:02.019Z</time></trkpt><trkpt lat="46.0100809" lon="11.7347208"><ele>1007.8</ele><time>2026-05-02T14:21:03.018Z</time></trkpt><trkpt lat="46.0101163" lon="11.7348581"><ele>1011.0</ele><time>2026-05-02T14:21:04.018Z</time></trkpt><trkpt lat="46.0101435" lon="11.7349811"><ele>1011.0</ele><time>2026-05-02T14:21:05.018Z</time></trkpt><trkpt lat="46.0101617" lon="11.7350998"><ele>1011.0</ele><time>2026-05-02T14:21:06.018Z</time></trkpt><trkpt lat="46.0101597" lon="11.7352038"><ele>1011.0</ele><time>2026-05-02T14:21:07.018Z</time></trkpt><trkpt lat="46.0101377" lon="11.7353197"><ele>1011.0</ele><time>2026-05-02T14:21:08.017Z</time></trkpt><trkpt lat="46.0101089" lon="11.7354289"><ele>1011.0</ele><time>2026-05-02T14:21:09.019Z</time></trkpt><trkpt lat="46.0100794" lon="11.7355388"><ele>1011.0</ele><time>2026-05-02T14:21:10.018Z</time></trkpt><trkpt lat="46.0100813" lon="11.7356552"><ele>1011.1666666666666</ele><time>2026-05-02T14:21:11.018Z</time></trkpt><trkpt lat="46.0100981" lon="11.7357678"><ele>1011.3333333333333</ele><time>2026-05-02T14:21:12.018Z</time></trkpt><trkpt lat="46.0101212" lon="11.7358816"><ele>1011.5</ele><time>2026-05-02T14:21:13.017Z</time></trkpt><trkpt lat="46.0101485" lon="11.7359927"><ele>1011.6666666666666</ele><time>2026-05-02T14:21:14.018Z</time></trkpt><trkpt lat="46.0101718" lon="11.7361038"><ele>1011.8333333333333</ele><time>2026-05-02T14:21:15.018Z</time></trkpt><trkpt lat="46.0101902" lon="11.7362157"><ele>1012.0</ele><time>2026-05-02T14:21:16.018Z</time></trkpt><trkpt lat="46.0102037" lon="11.7363321"><ele>1011.9999999999999</ele><time>2026-05-02T14:21:17.018Z</time></trkpt><trkpt lat="46.0102112" lon="11.736443"><ele>1012.0</ele><time>2026-05-02T14:21:18.018Z</time></trkpt><trkpt lat="46.0102161" lon="11.7365345"><ele>1012.0</ele><time>2026-05-02T14:21:19.018Z</time></trkpt><trkpt lat="46.010225" lon="11.7366414"><ele>1012.0</ele><time>2026-05-02T14:21:20.018Z</time></trkpt><trkpt lat="46.0102337" lon="11.73674"><ele>1011.9999999999999</ele><time>2026-05-02T14:21:21.019Z</time></trkpt><trkpt lat="46.0102583" lon="11.7369171"><ele>1012.0</ele><time>2026-05-02T14:21:23.018Z</time></trkpt><trkpt lat="46.0102878" lon="11.7370043"><ele>1012.4285714285716</ele><time>2026-05-02T14:21:24.019Z</time></trkpt><trkpt lat="46.0103364" lon="11.7370719"><ele>1012.8571428571429</ele><time>2026-05-02T14:21:25.018Z</time></trkpt><trkpt lat="46.0103923" lon="11.7371375"><ele>1013.2857142857143</ele><time>2026-05-02T14:21:26.018Z</time></trkpt><trkpt lat="46.0104534" lon="11.7371755"><ele>1013.7142857142858</ele><time>2026-05-02T14:21:27.018Z</time></trkpt><trkpt lat="46.0105198" lon="11.7372059"><ele>1014.1428571428571</ele><time>2026-05-02T14:21:28.019Z</time></trkpt><trkpt lat="46.0105917" lon="11.737241"><ele>1014.5714285714286</ele><time>2026-05-02T14:21:29.018Z</time></trkpt><trkpt lat="46.0106679" lon="11.7372763"><ele>1015.0</ele><time>2026-05-02T14:21:30.019Z</time></trkpt><trkpt lat="46.0107359" lon="11.7373111"><ele>1015.0</ele><time>2026-05-02T14:21:31.018Z</time></trkpt><trkpt lat="46.0108027" lon="11.7373444"><ele>1015.0</ele><time>2026-05-02T14:21:32.018Z</time></trkpt><trkpt lat="46.0108672" lon="11.7373877"><ele>1015.0</ele><time>2026-05-02T14:21:33.018Z</time></trkpt><trkpt lat="46.0109305" lon="11.7374424"><ele>1015.0</ele><time>2026-05-02T14:21:34.018Z</time></trkpt><trkpt lat="46.0109881" lon="11.7375106"><ele>1015.0</ele><time>2026-05-02T14:21:35.018Z</time></trkpt><trkpt lat="46.0110428" lon="11.7375871"><ele>1015.0</ele><time>2026-05-02T14:21:36.018Z</time></trkpt><trkpt lat="46.0110995" lon="11.7376703"><ele>1015.0</ele><time>2026-05-02T14:21:37.018Z</time></trkpt><trkpt lat="46.0111572" lon="11.7377491"><ele>1016.4285714285714</ele><time>2026-05-02T14:21:38.019Z</time></trkpt><trkpt lat="46.0112152" lon="11.7378249"><ele>1017.8571428571429</ele><time>2026-05-02T14:21:39.018Z</time></trkpt><trkpt lat="46.0112707" lon="11.7379013"><ele>1019.2857142857142</ele><time>2026-05-02T14:21:40.018Z</time></trkpt><trkpt lat="46.0113238" lon="11.7379732"><ele>1020.7142857142857</ele><time>2026-05-02T14:21:41.018Z</time></trkpt><trkpt lat="46.0113764" lon="11.7380444"><ele>1022.1428571428571</ele><time>2026-05-02T14:21:42.018Z</time></trkpt><trkpt lat="46.0114271" lon="11.7381163"><ele>1023.5714285714284</ele><time>2026-05-02T14:21:43.018Z</time></trkpt><trkpt lat="46.0114782" lon="11.7381907"><ele>1025.0</ele><time>2026-05-02T14:21:44.018Z</time></trkpt><trkpt lat="46.011531" lon="11.7382661"><ele>1025.0</ele><time>2026-05-02T14:21:45.018Z</time></trkpt><trkpt lat="46.0115939" lon="11.7383527"><ele>1025.0</ele><time>2026-05-02T14:21:46.018Z</time></trkpt><trkpt lat="46.0116582" lon="11.7384432"><ele>1025.0</ele><time>2026-05-02T14:21:47.018Z</time></trkpt><trkpt lat="46.0117237" lon="11.7385407"><ele>1025.0</ele><time>2026-05-02T14:21:48.018Z</time></trkpt><trkpt lat="46.0117932" lon="11.7386396"><ele>1025.0</ele><time>2026-05-02T14:21:49.018Z</time></trkpt><trkpt lat="46.011866" lon="11.7387368"><ele>1024.0</ele><time>2026-05-02T14:21:50.018Z</time></trkpt><trkpt lat="46.0119345" lon="11.7388382"><ele>1023.0</ele><time>2026-05-02T14:21:51.018Z</time></trkpt><trkpt lat="46.0119948" lon="11.738941"><ele>1022.0</ele><time>2026-05-02T14:21:52.018Z</time></trkpt><trkpt lat="46.012047" lon="11.7390517"><ele>1021.0</ele><time>2026-05-02T14:21:53.018Z</time></trkpt><trkpt lat="46.0120946" lon="11.7391638"><ele>1020.0</ele><time>2026-05-02T14:21:54.018Z</time></trkpt><trkpt lat="46.0121228" lon="11.7392914"><ele>1019.6</ele><time>2026-05-02T14:21:55.018Z</time></trkpt><trkpt lat="46.0121512" lon="11.7394279"><ele>1019.2</ele><time>2026-05-02T14:21:56.018Z</time></trkpt><trkpt lat="46.0121786" lon="11.7395615"><ele>1018.8</ele><time>2026-05-02T14:21:57.018Z</time></trkpt><trkpt lat="46.0122058" lon="11.7396937"><ele>1018.4</ele><time>2026-05-02T14:21:58.018Z</time></trkpt><trkpt lat="46.0122399" lon="11.7398208"><ele>1018.0</ele><time>2026-05-02T14:21:59.018Z</time></trkpt><trkpt lat="46.0122849" lon="11.7399349"><ele>1018.0</ele><time>2026-05-02T14:22:00.019Z</time></trkpt><trkpt lat="46.0123451" lon="11.7400339"><ele>1018.0</ele><time>2026-05-02T14:22:01.018Z</time></trkpt><trkpt lat="46.0124189" lon="11.7401189"><ele>1018.0</ele><time>2026-05-02T14:22:02.019Z</time></trkpt><trkpt lat="46.0125007" lon="11.7401943"><ele>1018.0</ele><time>2026-05-02T14:22:03.02Z</time></trkpt><trkpt lat="46.0125848" lon="11.7402662"><ele>1018.0</ele><time>2026-05-02T14:22:04.019Z</time></trkpt><trkpt lat="46.0126683" lon="11.7403389"><ele>1019.2</ele><time>2026-05-02T14:22:05.018Z</time></trkpt><trkpt lat="46.0127506" lon="11.740413"><ele>1020.4</ele><time>2026-05-02T14:22:06.02Z</time></trkpt><trkpt lat="46.0128305" lon="11.7404983"><ele>1021.6000000000001</ele><time>2026-05-02T14:22:07.018Z</time></trkpt><trkpt lat="46.0129081" lon="11.7405792"><ele>1022.8000000000001</ele><time>2026-05-02T14:22:08.019Z</time></trkpt><trkpt lat="46.0129804" lon="11.7406469"><ele>1024.0</ele><time>2026-05-02T14:22:09.018Z</time></trkpt><trkpt lat="46.0130541" lon="11.7406896"><ele>1024.0</ele><time>2026-05-02T14:22:10.019Z</time></trkpt><trkpt lat="46.0131293" lon="11.7406999"><ele>1024.0</ele><time>2026-05-02T14:22:11.019Z</time></trkpt><trkpt lat="46.0132141" lon="11.7406812"><ele>1024.0</ele><time>2026-05-02T14:22:12.018Z</time></trkpt><trkpt lat="46.013314" lon="11.7406314"><ele>1024.0</ele><time>2026-05-02T14:22:13.019Z</time></trkpt><trkpt lat="46.0134166" lon="11.7405731"><ele>1024.0</ele><time>2026-05-02T14:22:14.018Z</time></trkpt><trkpt lat="46.0135192" lon="11.7405217"><ele>1025.6666666666665</ele><time>2026-05-02T14:22:15.018Z</time></trkpt><trkpt lat="46.0136098" lon="11.7404951"><ele>1027.3333333333333</ele><time>2026-05-02T14:22:16.018Z</time></trkpt><trkpt lat="46.0136988" lon="11.7404857"><ele>1029.0</ele><time>2026-05-02T14:22:17.019Z</time></trkpt><trkpt lat="46.0137903" lon="11.7404874"><ele>1030.6666666666667</ele><time>2026-05-02T14:22:18.019Z</time></trkpt><trkpt lat="46.0138809" lon="11.740498"><ele>1032.3333333333335</ele><time>2026-05-02T14:22:19.019Z</time></trkpt><trkpt lat="46.0139575" lon="11.7405389"><ele>1034.0</ele><time>2026-05-02T14:22:20.021Z</time></trkpt><trkpt lat="46.0140105" lon="11.7406166"><ele>1034.0</ele><time>2026-05-02T14:22:21.018Z</time></trkpt><trkpt lat="46.0140511" lon="11.7407145"><ele>1034.0</ele><time>2026-05-02T14:22:22.019Z</time></trkpt><trkpt lat="46.0140833" lon="11.7408105"><ele>1034.0</ele><time>2026-05-02T14:22:23.019Z</time></trkpt><trkpt lat="46.0140987" lon="11.7409017"><ele>1034.0</ele><time>2026-05-02T14:22:24.019Z</time></trkpt><trkpt lat="46.0141145" lon="11.740992"><ele>1034.0</ele><time>2026-05-02T14:22:25.019Z</time></trkpt><trkpt lat="46.0141218" lon="11.7410923"><ele>1034.0</ele><time>2026-05-02T14:22:26.019Z</time></trkpt><trkpt lat="46.0141252" lon="11.7412047"><ele>1034.0</ele><time>2026-05-02T14:22:27.019Z</time></trkpt><trkpt lat="46.014134" lon="11.7413095"><ele>1034.1666666666667</ele><time>2026-05-02T14:22:28.02Z</time></trkpt><trkpt lat="46.0141466" lon="11.7414129"><ele>1034.3333333333335</ele><time>2026-05-02T14:22:29.019Z</time></trkpt><trkpt lat="46.0141785" lon="11.7415177"><ele>1034.5</ele><time>2026-05-02T14:22:30.019Z</time></trkpt><trkpt lat="46.014225" lon="11.7416152"><ele>1034.6666666666667</ele><time>2026-05-02T14:22:31.019Z</time></trkpt><trkpt lat="46.0142847" lon="11.7417068"><ele>1034.8333333333333</ele><time>2026-05-02T14:22:32.019Z</time></trkpt><trkpt lat="46.0143554" lon="11.7417969"><ele>1035.0</ele><time>2026-05-02T14:22:33.019Z</time></trkpt><trkpt lat="46.0144251" lon="11.7418874"><ele>1035.0</ele><time>2026-05-02T14:22:34.019Z</time></trkpt><trkpt lat="46.0144848" lon="11.7419737"><ele>1035.0</ele><time>2026-05-02T14:22:35.019Z</time></trkpt><trkpt lat="46.0145408" lon="11.7420572"><ele>1035.0</ele><time>2026-05-02T14:22:36.019Z</time></trkpt><trkpt lat="46.0146006" lon="11.7421277"><ele>1035.0</ele><time>2026-05-02T14:22:37.019Z</time></trkpt><trkpt lat="46.0146686" lon="11.7421696"><ele>1035.0</ele><time>2026-05-02T14:22:38.019Z</time></trkpt><trkpt lat="46.0147382" lon="11.7421928"><ele>1035.0</ele><time>2026-05-02T14:22:39.019Z</time></trkpt><trkpt lat="46.0148203" lon="11.7421876"><ele>1035.0</ele><time>2026-05-02T14:22:40.019Z</time></trkpt><trkpt lat="46.0149048" lon="11.7421681"><ele>1035.0</ele><time>2026-05-02T14:22:41.019Z</time></trkpt><trkpt lat="46.0149876" lon="11.7421481"><ele>1035.0</ele><time>2026-05-02T14:22:42.019Z</time></trkpt><trkpt lat="46.0150659" lon="11.7421268"><ele>1035.0</ele><time>2026-05-02T14:22:43.019Z</time></trkpt><trkpt lat="46.0151361" lon="11.7421104"><ele>1035.0</ele><time>2026-05-02T14:22:44.02Z</time></trkpt><trkpt lat="46.0151999" lon="11.7420967"><ele>1035.0</ele><time>2026-05-02T14:22:45.019Z</time></trkpt><trkpt lat="46.015279" lon="11.7421349"><ele>1036.0</ele><time>2026-05-02T14:22:47.019Z</time></trkpt><trkpt lat="46.0153457" lon="11.7422036"><ele>1037.0</ele><time>2026-05-02T14:22:50.019Z</time></trkpt><trkpt lat="46.0154127" lon="11.7421358"><ele>1038.0</ele><time>2026-05-02T14:22:54.02Z</time></trkpt><trkpt lat="46.015357" lon="11.7420562"><ele>1039.0</ele><time>2026-05-02T14:22:57.019Z</time></trkpt><trkpt lat="46.015307" lon="11.7421151"><ele>1040.0</ele><time>2026-05-02T14:23:00.019Z</time></trkpt><trkpt lat="46.0152848" lon="11.7422108"><ele>1041.0</ele><time>2026-05-02T14:23:26.02Z</time></trkpt><trkpt lat="46.0152081" lon="11.7423454"><ele>1041.0</ele><time>2026-05-02T14:23:29.02Z</time></trkpt><trkpt lat="46.0151186" lon="11.742459"><ele>1041.0</ele><time>2026-05-02T14:23:31.02Z</time></trkpt><trkpt lat="46.015074" lon="11.7425254"><ele>1041.0</ele><time>2026-05-02T14:23:32.02Z</time></trkpt><trkpt lat="46.0149787" lon="11.7426268"><ele>1041.0</ele><time>2026-05-02T14:23:34.021Z</time></trkpt><trkpt lat="46.0149375" lon="11.7427029"><ele>1041.0</ele><time>2026-05-02T14:23:35.02Z</time></trkpt><trkpt lat="46.014909" lon="11.7427989"><ele>1041.0</ele><time>2026-05-02T14:23:36.02Z</time></trkpt><trkpt lat="46.0148925" lon="11.7428871"><ele>1036.2</ele><time>2026-05-02T14:23:37.02Z</time></trkpt><trkpt lat="46.0148498" lon="11.7430295"><ele>1031.3999999999999</ele><time>2026-05-02T14:23:39.021Z</time></trkpt><trkpt lat="46.0147763" lon="11.7431386"><ele>1026.6</ele><time>2026-05-02T14:23:41.02Z</time></trkpt><trkpt lat="46.0147197" lon="11.7432497"><ele>1021.8</ele><time>2026-05-02T14:23:43.021Z</time></trkpt><trkpt lat="46.0146905" lon="11.743405"><ele>1017.0</ele><time>2026-05-02T14:23:45.021Z</time></trkpt><trkpt lat="46.014669" lon="11.7435647"><ele>1012.2</ele><time>2026-05-02T14:23:47.02Z</time></trkpt><trkpt lat="46.0146601" lon="11.743736"><ele>1007.4000000000001</ele><time>2026-05-02T14:23:49.02Z</time></trkpt><trkpt lat="46.0146263" lon="11.7438788"><ele>1002.5999999999999</ele><time>2026-05-02T14:23:51.02Z</time></trkpt><trkpt lat="46.0146091" lon="11.7439708"><ele>997.8</ele><time>2026-05-02T14:23:53.02Z</time></trkpt><trkpt lat="46.0144992" lon="11.7438825"><ele>993.0</ele><time>2026-05-02T14:23:56.02Z</time></trkpt><trkpt lat="46.0144372" lon="11.743803"><ele>993.0</ele><time>2026-05-02T14:23:58.02Z</time></trkpt><trkpt lat="46.0143606" lon="11.7438237"><ele>993.0</ele><time>2026-05-02T14:24:00.02Z</time></trkpt><trkpt lat="46.0142707" lon="11.7438913"><ele>993.0</ele><time>2026-05-02T14:24:02.021Z</time></trkpt><trkpt lat="46.0141596" lon="11.7439669"><ele>993.0</ele><time>2026-05-02T14:24:04.02Z</time></trkpt><trkpt lat="46.0140835" lon="11.7439986"><ele>993.0</ele><time>2026-05-02T14:24:05.02Z</time></trkpt><trkpt lat="46.0140108" lon="11.7440213"><ele>986.5</ele><time>2026-05-02T14:24:06.02Z</time></trkpt><trkpt lat="46.0138998" lon="11.7440508"><ele>980.0</ele><time>2026-05-02T14:24:08.021Z</time></trkpt><trkpt lat="46.0138114" lon="11.7440821"><ele>973.5</ele><time>2026-05-02T14:24:10.021Z</time></trkpt><trkpt lat="46.0136928" lon="11.744115"><ele>967.0</ele><time>2026-05-02T14:24:12.02Z</time></trkpt><trkpt lat="46.0135493" lon="11.7441271"><ele>966.9999999999999</ele><time>2026-05-02T14:24:14.021Z</time></trkpt><trkpt lat="46.0134663" lon="11.7441023"><ele>967.0</ele><time>2026-05-02T14:24:15.02Z</time></trkpt><trkpt lat="46.0133877" lon="11.7440831"><ele>967.0</ele><time>2026-05-02T14:24:16.021Z</time></trkpt><trkpt lat="46.0133143" lon="11.7440424"><ele>967.0</ele><time>2026-05-02T14:24:17.021Z</time></trkpt><trkpt lat="46.0132395" lon="11.744001"><ele>966.9999999999999</ele><time>2026-05-02T14:24:18.021Z</time></trkpt><trkpt lat="46.0131694" lon="11.7439605"><ele>967.0</ele><time>2026-05-02T14:24:19.021Z</time></trkpt><trkpt lat="46.0130998" lon="11.7439379"><ele>962.1666666666666</ele><time>2026-05-02T14:24:20.021Z</time></trkpt><trkpt lat="46.0130376" lon="11.7439226"><ele>957.3333333333333</ele><time>2026-05-02T14:24:21.021Z</time></trkpt><trkpt lat="46.0129659" lon="11.7438965"><ele>952.5</ele><time>2026-05-02T14:24:22.02Z</time></trkpt><trkpt lat="46.0128864" lon="11.7438912"><ele>947.6666666666667</ele><time>2026-05-02T14:24:23.02Z</time></trkpt><trkpt lat="46.0128031" lon="11.7438768"><ele>942.8333333333334</ele><time>2026-05-02T14:24:24.021Z</time></trkpt><trkpt lat="46.0127069" lon="11.7438733"><ele>938.0</ele><time>2026-05-02T14:24:25.022Z</time></trkpt><trkpt lat="46.0126156" lon="11.7438565"><ele>938.0000000000001</ele><time>2026-05-02T14:24:26.021Z</time></trkpt><trkpt lat="46.0125361" lon="11.743841"><ele>938.0</ele><time>2026-05-02T14:24:27.021Z</time></trkpt><trkpt lat="46.012471" lon="11.7438151"><ele>938.0</ele><time>2026-05-02T14:24:28.021Z</time></trkpt><trkpt lat="46.0123799" lon="11.7437839"><ele>938.0</ele><time>2026-05-02T14:24:30.02Z</time></trkpt><trkpt lat="46.0123234" lon="11.743742"><ele>938.0000000000001</ele><time>2026-05-02T14:24:32.02Z</time></trkpt><trkpt lat="46.0122841" lon="11.7435848"><ele>938.0</ele><time>2026-05-02T14:24:34.021Z</time></trkpt><trkpt lat="46.0122073" lon="11.7436122"><ele>936.0</ele><time>2026-05-02T14:24:37.021Z</time></trkpt><trkpt lat="46.0121484" lon="11.7437129"><ele>934.0</ele><time>2026-05-02T14:24:39.021Z</time></trkpt><trkpt lat="46.0121105" lon="11.7438501"><ele>932.0</ele><time>2026-05-02T14:24:41.021Z</time></trkpt><trkpt lat="46.0120853" lon="11.7439725"><ele>930.0</ele><time>2026-05-02T14:24:43.021Z</time></trkpt><trkpt lat="46.0119916" lon="11.7440971"><ele>928.0</ele><time>2026-05-02T14:24:45.021Z</time></trkpt><trkpt lat="46.0119128" lon="11.7441299"><ele>927.9999999999999</ele><time>2026-05-02T14:24:46.021Z</time></trkpt><trkpt lat="46.0118318" lon="11.7441429"><ele>928.0</ele><time>2026-05-02T14:24:47.022Z</time></trkpt><trkpt lat="46.0117374" lon="11.7441763"><ele>928.0</ele><time>2026-05-02T14:24:48.021Z</time></trkpt><trkpt lat="46.0116808" lon="11.7442166"><ele>928.0</ele><time>2026-05-02T14:24:49.021Z</time></trkpt><trkpt lat="46.0116261" lon="11.7442644"><ele>927.9999999999999</ele><time>2026-05-02T14:24:50.021Z</time></trkpt><trkpt lat="46.0115535" lon="11.744362"><ele>928.0</ele><time>2026-05-02T14:24:52.021Z</time></trkpt><trkpt lat="46.0115406" lon="11.7444508"><ele>922.8</ele><time>2026-05-02T14:24:56.021Z</time></trkpt><trkpt lat="46.0114539" lon="11.7445632"><ele>917.5999999999999</ele><time>2026-05-02T14:25:09.021Z</time></trkpt><trkpt lat="46.0113959" lon="11.7446114"><ele>912.4000000000001</ele><time>2026-05-02T14:25:10.021Z</time></trkpt><trkpt lat="46.0113302" lon="11.744671"><ele>907.2</ele><time>2026-05-02T14:25:11.021Z</time></trkpt><trkpt lat="46.0112496" lon="11.7447531"><ele>902.0</ele><time>2026-05-02T14:25:12.021Z</time></trkpt><trkpt lat="46.0111485" lon="11.7448307"><ele>902.0000000000001</ele><time>2026-05-02T14:25:13.022Z</time></trkpt><trkpt lat="46.0110569" lon="11.7448937"><ele>902.0</ele><time>2026-05-02T14:25:14.021Z</time></trkpt><trkpt lat="46.0109788" lon="11.7449525"><ele>902.0</ele><time>2026-05-02T14:25:15.022Z</time></trkpt><trkpt lat="46.0108928" lon="11.7450036"><ele>902.0</ele><time>2026-05-02T14:25:16.021Z</time></trkpt><trkpt lat="46.0108237" lon="11.7450435"><ele>902.0000000000001</ele><time>2026-05-02T14:25:17.023Z</time></trkpt><trkpt lat="46.0107491" lon="11.7450844"><ele>902.0</ele><time>2026-05-02T14:25:18.022Z</time></trkpt><trkpt lat="46.0106726" lon="11.7451246"><ele>899.5</ele><time>2026-05-02T14:25:19.021Z</time></trkpt><trkpt lat="46.0106072" lon="11.745119"><ele>897.0</ele><time>2026-05-02T14:25:20.021Z</time></trkpt><trkpt lat="46.0104161" lon="11.7451005"><ele>894.5</ele><time>2026-05-02T14:25:22.022Z</time></trkpt><trkpt lat="46.0103332" lon="11.7451156"><ele>892.0</ele><time>2026-05-02T14:25:23.021Z</time></trkpt><trkpt lat="46.010217" lon="11.7451395"><ele>892.0</ele><time>2026-05-02T14:25:25.022Z</time></trkpt><trkpt lat="46.0101355" lon="11.7451698"><ele>892.0</ele><time>2026-05-02T14:25:26.022Z</time></trkpt><trkpt lat="46.0099664" lon="11.7452043"><ele>892.0</ele><time>2026-05-02T14:25:27.021Z</time></trkpt><trkpt lat="46.0099035" lon="11.7452161"><ele>892.0</ele><time>2026-05-02T14:25:28.021Z</time></trkpt><trkpt lat="46.0097705" lon="11.7451399"><ele>887.8333333333333</ele><time>2026-05-02T14:25:30.022Z</time></trkpt><trkpt lat="46.0096943" lon="11.7450506"><ele>883.6666666666666</ele><time>2026-05-02T14:25:31.022Z</time></trkpt><trkpt lat="46.0096216" lon="11.7449867"><ele>879.5</ele><time>2026-05-02T14:25:32.022Z</time></trkpt><trkpt lat="46.0095469" lon="11.744955"><ele>875.3333333333333</ele><time>2026-05-02T14:25:33.022Z</time></trkpt><trkpt lat="46.009456" lon="11.7449527"><ele>871.1666666666666</ele><time>2026-05-02T14:25:34.022Z</time></trkpt><trkpt lat="46.0093683" lon="11.7449511"><ele>867.0</ele><time>2026-05-02T14:25:35.022Z</time></trkpt><trkpt lat="46.0092741" lon="11.7449497"><ele>867.0</ele><time>2026-05-02T14:25:36.023Z</time></trkpt><trkpt lat="46.0091912" lon="11.7449483"><ele>867.0</ele><time>2026-05-02T14:25:37.022Z</time></trkpt><trkpt lat="46.0091106" lon="11.7449282"><ele>867.0</ele><time>2026-05-02T14:25:38.022Z</time></trkpt><trkpt lat="46.0090322" lon="11.7449085"><ele>867.0</ele><time>2026-05-02T14:25:39.022Z</time></trkpt><trkpt lat="46.0089344" lon="11.7448829"><ele>867.0</ele><time>2026-05-02T14:25:40.022Z</time></trkpt><trkpt lat="46.0088231" lon="11.7448448"><ele>863.3333333333334</ele><time>2026-05-02T14:25:41.022Z</time></trkpt><trkpt lat="46.0087292" lon="11.744827"><ele>859.6666666666667</ele><time>2026-05-02T14:25:42.023Z</time></trkpt><trkpt lat="46.0086397" lon="11.7449002"><ele>856.0</ele><time>2026-05-02T14:25:43.022Z</time></trkpt><trkpt lat="46.0085654" lon="11.7449324"><ele>852.3333333333334</ele><time>2026-05-02T14:25:44.022Z</time></trkpt><trkpt lat="46.0084848" lon="11.7449646"><ele>848.6666666666667</ele><time>2026-05-02T14:25:45.022Z</time></trkpt><trkpt lat="46.0084021" lon="11.7450051"><ele>845.0</ele><time>2026-05-02T14:25:46.022Z</time></trkpt><trkpt lat="46.0083285" lon="11.7450402"><ele>842.4285714285713</ele><time>2026-05-02T14:25:47.022Z</time></trkpt><trkpt lat="46.0082578" lon="11.7450524"><ele>839.8571428571429</ele><time>2026-05-02T14:25:48.022Z</time></trkpt><trkpt lat="46.0081817" lon="11.7450657"><ele>837.2857142857142</ele><time>2026-05-02T14:25:49.022Z</time></trkpt><trkpt lat="46.008116" lon="11.745089"><ele>834.7142857142857</ele><time>2026-05-02T14:25:50.022Z</time></trkpt><trkpt lat="46.0080441" lon="11.7450874"><ele>832.1428571428571</ele><time>2026-05-02T14:25:51.022Z</time></trkpt><trkpt lat="46.0079727" lon="11.7450645"><ele>829.5714285714286</ele><time>2026-05-02T14:25:52.022Z</time></trkpt><trkpt lat="46.0079122" lon="11.7450184"><ele>827.0</ele><time>2026-05-02T14:25:53.023Z</time></trkpt><trkpt lat="46.0077844" lon="11.7449459"><ele>827.0</ele><time>2026-05-02T14:25:55.022Z</time></trkpt><trkpt lat="46.0075926" lon="11.744896"><ele>827.0</ele><time>2026-05-02T14:25:56.022Z</time></trkpt><trkpt lat="46.0075162" lon="11.7448867"><ele>827.0</ele><time>2026-05-02T14:25:57.022Z</time></trkpt><trkpt lat="46.0074385" lon="11.7448803"><ele>827.0</ele><time>2026-05-02T14:25:58.022Z</time></trkpt><trkpt lat="46.0073613" lon="11.7448801"><ele>827.0</ele><time>2026-05-02T14:25:59.022Z</time></trkpt><trkpt lat="46.0072459" lon="11.7449377"><ele>822.0</ele><time>2026-05-02T14:26:01.022Z</time></trkpt><trkpt lat="46.0071701" lon="11.7449349"><ele>817.0</ele><time>2026-05-02T14:26:02.022Z</time></trkpt><trkpt lat="46.0070663" lon="11.7448837"><ele>812.0</ele><time>2026-05-02T14:26:05.022Z</time></trkpt><trkpt lat="46.0069746" lon="11.744805"><ele>807.0</ele><time>2026-05-02T14:26:06.022Z</time></trkpt><trkpt lat="46.0069247" lon="11.7446799"><ele>802.0</ele><time>2026-05-02T14:26:08.023Z</time></trkpt><trkpt lat="46.0068717" lon="11.744587"><ele>802.0</ele><time>2026-05-02T14:26:11.022Z</time></trkpt><trkpt lat="46.0067796" lon="11.7446492"><ele>802.0</ele><time>2026-05-02T14:26:14.023Z</time></trkpt><trkpt lat="46.0066802" lon="11.7447094"><ele>802.0</ele><time>2026-05-02T14:26:16.022Z</time></trkpt><trkpt lat="46.0065714" lon="11.7447054"><ele>802.0</ele><time>2026-05-02T14:26:18.022Z</time></trkpt><trkpt lat="46.00645" lon="11.744679"><ele>802.0</ele><time>2026-05-02T14:26:20.022Z</time></trkpt><trkpt lat="46.0063478" lon="11.7446567"><ele>798.0</ele><time>2026-05-02T14:26:22.022Z</time></trkpt><trkpt lat="46.0062823" lon="11.7446369"><ele>794.0</ele><time>2026-05-02T14:26:24.022Z</time></trkpt><trkpt lat="46.0061833" lon="11.7446427"><ele>790.0</ele><time>2026-05-02T14:26:34.022Z</time></trkpt><trkpt lat="46.0060764" lon="11.7446584"><ele>786.0</ele><time>2026-05-02T14:26:53.023Z</time></trkpt><trkpt lat="46.0059547" lon="11.7446968"><ele>782.0</ele><time>2026-05-02T14:26:55.024Z</time></trkpt><trkpt lat="46.0058748" lon="11.7447292"><ele>778.3333333333334</ele><time>2026-05-02T14:26:56.024Z</time></trkpt><trkpt lat="46.0057828" lon="11.7447705"><ele>774.6666666666667</ele><time>2026-05-02T14:26:57.023Z</time></trkpt><trkpt lat="46.0057068" lon="11.7448004"><ele>771.0</ele><time>2026-05-02T14:26:58.024Z</time></trkpt><trkpt lat="46.0056166" lon="11.7448198"><ele>767.3333333333334</ele><time>2026-05-02T14:26:59.023Z</time></trkpt><trkpt lat="46.0055313" lon="11.744839"><ele>763.6666666666667</ele><time>2026-05-02T14:27:00.024Z</time></trkpt><trkpt lat="46.0054567" lon="11.7448409"><ele>760.0</ele><time>2026-05-02T14:27:01.023Z</time></trkpt><trkpt lat="46.005361" lon="11.7448347"><ele>760.0</ele><time>2026-05-02T14:27:02.023Z</time></trkpt><trkpt lat="46.0052659" lon="11.744831"><ele>760.0</ele><time>2026-05-02T14:27:03.023Z</time></trkpt><trkpt lat="46.0051709" lon="11.7448513"><ele>760.0</ele><time>2026-05-02T14:27:04.023Z</time></trkpt><trkpt lat="46.0050671" lon="11.7448883"><ele>760.0</ele><time>2026-05-02T14:27:05.024Z</time></trkpt><trkpt lat="46.0049664" lon="11.7449233"><ele>760.0</ele><time>2026-05-02T14:27:06.023Z</time></trkpt><trkpt lat="46.0048794" lon="11.7449295"><ele>755.5</ele><time>2026-05-02T14:27:07.023Z</time></trkpt><trkpt lat="46.0047841" lon="11.7449451"><ele>751.0</ele><time>2026-05-02T14:27:08.024Z</time></trkpt><trkpt lat="46.0047087" lon="11.7449883"><ele>746.5</ele><time>2026-05-02T14:27:09.023Z</time></trkpt><trkpt lat="46.0046444" lon="11.7450519"><ele>742.0</ele><time>2026-05-02T14:27:10.023Z</time></trkpt><trkpt lat="46.0045374" lon="11.7451167"><ele>737.5</ele><time>2026-05-02T14:27:12.024Z</time></trkpt><trkpt lat="46.0044619" lon="11.7451099"><ele>733.0</ele><time>2026-05-02T14:27:13.023Z</time></trkpt><trkpt lat="46.0043957" lon="11.745077"><ele>732.9999999999999</ele><time>2026-05-02T14:27:14.023Z</time></trkpt><trkpt lat="46.0043352" lon="11.7450304"><ele>733.0</ele><time>2026-05-02T14:27:15.024Z</time></trkpt><trkpt lat="46.0042526" lon="11.7450032"><ele>733.0</ele><time>2026-05-02T14:27:17.024Z</time></trkpt><trkpt lat="46.0041846" lon="11.7450441"><ele>733.0</ele><time>2026-05-02T14:27:19.023Z</time></trkpt><trkpt lat="46.0041269" lon="11.7450886"><ele>733.0</ele><time>2026-05-02T14:27:20.023Z</time></trkpt><trkpt lat="46.0040655" lon="11.7451388"><ele>732.9999999999999</ele><time>2026-05-02T14:27:21.023Z</time></trkpt><trkpt lat="46.0039956" lon="11.7451839"><ele>733.0</ele><time>2026-05-02T14:27:22.023Z</time></trkpt><trkpt lat="46.0039088" lon="11.7452343"><ele>730.8333333333334</ele><time>2026-05-02T14:27:23.023Z</time></trkpt><trkpt lat="46.0038297" lon="11.7452829"><ele>728.6666666666667</ele><time>2026-05-02T14:27:24.024Z</time></trkpt><trkpt lat="46.0037304" lon="11.7452998"><ele>726.5</ele><time>2026-05-02T14:27:25.025Z</time></trkpt><trkpt lat="46.0036477" lon="11.7452704"><ele>724.3333333333334</ele><time>2026-05-02T14:27:26.025Z</time></trkpt><trkpt lat="46.0035612" lon="11.7452634"><ele>722.1666666666666</ele><time>2026-05-02T14:27:27.024Z</time></trkpt><trkpt lat="46.0034814" lon="11.7452699"><ele>720.0</ele><time>2026-05-02T14:27:28.024Z</time></trkpt><trkpt lat="46.0033954" lon="11.7453111"><ele>716.6</ele><time>2026-05-02T14:27:29.024Z</time></trkpt><trkpt lat="46.003304" lon="11.7453746"><ele>713.2</ele><time>2026-05-02T14:27:30.023Z</time></trkpt><trkpt lat="46.0032208" lon="11.7454392"><ele>709.8</ele><time>2026-05-02T14:27:31.024Z</time></trkpt><trkpt lat="46.003141" lon="11.7454949"><ele>706.4</ele><time>2026-05-02T14:27:32.023Z</time></trkpt><trkpt lat="46.0030126" lon="11.7455957"><ele>703.0</ele><time>2026-05-02T14:27:33.024Z</time></trkpt><trkpt lat="46.0029228" lon="11.7456329"><ele>703.0</ele><time>2026-05-02T14:27:34.025Z</time></trkpt><trkpt lat="46.0028334" lon="11.745674"><ele>703.0</ele><time>2026-05-02T14:27:35.024Z</time></trkpt><trkpt lat="46.0027292" lon="11.7457016"><ele>703.0</ele><time>2026-05-02T14:27:36.024Z</time></trkpt><trkpt lat="46.002632" lon="11.7457235"><ele>703.0</ele><time>2026-05-02T14:27:37.024Z</time></trkpt><trkpt lat="46.0025231" lon="11.7457583"><ele>703.0</ele><time>2026-05-02T14:27:38.024Z</time></trkpt><trkpt lat="46.0024141" lon="11.7457887"><ele>699.8</ele><time>2026-05-02T14:27:39.025Z</time></trkpt><trkpt lat="46.0023103" lon="11.7457946"><ele>696.5999999999999</ele><time>2026-05-02T14:27:40.024Z</time></trkpt><trkpt lat="46.0022059" lon="11.7458112"><ele>693.4000000000001</ele><time>2026-05-02T14:27:41.023Z</time></trkpt><trkpt lat="46.0021001" lon="11.745794"><ele>690.2</ele><time>2026-05-02T14:27:42.024Z</time></trkpt><trkpt lat="46.0020007" lon="11.7457833"><ele>687.0</ele><time>2026-05-02T14:27:43.024Z</time></trkpt><trkpt lat="46.0019015" lon="11.7457886"><ele>687.0</ele><time>2026-05-02T14:27:44.024Z</time></trkpt><trkpt lat="46.0018031" lon="11.7458205"><ele>687.0</ele><time>2026-05-02T14:27:45.024Z</time></trkpt><trkpt lat="46.0017012" lon="11.7458669"><ele>687.0</ele><time>2026-05-02T14:27:46.025Z</time></trkpt><trkpt lat="46.0015918" lon="11.7459148"><ele>687.0</ele><time>2026-05-02T14:27:47.024Z</time></trkpt><trkpt lat="46.0014821" lon="11.7459701"><ele>687.0</ele><time>2026-05-02T14:27:48.024Z</time></trkpt><trkpt lat="46.0013733" lon="11.7460214"><ele>689.0</ele><time>2026-05-02T14:27:49.024Z</time></trkpt><trkpt lat="46.001254" lon="11.7460741"><ele>691.0</ele><time>2026-05-02T14:27:50.024Z</time></trkpt><trkpt lat="46.0011261" lon="11.74612"><ele>693.0</ele><time>2026-05-02T14:27:51.024Z</time></trkpt><trkpt lat="46.0009896" lon="11.7461591"><ele>695.0</ele><time>2026-05-02T14:27:52.024Z</time></trkpt><trkpt lat="46.0008662" lon="11.7461926"><ele>693.2</ele><time>2026-05-02T14:27:53.025Z</time></trkpt><trkpt lat="46.0007654" lon="11.7462088"><ele>691.4</ele><time>2026-05-02T14:27:54.024Z</time></trkpt><trkpt lat="46.0006719" lon="11.746203"><ele>689.5999999999999</ele><time>2026-05-02T14:27:55.025Z</time></trkpt><trkpt lat="46.0005693" lon="11.7461755"><ele>687.8</ele><time>2026-05-02T14:27:56.024Z</time></trkpt><trkpt lat="46.000472" lon="11.7461406"><ele>686.0</ele><time>2026-05-02T14:27:57.024Z</time></trkpt><trkpt lat="46.0003803" lon="11.7460945"><ele>686.0</ele><time>2026-05-02T14:27:58.025Z</time></trkpt><trkpt lat="46.0002917" lon="11.746051"><ele>686.0</ele><time>2026-05-02T14:27:59.024Z</time></trkpt><trkpt lat="46.000207" lon="11.7459993"><ele>686.0</ele><time>2026-05-02T14:28:00.024Z</time></trkpt><trkpt lat="46.0001358" lon="11.7459869"><ele>686.0</ele><time>2026-05-02T14:28:01.024Z</time></trkpt><trkpt lat="46.0000539" lon="11.7459843"><ele>686.0</ele><time>2026-05-02T14:28:02.024Z</time></trkpt><trkpt lat="45.9999679" lon="11.7459661"><ele>686.0</ele><time>2026-05-02T14:28:03.024Z</time></trkpt><trkpt lat="45.9998978" lon="11.7459656"><ele>686.0</ele><time>2026-05-02T14:28:04.024Z</time></trkpt><trkpt lat="45.9998292" lon="11.7459825"><ele>686.0</ele><time>2026-05-02T14:28:05.024Z</time></trkpt><trkpt lat="45.999811" lon="11.7460878"><ele>686.0</ele><time>2026-05-02T14:28:06.024Z</time></trkpt><trkpt lat="45.9997203" lon="11.7461413"><ele>686.0</ele><time>2026-05-02T14:28:07.025Z</time></trkpt><trkpt lat="45.9996285" lon="11.7462198"><ele>686.0</ele><time>2026-05-02T14:28:08.024Z</time></trkpt><trkpt lat="45.9995464" lon="11.7462966"><ele>686.0</ele><time>2026-05-02T14:28:09.024Z</time></trkpt><trkpt lat="45.9994533" lon="11.7463703"><ele>686.0</ele><time>2026-05-02T14:28:10.024Z</time></trkpt><trkpt lat="45.9993391" lon="11.7464543"><ele>686.0</ele><time>2026-05-02T14:28:11.024Z</time></trkpt><trkpt lat="45.9992051" lon="11.746524"><ele>686.0</ele><time>2026-05-02T14:28:12.024Z</time></trkpt><trkpt lat="45.9990821" lon="11.7465857"><ele>686.0</ele><time>2026-05-02T14:28:13.024Z</time></trkpt><trkpt lat="45.9989929" lon="11.7466203"><ele>684.5</ele><time>2026-05-02T14:28:14.025Z</time></trkpt><trkpt lat="45.9989159" lon="11.7466412"><ele>683.0</ele><time>2026-05-02T14:28:15.025Z</time></trkpt><trkpt lat="45.9988237" lon="11.7466299"><ele>681.5</ele><time>2026-05-02T14:28:16.024Z</time></trkpt><trkpt lat="45.9987581" lon="11.7465954"><ele>680.0</ele><time>2026-05-02T14:28:17.024Z</time></trkpt><trkpt lat="45.9986871" lon="11.7465277"><ele>678.5</ele><time>2026-05-02T14:28:18.024Z</time></trkpt><trkpt lat="45.9986269" lon="11.74645"><ele>677.0</ele><time>2026-05-02T14:28:19.024Z</time></trkpt><trkpt lat="45.9985533" lon="11.7463842"><ele>677.0</ele><time>2026-05-02T14:28:20.024Z</time></trkpt><trkpt lat="45.9984904" lon="11.7463618"><ele>677.0</ele><time>2026-05-02T14:28:21.024Z</time></trkpt><trkpt lat="45.9983665" lon="11.7463503"><ele>677.0</ele><time>2026-05-02T14:28:23.025Z</time></trkpt><trkpt lat="45.9983016" lon="11.7463593"><ele>677.0</ele><time>2026-05-02T14:28:24.025Z</time></trkpt><trkpt lat="45.9982316" lon="11.7463768"><ele>677.0</ele><time>2026-05-02T14:28:25.024Z</time></trkpt><trkpt lat="45.9981553" lon="11.746401"><ele>677.0</ele><time>2026-05-02T14:28:26.025Z</time></trkpt><trkpt lat="45.9980772" lon="11.7464343"><ele>675.8</ele><time>2026-05-02T14:28:27.024Z</time></trkpt><trkpt lat="45.9980044" lon="11.7464669"><ele>674.6</ele><time>2026-05-02T14:28:28.024Z</time></trkpt><trkpt lat="45.9979395" lon="11.7464888"><ele>673.4</ele><time>2026-05-02T14:28:29.024Z</time></trkpt><trkpt lat="45.9978319" lon="11.7465304"><ele>672.1999999999999</ele><time>2026-05-02T14:28:31.024Z</time></trkpt><trkpt lat="45.9977287" lon="11.7465567"><ele>671.0</ele><time>2026-05-02T14:28:33.024Z</time></trkpt><trkpt lat="45.9976241" lon="11.7465733"><ele>671.0</ele><time>2026-05-02T14:28:35.026Z</time></trkpt><trkpt lat="45.9975152" lon="11.7465887"><ele>671.0</ele><time>2026-05-02T14:28:37.025Z</time></trkpt><trkpt lat="45.9974237" lon="11.7466547"><ele>671.0</ele><time>2026-05-02T14:28:39.024Z</time></trkpt><trkpt lat="45.9973673" lon="11.7468075"><ele>671.0</ele><time>2026-05-02T14:28:41.025Z</time></trkpt><trkpt lat="45.9973498" lon="11.7469779"><ele>670.0</ele><time>2026-05-02T14:28:43.024Z</time></trkpt><trkpt lat="45.9973238" lon="11.7471167"><ele>669.0</ele><time>2026-05-02T14:28:45.025Z</time></trkpt><trkpt lat="45.9972706" lon="11.7471695"><ele>668.0</ele><time>2026-05-02T14:28:47.024Z</time></trkpt><trkpt lat="45.9972385" lon="11.74705"><ele>667.0</ele><time>2026-05-02T14:28:56.026Z</time></trkpt><trkpt lat="45.997241" lon="11.7469527"><ele>666.0</ele><time>2026-05-02T14:28:57.025Z</time></trkpt><trkpt lat="45.9972619" lon="11.7467661"><ele>666.0</ele><time>2026-05-02T14:28:59.025Z</time></trkpt><trkpt lat="45.9972375" lon="11.7466783"><ele>666.0</ele><time>2026-05-02T14:29:00.025Z</time></trkpt><trkpt lat="45.9971866" lon="11.7466236"><ele>666.0</ele><time>2026-05-02T14:29:01.025Z</time></trkpt><trkpt lat="45.9971206" lon="11.7465893"><ele>666.0</ele><time>2026-05-02T14:29:02.026Z</time></trkpt><trkpt lat="45.9970541" lon="11.7465427"><ele>666.0</ele><time>2026-05-02T14:29:03.025Z</time></trkpt><trkpt lat="45.9969831" lon="11.7464848"><ele>666.0</ele><time>2026-05-02T14:29:04.025Z</time></trkpt><trkpt lat="45.9968935" lon="11.7464268"><ele>666.0</ele><time>2026-05-02T14:29:06.026Z</time></trkpt><trkpt lat="45.9968983" lon="11.7463264"><ele>666.0</ele><time>2026-05-02T14:29:11.025Z</time></trkpt><trkpt lat="45.9970065" lon="11.7462716"><ele>666.0</ele><time>2026-05-02T14:29:13.025Z</time></trkpt><trkpt lat="45.9970803" lon="11.746209"><ele>666.0</ele><time>2026-05-02T14:29:14.025Z</time></trkpt><trkpt lat="45.9971378" lon="11.7461206"><ele>666.0</ele><time>2026-05-02T14:29:15.025Z</time></trkpt><trkpt lat="45.9971783" lon="11.7460188"><ele>666.0</ele><time>2026-05-02T14:29:16.025Z</time></trkpt><trkpt lat="45.9971958" lon="11.7458938"><ele>664.8333333333334</ele><time>2026-05-02T14:29:18.025Z</time></trkpt><trkpt lat="45.9972337" lon="11.7457595"><ele>663.6666666666666</ele><time>2026-05-02T14:29:19.025Z</time></trkpt><trkpt lat="45.9972647" lon="11.7456248"><ele>662.5</ele><time>2026-05-02T14:29:20.025Z</time></trkpt><trkpt lat="45.997272" lon="11.745521"><ele>661.3333333333333</ele><time>2026-05-02T14:29:21.025Z</time></trkpt><trkpt lat="45.9972784" lon="11.745384"><ele>660.1666666666666</ele><time>2026-05-02T14:29:22.026Z</time></trkpt><trkpt lat="45.9972619" lon="11.745278"><ele>659.0</ele><time>2026-05-02T14:29:23.025Z</time></trkpt><trkpt lat="45.9972413" lon="11.745167"><ele>658.0</ele><time>2026-05-02T14:29:24.025Z</time></trkpt><trkpt lat="45.9972145" lon="11.7450369"><ele>657.0</ele><time>2026-05-02T14:29:26.026Z</time></trkpt><trkpt lat="45.9971706" lon="11.7449578"><ele>656.0</ele><time>2026-05-02T14:29:28.025Z</time></trkpt><trkpt lat="45.9971353" lon="11.7448696"><ele>655.0</ele><time>2026-05-02T14:29:30.025Z</time></trkpt><trkpt lat="45.9971204" lon="11.7447268"><ele>654.0</ele><time>2026-05-02T14:29:32.025Z</time></trkpt><trkpt lat="45.9971406" lon="11.7446013"><ele>653.0</ele><time>2026-05-02T14:29:34.026Z</time></trkpt><trkpt lat="45.9972196" lon="11.7444289"><ele>650.8</ele><time>2026-05-02T14:29:36.025Z</time></trkpt><trkpt lat="45.9972636" lon="11.7443156"><ele>648.5999999999999</ele><time>2026-05-02T14:29:37.025Z</time></trkpt><trkpt lat="45.9973148" lon="11.7441804"><ele>646.4000000000001</ele><time>2026-05-02T14:29:38.026Z</time></trkpt><trkpt lat="45.99734" lon="11.7440865"><ele>644.2</ele><time>2026-05-02T14:29:39.026Z</time></trkpt><trkpt lat="45.9973483" lon="11.7438623"><ele>642.0</ele><time>2026-05-02T14:29:41.026Z</time></trkpt><trkpt lat="45.997346" lon="11.7437481"><ele>642.0</ele><time>2026-05-02T14:29:42.026Z</time></trkpt><trkpt lat="45.9973232" lon="11.7436542"><ele>642.0</ele><time>2026-05-02T14:29:43.026Z</time></trkpt><trkpt lat="45.9972696" lon="11.7435087"><ele>642.0</ele><time>2026-05-02T14:29:45.026Z</time></trkpt><trkpt lat="45.9972282" lon="11.7434336"><ele>642.0</ele><time>2026-05-02T14:29:47.025Z</time></trkpt><trkpt lat="45.9971169" lon="11.7433993"><ele>642.0</ele><time>2026-05-02T14:29:49.027Z</time></trkpt><trkpt lat="45.9970561" lon="11.7433658"><ele>642.0</ele><time>2026-05-02T14:29:50.026Z</time></trkpt><trkpt lat="45.9969535" lon="11.7432643"><ele>642.5714285714286</ele><time>2026-05-02T14:29:52.025Z</time></trkpt><trkpt lat="45.9969129" lon="11.7431844"><ele>643.1428571428571</ele><time>2026-05-02T14:29:54.026Z</time></trkpt><trkpt lat="45.9968537" lon="11.7431202"><ele>643.7142857142858</ele><time>2026-05-02T14:30:22.027Z</time></trkpt><trkpt lat="45.9967964" lon="11.7432232"><ele>644.2857142857142</ele><time>2026-05-02T14:30:25.026Z</time></trkpt><trkpt lat="45.9967548" lon="11.7432941"><ele>644.8571428571429</ele><time>2026-05-02T14:30:29.027Z</time></trkpt><trkpt lat="45.9967547" lon="11.7433859"><ele>645.4285714285714</ele><time>2026-05-02T14:30:36.026Z</time></trkpt><trkpt lat="45.9968179" lon="11.7434385"><ele>646.0</ele><time>2026-05-02T14:30:39.026Z</time></trkpt><trkpt lat="45.9967524" lon="11.7434291"><ele>646.0</ele><time>2026-05-02T14:30:43.026Z</time></trkpt><trkpt lat="45.9967499" lon="11.7433345"><ele>646.0</ele><time>2026-05-02T14:31:01.027Z</time></trkpt><trkpt lat="45.996777" lon="11.7434203"><ele>646.0</ele><time>2026-05-02T14:31:41.027Z</time></trkpt><trkpt lat="45.9966974" lon="11.7434385"><ele>646.0</ele><time>2026-05-02T14:31:53.027Z</time></trkpt><trkpt lat="45.9965598" lon="11.7434551"><ele>646.0</ele><time>2026-05-02T14:31:58.028Z</time></trkpt><trkpt lat="45.996483" lon="11.7434694"><ele>646.0</ele><time>2026-05-02T14:31:59.027Z</time></trkpt><trkpt lat="45.9963741" lon="11.7434568"><ele>642.6666666666667</ele><time>2026-05-02T14:32:01.027Z</time></trkpt><trkpt lat="45.9963236" lon="11.7433888"><ele>639.3333333333334</ele><time>2026-05-02T14:32:03.028Z</time></trkpt><trkpt lat="45.9962425" lon="11.7433123"><ele>636.0</ele><time>2026-05-02T14:32:05.028Z</time></trkpt><trkpt lat="45.9961505" lon="11.7432712"><ele>632.6666666666666</ele><time>2026-05-02T14:32:07.028Z</time></trkpt><trkpt lat="45.9960704" lon="11.7432405"><ele>629.3333333333333</ele><time>2026-05-02T14:32:09.028Z</time></trkpt><trkpt lat="45.9961254" lon="11.7431761"><ele>626.0</ele><time>2026-05-02T14:32:13.028Z</time></trkpt><trkpt lat="45.9961946" lon="11.7431798"><ele>626.0</ele><time>2026-05-02T14:32:14.028Z</time></trkpt><trkpt lat="45.9962825" lon="11.743179"><ele>626.0</ele><time>2026-05-02T14:32:16.029Z</time></trkpt><trkpt lat="45.9962145" lon="11.7430715"><ele>626.0</ele><time>2026-05-02T14:32:20.029Z</time></trkpt><trkpt lat="45.9961292" lon="11.7430129"><ele>626.0</ele><time>2026-05-02T14:32:22.028Z</time></trkpt><trkpt lat="45.9960748" lon="11.742951"><ele>626.0</ele><time>2026-05-02T14:32:26.028Z</time></trkpt><trkpt lat="45.9960497" lon="11.7428496"><ele>626.0</ele><time>2026-05-02T14:32:29.029Z</time></trkpt><trkpt lat="45.9959748" lon="11.742816"><ele>626.0</ele><time>2026-05-02T14:32:33.028Z</time></trkpt><trkpt lat="45.9959064" lon="11.7428107"><ele>626.0</ele><time>2026-05-02T14:32:42.028Z</time></trkpt><trkpt lat="45.9958351" lon="11.742769"><ele>626.0</ele><time>2026-05-02T14:32:45.028Z</time></trkpt><trkpt lat="45.9957489" lon="11.7426935"><ele>626.0</ele><time>2026-05-02T14:32:47.028Z</time></trkpt><trkpt lat="45.9956651" lon="11.7426201"><ele>626.0</ele><time>2026-05-02T14:32:49.029Z</time></trkpt><trkpt lat="45.9956074" lon="11.7425739"><ele>626.0</ele><time>2026-05-02T14:32:50.028Z</time></trkpt><trkpt lat="45.9955203" lon="11.7425276"><ele>620.5</ele><time>2026-05-02T14:32:52.029Z</time></trkpt><trkpt lat="45.9954092" lon="11.7425058"><ele>615.0</ele><time>2026-05-02T14:32:54.028Z</time></trkpt><trkpt lat="45.9953273" lon="11.7424983"><ele>609.5</ele><time>2026-05-02T14:32:55.029Z</time></trkpt><trkpt lat="45.9951484" lon="11.7425643"><ele>604.0</ele><time>2026-05-02T14:32:57.028Z</time></trkpt><trkpt lat="45.9950369" lon="11.7426217"><ele>600.0</ele><time>2026-05-02T14:32:59.028Z</time></trkpt><trkpt lat="45.9949355" lon="11.7426633"><ele>596.0</ele><time>2026-05-02T14:33:01.028Z</time></trkpt><trkpt lat="45.9948375" lon="11.7427111"><ele>592.0</ele><time>2026-05-02T14:33:03.03Z</time></trkpt><trkpt lat="45.9947718" lon="11.7427567"><ele>588.0</ele><time>2026-05-02T14:33:05.028Z</time></trkpt><trkpt lat="45.9947092" lon="11.7427821"><ele>584.0</ele><time>2026-05-02T14:33:08.029Z</time></trkpt><trkpt lat="45.994642" lon="11.7427654"><ele>580.0</ele><time>2026-05-02T14:33:30.029Z</time></trkpt><trkpt lat="45.9945977" lon="11.7426308"><ele>580.0</ele><time>2026-05-02T14:33:33.029Z</time></trkpt><trkpt lat="45.99456" lon="11.7425001"><ele>580.0</ele><time>2026-05-02T14:33:35.03Z</time></trkpt><trkpt lat="45.9945222" lon="11.742388"><ele>580.0</ele><time>2026-05-02T14:33:36.029Z</time></trkpt><trkpt lat="45.9944936" lon="11.7422818"><ele>580.0</ele><time>2026-05-02T14:33:37.029Z</time></trkpt><trkpt lat="45.994489" lon="11.7421227"><ele>580.0</ele><time>2026-05-02T14:33:39.029Z</time></trkpt><trkpt lat="45.9944814" lon="11.7420053"><ele>580.0</ele><time>2026-05-02T14:33:41.029Z</time></trkpt><trkpt lat="45.9944932" lon="11.7418885"><ele>580.0</ele><time>2026-05-02T14:33:43.029Z</time></trkpt><trkpt lat="45.9944706" lon="11.741747"><ele>580.0</ele><time>2026-05-02T14:33:45.029Z</time></trkpt><trkpt lat="45.9944517" lon="11.7416357"><ele>580.0</ele><time>2026-05-02T14:33:46.029Z</time></trkpt><trkpt lat="45.9944187" lon="11.7415447"><ele>580.0</ele><time>2026-05-02T14:33:47.03Z</time></trkpt><trkpt lat="45.9943562" lon="11.7414293"><ele>580.0</ele><time>2026-05-02T14:33:49.03Z</time></trkpt><trkpt lat="45.9943107" lon="11.7413265"><ele>581.6666666666667</ele><time>2026-05-02T14:33:51.029Z</time></trkpt><trkpt lat="45.9942794" lon="11.7412417"><ele>583.3333333333334</ele><time>2026-05-02T14:33:52.029Z</time></trkpt><trkpt lat="45.9942663" lon="11.741136"><ele>585.0</ele><time>2026-05-02T14:33:53.029Z</time></trkpt><trkpt lat="45.9942395" lon="11.7410393"><ele>586.6666666666666</ele><time>2026-05-02T14:33:54.03Z</time></trkpt><trkpt lat="45.9942109" lon="11.7409187"><ele>588.3333333333333</ele><time>2026-05-02T14:33:55.029Z</time></trkpt><trkpt lat="45.9941942" lon="11.7408124"><ele>590.0</ele><time>2026-05-02T14:33:56.029Z</time></trkpt><trkpt lat="45.9941863" lon="11.7407096"><ele>587.8333333333333</ele><time>2026-05-02T14:33:57.03Z</time></trkpt><trkpt lat="45.9941644" lon="11.7405962"><ele>585.6666666666666</ele><time>2026-05-02T14:33:58.03Z</time></trkpt><trkpt lat="45.9941286" lon="11.7404881"><ele>583.5</ele><time>2026-05-02T14:33:59.029Z</time></trkpt><trkpt lat="45.994099" lon="11.7403755"><ele>581.3333333333334</ele><time>2026-05-02T14:34:00.03Z</time></trkpt><trkpt lat="45.9940702" lon="11.7402497"><ele>579.1666666666667</ele><time>2026-05-02T14:34:01.03Z</time></trkpt><trkpt lat="45.9940393" lon="11.740113"><ele>577.0</ele><time>2026-05-02T14:34:02.03Z</time></trkpt><trkpt lat="45.9940166" lon="11.7400082"><ele>577.0</ele><time>2026-05-02T14:34:03.029Z</time></trkpt><trkpt lat="45.9939909" lon="11.7398699"><ele>577.0</ele><time>2026-05-02T14:34:04.03Z</time></trkpt><trkpt lat="45.9939694" lon="11.739779"><ele>577.0</ele><time>2026-05-02T14:34:05.03Z</time></trkpt><trkpt lat="45.9939035" lon="11.7397912"><ele>577.0</ele><time>2026-05-02T14:34:08.031Z</time></trkpt><trkpt lat="45.9938458" lon="11.7398382"><ele>577.0</ele><time>2026-05-02T14:34:09.029Z</time></trkpt><trkpt lat="45.9937759" lon="11.7398545"><ele>577.0</ele><time>2026-05-02T14:34:10.03Z</time></trkpt><trkpt lat="45.9937131" lon="11.7398631"><ele>577.0</ele><time>2026-05-02T14:34:11.03Z</time></trkpt><trkpt lat="45.9936287" lon="11.7398841"><ele>577.0</ele><time>2026-05-02T14:34:12.029Z</time></trkpt><trkpt lat="45.9935778" lon="11.7399583"><ele>577.0</ele><time>2026-05-02T14:34:15.03Z</time></trkpt><trkpt lat="45.9935311" lon="11.7398506"><ele>577.0</ele><time>2026-05-02T14:34:18.03Z</time></trkpt><trkpt lat="45.9935129" lon="11.7397351"><ele>577.0</ele><time>2026-05-02T14:34:19.031Z</time></trkpt><trkpt lat="45.9934818" lon="11.7395781"><ele>577.0</ele><time>2026-05-02T14:34:20.03Z</time></trkpt><trkpt lat="45.9934413" lon="11.7394422"><ele>578.1666666666667</ele><time>2026-05-02T14:34:21.03Z</time></trkpt><trkpt lat="45.9933821" lon="11.7393261"><ele>579.3333333333334</ele><time>2026-05-02T14:34:22.03Z</time></trkpt><trkpt lat="45.9933268" lon="11.7392341"><ele>580.5</ele><time>2026-05-02T14:34:23.03Z</time></trkpt><trkpt lat="45.9932828" lon="11.7391192"><ele>581.6666666666666</ele><time>2026-05-02T14:34:24.031Z</time></trkpt><trkpt lat="45.9932484" lon="11.7390073"><ele>582.8333333333333</ele><time>2026-05-02T14:34:25.03Z</time></trkpt><trkpt lat="45.9932323" lon="11.7389085"><ele>584.0</ele><time>2026-05-02T14:34:26.03Z</time></trkpt><trkpt lat="45.9931989" lon="11.7387801"><ele>580.8333333333333</ele><time>2026-05-02T14:34:27.03Z</time></trkpt><trkpt lat="45.9931848" lon="11.7386716"><ele>577.6666666666666</ele><time>2026-05-02T14:34:28.03Z</time></trkpt><trkpt lat="45.9931571" lon="11.7385486"><ele>574.5</ele><time>2026-05-02T14:34:30.03Z</time></trkpt><trkpt lat="45.9932277" lon="11.7384623"><ele>571.3333333333334</ele><time>2026-05-02T14:34:33.03Z</time></trkpt><trkpt lat="45.9931717" lon="11.738347"><ele>568.1666666666667</ele><time>2026-05-02T14:34:36.03Z</time></trkpt><trkpt lat="45.9931239" lon="11.7382755"><ele>565.0</ele><time>2026-05-02T14:34:37.03Z</time></trkpt><trkpt lat="45.9930528" lon="11.7382039"><ele>565.0</ele><time>2026-05-02T14:34:38.03Z</time></trkpt><trkpt lat="45.993004" lon="11.7381444"><ele>565.0</ele><time>2026-05-02T14:34:39.03Z</time></trkpt><trkpt lat="45.9929574" lon="11.7380023"><ele>565.0</ele><time>2026-05-02T14:34:41.03Z</time></trkpt><trkpt lat="45.9929415" lon="11.7378845"><ele>565.0</ele><time>2026-05-02T14:34:42.03Z</time></trkpt><trkpt lat="45.9929163" lon="11.7377526"><ele>565.0</ele><time>2026-05-02T14:34:43.03Z</time></trkpt><trkpt lat="45.9928905" lon="11.7376206"><ele>565.0</ele><time>2026-05-02T14:34:44.03Z</time></trkpt><trkpt lat="45.9928624" lon="11.7375234"><ele>566.6</ele><time>2026-05-02T14:34:45.03Z</time></trkpt><trkpt lat="45.9928006" lon="11.7373923"><ele>568.2</ele><time>2026-05-02T14:34:47.03Z</time></trkpt><trkpt lat="45.9927229" lon="11.7373043"><ele>569.8</ele><time>2026-05-02T14:34:49.03Z</time></trkpt><trkpt lat="45.9926473" lon="11.7371739"><ele>571.4</ele><time>2026-05-02T14:34:51.031Z</time></trkpt><trkpt lat="45.9926027" lon="11.7370995"><ele>573.0</ele><time>2026-05-02T14:34:52.031Z</time></trkpt><trkpt lat="45.9925552" lon="11.736969"><ele>574.0</ele><time>2026-05-02T14:34:54.031Z</time></trkpt><trkpt lat="45.9925445" lon="11.7368351"><ele>575.0</ele><time>2026-05-02T14:34:56.032Z</time></trkpt><trkpt lat="45.9925613" lon="11.7367305"><ele>576.0</ele><time>2026-05-02T14:34:59.03Z</time></trkpt><trkpt lat="45.9924915" lon="11.7368124"><ele>577.0</ele><time>2026-05-02T14:35:10.031Z</time></trkpt><trkpt lat="45.99245" lon="11.7369186"><ele>578.0</ele><time>2026-05-02T14:35:13.03Z</time></trkpt><trkpt lat="45.9924293" lon="11.7370106"><ele>579.0</ele><time>2026-05-02T14:35:16.032Z</time></trkpt><trkpt lat="45.9924237" lon="11.7371141"><ele>572.5</ele><time>2026-05-02T14:35:19.031Z</time></trkpt><trkpt lat="45.9924358" lon="11.7372247"><ele>566.0</ele><time>2026-05-02T14:35:22.031Z</time></trkpt><trkpt lat="45.9923915" lon="11.7373334"><ele>559.5</ele><time>2026-05-02T14:36:20.032Z</time></trkpt><trkpt lat="45.9923401" lon="11.737447"><ele>553.0</ele><time>2026-05-02T14:36:22.032Z</time></trkpt><trkpt lat="45.9923084" lon="11.7375777"><ele>546.5</ele><time>2026-05-02T14:36:24.033Z</time></trkpt><trkpt lat="45.9922809" lon="11.7376646"><ele>540.0</ele><time>2026-05-02T14:36:25.032Z</time></trkpt><trkpt lat="45.9922407" lon="11.7377659"><ele>539.6666666666666</ele><time>2026-05-02T14:36:26.032Z</time></trkpt><trkpt lat="45.9921903" lon="11.7378735"><ele>539.3333333333334</ele><time>2026-05-02T14:36:27.033Z</time></trkpt><trkpt lat="45.9921406" lon="11.7379775"><ele>539.0</ele><time>2026-05-02T14:36:28.032Z</time></trkpt><trkpt lat="45.9921002" lon="11.738056"><ele>538.6666666666667</ele><time>2026-05-02T14:36:29.032Z</time></trkpt><trkpt lat="45.9920535" lon="11.7381305"><ele>538.3333333333334</ele><time>2026-05-02T14:36:30.032Z</time></trkpt><trkpt lat="45.9919837" lon="11.7381995"><ele>538.0</ele><time>2026-05-02T14:36:31.032Z</time></trkpt><trkpt lat="45.9919164" lon="11.7382501"><ele>538.0</ele><time>2026-05-02T14:36:32.032Z</time></trkpt><trkpt lat="45.9918411" lon="11.7383248"><ele>538.0</ele><time>2026-05-02T14:36:33.033Z</time></trkpt><trkpt lat="45.9917509" lon="11.7383744"><ele>538.0</ele><time>2026-05-02T14:36:34.032Z</time></trkpt><trkpt lat="45.9916864" lon="11.7384055"><ele>538.0</ele><time>2026-05-02T14:36:35.032Z</time></trkpt><trkpt lat="45.9916162" lon="11.7384563"><ele>538.0</ele><time>2026-05-02T14:36:36.032Z</time></trkpt><trkpt lat="45.9915408" lon="11.7385304"><ele>538.0</ele><time>2026-05-02T14:36:37.032Z</time></trkpt><trkpt lat="45.9914858" lon="11.7386327"><ele>536.3333333333334</ele><time>2026-05-02T14:36:38.033Z</time></trkpt><trkpt lat="45.9914075" lon="11.7387449"><ele>534.6666666666667</ele><time>2026-05-02T14:36:39.032Z</time></trkpt><trkpt lat="45.9913199" lon="11.7388397"><ele>533.0</ele><time>2026-05-02T14:36:40.032Z</time></trkpt><trkpt lat="45.9912652" lon="11.7389071"><ele>531.3333333333334</ele><time>2026-05-02T14:36:41.032Z</time></trkpt><trkpt lat="45.9912377" lon="11.7389928"><ele>529.6666666666666</ele><time>2026-05-02T14:36:42.032Z</time></trkpt><trkpt lat="45.9912341" lon="11.7390854"><ele>528.0</ele><time>2026-05-02T14:36:43.033Z</time></trkpt><trkpt lat="45.9912381" lon="11.739185"><ele>528.0</ele><time>2026-05-02T14:36:44.032Z</time></trkpt><trkpt lat="45.9912485" lon="11.7393035"><ele>528.0</ele><time>2026-05-02T14:36:45.032Z</time></trkpt><trkpt lat="45.991257" lon="11.7393963"><ele>528.0</ele><time>2026-05-02T14:36:46.032Z</time></trkpt><trkpt lat="45.9912561" lon="11.7394959"><ele>528.0</ele><time>2026-05-02T14:36:48.032Z</time></trkpt><trkpt lat="45.9912282" lon="11.7396319"><ele>528.0</ele><time>2026-05-02T14:36:50.032Z</time></trkpt><trkpt lat="45.9911642" lon="11.73971"><ele>528.0</ele><time>2026-05-02T14:36:52.032Z</time></trkpt><trkpt lat="45.9910771" lon="11.7398076"><ele>526.1999999999999</ele><time>2026-05-02T14:36:54.032Z</time></trkpt><trkpt lat="45.9910225" lon="11.739894"><ele>524.4</ele><time>2026-05-02T14:36:56.032Z</time></trkpt><trkpt lat="45.9909391" lon="11.7399583"><ele>522.5999999999999</ele><time>2026-05-02T14:36:58.033Z</time></trkpt><trkpt lat="45.9908463" lon="11.7399933"><ele>520.8</ele><time>2026-05-02T14:37:00.033Z</time></trkpt><trkpt lat="45.9907439" lon="11.7400263"><ele>519.0</ele><time>2026-05-02T14:37:02.034Z</time></trkpt><trkpt lat="45.9906448" lon="11.7400783"><ele>516.0</ele><time>2026-05-02T14:37:04.032Z</time></trkpt><trkpt lat="45.9905436" lon="11.7401533"><ele>513.0</ele><time>2026-05-02T14:37:06.033Z</time></trkpt><trkpt lat="45.9904542" lon="11.7402762"><ele>510.0</ele><time>2026-05-02T14:37:08.033Z</time></trkpt><trkpt lat="45.9904073" lon="11.7403519"><ele>507.0</ele><time>2026-05-02T14:37:09.032Z</time></trkpt><trkpt lat="45.990346" lon="11.740447"><ele>504.0</ele><time>2026-05-02T14:37:10.033Z</time></trkpt><trkpt lat="45.9902998" lon="11.7405531"><ele>504.0</ele><time>2026-05-02T14:37:11.033Z</time></trkpt><trkpt lat="45.9902856" lon="11.7406836"><ele>504.0</ele><time>2026-05-02T14:37:12.032Z</time></trkpt><trkpt lat="45.9902851" lon="11.7408073"><ele>504.0</ele><time>2026-05-02T14:37:13.034Z</time></trkpt><trkpt lat="45.9902919" lon="11.7409585"><ele>504.0</ele><time>2026-05-02T14:37:14.033Z</time></trkpt><trkpt lat="45.9902974" lon="11.7410952"><ele>504.0</ele><time>2026-05-02T14:37:15.032Z</time></trkpt><trkpt lat="45.9902961" lon="11.7412218"><ele>503.42857142857144</ele><time>2026-05-02T14:37:16.033Z</time></trkpt><trkpt lat="45.9902977" lon="11.7413327"><ele>502.8571428571429</ele><time>2026-05-02T14:37:17.032Z</time></trkpt><trkpt lat="45.9903041" lon="11.7414455"><ele>502.2857142857143</ele><time>2026-05-02T14:37:18.034Z</time></trkpt><trkpt lat="45.9903125" lon="11.7415532"><ele>501.7142857142857</ele><time>2026-05-02T14:37:19.032Z</time></trkpt><trkpt lat="45.9903152" lon="11.741655"><ele>501.14285714285717</ele><time>2026-05-02T14:37:20.032Z</time></trkpt><trkpt lat="45.9903131" lon="11.7417544"><ele>500.57142857142856</ele><time>2026-05-02T14:37:21.033Z</time></trkpt><trkpt lat="45.9903122" lon="11.7418543"><ele>500.0</ele><time>2026-05-02T14:37:22.032Z</time></trkpt><trkpt lat="45.9903124" lon="11.7419511"><ele>499.3333333333333</ele><time>2026-05-02T14:37:23.033Z</time></trkpt><trkpt lat="45.9903157" lon="11.7420485"><ele>498.66666666666663</ele><time>2026-05-02T14:37:24.033Z</time></trkpt><trkpt lat="45.9903169" lon="11.7422253"><ele>498.0</ele><time>2026-05-02T14:37:26.034Z</time></trkpt><trkpt lat="45.9903047" lon="11.7423737"><ele>497.33333333333337</ele><time>2026-05-02T14:37:28.033Z</time></trkpt><trkpt lat="45.9902589" lon="11.7424623"><ele>496.6666666666667</ele><time>2026-05-02T14:37:30.034Z</time></trkpt><trkpt lat="45.9901916" lon="11.7424909"><ele>496.0</ele><time>2026-05-02T14:37:32.034Z</time></trkpt><trkpt lat="45.9901077" lon="11.742506"><ele>496.00000000000006</ele><time>2026-05-02T14:37:35.033Z</time></trkpt><trkpt lat="45.9900347" lon="11.7424997"><ele>496.0</ele><time>2026-05-02T14:37:37.033Z</time></trkpt><trkpt lat="45.9899635" lon="11.7425116"><ele>496.0</ele><time>2026-05-02T14:37:38.034Z</time></trkpt><trkpt lat="45.9898477" lon="11.7425614"><ele>496.0</ele><time>2026-05-02T14:37:40.033Z</time></trkpt><trkpt lat="45.9897858" lon="11.7426077"><ele>496.00000000000006</ele><time>2026-05-02T14:37:41.033Z</time></trkpt><trkpt lat="45.9897036" lon="11.7426675"><ele>496.0</ele><time>2026-05-02T14:37:43.033Z</time></trkpt><trkpt lat="45.9896512" lon="11.7427572"><ele>496.0</ele><time>2026-05-02T14:37:45.033Z</time></trkpt><trkpt lat="45.9896214" lon="11.7428988"><ele>496.0</ele><time>2026-05-02T14:37:47.033Z</time></trkpt><trkpt lat="45.9896213" lon="11.7430333"><ele>496.0</ele><time>2026-05-02T14:37:49.033Z</time></trkpt><trkpt lat="45.9896402" lon="11.7431825"><ele>496.0</ele><time>2026-05-02T14:37:51.033Z</time></trkpt><trkpt lat="45.9896694" lon="11.7433334"><ele>496.0</ele><time>2026-05-02T14:37:53.033Z</time></trkpt><trkpt lat="45.989695" lon="11.7434966"><ele>494.6</ele><time>2026-05-02T14:37:55.033Z</time></trkpt><trkpt lat="45.9897058" lon="11.7436634"><ele>493.20000000000005</ele><time>2026-05-02T14:37:57.033Z</time></trkpt><trkpt lat="45.9897139" lon="11.7437553"><ele>491.79999999999995</ele><time>2026-05-02T14:37:58.033Z</time></trkpt><trkpt lat="45.9897268" lon="11.7438549"><ele>490.4</ele><time>2026-05-02T14:37:59.033Z</time></trkpt><trkpt lat="45.9897373" lon="11.7440345"><ele>489.0</ele><time>2026-05-02T14:38:01.033Z</time></trkpt><trkpt lat="45.9897468" lon="11.7441969"><ele>489.0</ele><time>2026-05-02T14:38:03.034Z</time></trkpt><trkpt lat="45.9897466" lon="11.7443724"><ele>489.0</ele><time>2026-05-02T14:38:05.034Z</time></trkpt><trkpt lat="45.989779" lon="11.7445304"><ele>489.0</ele><time>2026-05-02T14:38:07.034Z</time></trkpt><trkpt lat="45.9898234" lon="11.7446807"><ele>489.0</ele><time>2026-05-02T14:38:09.034Z</time></trkpt><trkpt lat="45.9898542" lon="11.7448251"><ele>487.6666666666667</ele><time>2026-05-02T14:38:11.033Z</time></trkpt><trkpt lat="45.9898856" lon="11.7449671"><ele>486.33333333333337</ele><time>2026-05-02T14:38:13.034Z</time></trkpt><trkpt lat="45.9899005" lon="11.7450946"><ele>485.0</ele><time>2026-05-02T14:38:15.034Z</time></trkpt><trkpt lat="45.98992" lon="11.7452032"><ele>483.6666666666667</ele><time>2026-05-02T14:38:17.033Z</time></trkpt><trkpt lat="45.9899376" lon="11.7453237"><ele>482.33333333333337</ele><time>2026-05-02T14:38:19.033Z</time></trkpt><trkpt lat="45.9899593" lon="11.745452"><ele>481.0</ele><time>2026-05-02T14:38:21.033Z</time></trkpt><trkpt lat="45.9899888" lon="11.7455894"><ele>480.1666666666667</ele><time>2026-05-02T14:38:23.034Z</time></trkpt><trkpt lat="45.9899954" lon="11.7456942"><ele>479.33333333333337</ele><time>2026-05-02T14:38:25.033Z</time></trkpt><trkpt lat="45.99" lon="11.7458087"><ele>478.5</ele><time>2026-05-02T14:38:27.034Z</time></trkpt><trkpt lat="45.9900062" lon="11.7459624"><ele>477.66666666666663</ele><time>2026-05-02T14:38:30.034Z</time></trkpt><trkpt lat="45.9899828" lon="11.7460474"><ele>476.8333333333333</ele><time>2026-05-02T14:38:32.034Z</time></trkpt><trkpt lat="45.9899508" lon="11.7462105"><ele>476.0</ele><time>2026-05-02T14:38:34.034Z</time></trkpt><trkpt lat="45.989915" lon="11.7463012"><ele>474.99999999999994</ele><time>2026-05-02T14:38:35.034Z</time></trkpt><trkpt lat="45.9898742" lon="11.746393"><ele>474.0</ele><time>2026-05-02T14:38:36.035Z</time></trkpt><trkpt lat="45.9898071" lon="11.746487"><ele>473.0</ele><time>2026-05-02T14:38:37.035Z</time></trkpt><trkpt lat="45.9897558" lon="11.7465732"><ele>472.0</ele><time>2026-05-02T14:38:38.034Z</time></trkpt><trkpt lat="45.9896904" lon="11.7466527"><ele>470.99999999999994</ele><time>2026-05-02T14:38:39.034Z</time></trkpt><trkpt lat="45.9896321" lon="11.7467307"><ele>470.0</ele><time>2026-05-02T14:38:40.034Z</time></trkpt><trkpt lat="45.9895662" lon="11.7468799"><ele>469.4</ele><time>2026-05-02T14:38:42.034Z</time></trkpt><trkpt lat="45.989533" lon="11.7470484"><ele>468.8</ele><time>2026-05-02T14:38:44.035Z</time></trkpt><trkpt lat="45.9894925" lon="11.7471256"><ele>468.20000000000005</ele><time>2026-05-02T14:38:45.035Z</time></trkpt><trkpt lat="45.9894435" lon="11.747206"><ele>467.6</ele><time>2026-05-02T14:38:46.034Z</time></trkpt><trkpt lat="45.9893446" lon="11.7473161"><ele>467.0</ele><time>2026-05-02T14:38:47.034Z</time></trkpt><trkpt lat="45.9892318" lon="11.747422"><ele>467.75</ele><time>2026-05-02T14:38:48.034Z</time></trkpt><trkpt lat="45.9891113" lon="11.7475296"><ele>468.5</ele><time>2026-05-02T14:38:49.034Z</time></trkpt><trkpt lat="45.9890053" lon="11.7476269"><ele>469.25</ele><time>2026-05-02T14:38:50.034Z</time></trkpt><trkpt lat="45.988904" lon="11.7477149"><ele>470.0</ele><time>2026-05-02T14:38:51.034Z</time></trkpt><trkpt lat="45.9887893" lon="11.747792"><ele>471.0</ele><time>2026-05-02T14:38:52.035Z</time></trkpt><trkpt lat="45.9886703" lon="11.7478792"><ele>472.0</ele><time>2026-05-02T14:38:53.034Z</time></trkpt><trkpt lat="45.9885447" lon="11.747965"><ele>473.0</ele><time>2026-05-02T14:38:54.034Z</time></trkpt><trkpt lat="45.9884298" lon="11.748045"><ele>474.0</ele><time>2026-05-02T14:38:55.034Z</time></trkpt><trkpt lat="45.9883113" lon="11.7481172"><ele>471.0</ele><time>2026-05-02T14:38:56.034Z</time></trkpt><trkpt lat="45.9881882" lon="11.748192"><ele>468.0</ele><time>2026-05-02T14:38:57.034Z</time></trkpt><trkpt lat="45.9880641" lon="11.7482527"><ele>465.0</ele><time>2026-05-02T14:38:58.034Z</time></trkpt><trkpt lat="45.9879508" lon="11.7483202"><ele>462.0</ele><time>2026-05-02T14:38:59.034Z</time></trkpt><trkpt lat="45.9878431" lon="11.7483915"><ele>462.0</ele><time>2026-05-02T14:39:00.034Z</time></trkpt><trkpt lat="45.9877402" lon="11.7484682"><ele>462.0</ele><time>2026-05-02T14:39:01.034Z</time></trkpt><trkpt lat="45.987655" lon="11.7485455"><ele>462.0</ele><time>2026-05-02T14:39:02.034Z</time></trkpt><trkpt lat="45.9875881" lon="11.7486286"><ele>462.0</ele><time>2026-05-02T14:39:03.035Z</time></trkpt><trkpt lat="45.9875457" lon="11.7487169"><ele>462.0</ele><time>2026-05-02T14:39:04.034Z</time></trkpt><trkpt lat="45.9875223" lon="11.7488056"><ele>462.0</ele><time>2026-05-02T14:39:05.034Z</time></trkpt><trkpt lat="45.987506" lon="11.7489637"><ele>458.20000000000005</ele><time>2026-05-02T14:39:07.034Z</time></trkpt><trkpt lat="45.9874731" lon="11.7490839"><ele>454.40000000000003</ele><time>2026-05-02T14:39:09.036Z</time></trkpt><trkpt lat="45.987422" lon="11.7492051"><ele>450.59999999999997</ele><time>2026-05-02T14:39:11.035Z</time></trkpt><trkpt lat="45.9873675" lon="11.7493313"><ele>446.79999999999995</ele><time>2026-05-02T14:39:13.036Z</time></trkpt><trkpt lat="45.9873145" lon="11.7494361"><ele>443.0</ele><time>2026-05-02T14:39:15.034Z</time></trkpt><trkpt lat="45.9872114" lon="11.7494959"><ele>440.59999999999997</ele><time>2026-05-02T14:39:17.034Z</time></trkpt><trkpt lat="45.9871189" lon="11.7495744"><ele>438.19999999999993</ele><time>2026-05-02T14:39:19.035Z</time></trkpt><trkpt lat="45.9870102" lon="11.7496874"><ele>435.8</ele><time>2026-05-02T14:39:21.034Z</time></trkpt><trkpt lat="45.986945" lon="11.7497328"><ele>433.4</ele><time>2026-05-02T14:39:22.034Z</time></trkpt><trkpt lat="45.9868832" lon="11.7497694"><ele>431.0</ele><time>2026-05-02T14:39:23.034Z</time></trkpt><trkpt lat="45.986769" lon="11.7498057"><ele>431.0</ele><time>2026-05-02T14:39:25.035Z</time></trkpt><trkpt lat="45.9866816" lon="11.749792"><ele>431.0</ele><time>2026-05-02T14:39:26.035Z</time></trkpt><trkpt lat="45.9865715" lon="11.7497675"><ele>431.0</ele><time>2026-05-02T14:39:27.035Z</time></trkpt><trkpt lat="45.9864736" lon="11.749768"><ele>431.0</ele><time>2026-05-02T14:39:28.035Z</time></trkpt><trkpt lat="45.9863868" lon="11.7497788"><ele>431.0</ele><time>2026-05-02T14:39:29.035Z</time></trkpt><trkpt lat="45.9863143" lon="11.749775"><ele>431.0</ele><time>2026-05-02T14:39:30.036Z</time></trkpt><trkpt lat="45.98624" lon="11.7497483"><ele>431.0</ele><time>2026-05-02T14:39:31.035Z</time></trkpt><trkpt lat="45.9861216" lon="11.7497854"><ele>431.0</ele><time>2026-05-02T14:39:33.035Z</time></trkpt><trkpt lat="45.9860652" lon="11.7498323"><ele>431.0</ele><time>2026-05-02T14:39:34.035Z</time></trkpt><trkpt lat="45.9859969" lon="11.7499659"><ele>431.0</ele><time>2026-05-02T14:39:36.035Z</time></trkpt><trkpt lat="45.9859148" lon="11.7500539"><ele>430.99999999999994</ele><time>2026-05-02T14:39:38.035Z</time></trkpt><trkpt lat="45.9858509" lon="11.7500822"><ele>431.0</ele><time>2026-05-02T14:39:39.035Z</time></trkpt><trkpt lat="45.9857618" lon="11.7501084"><ele>431.0</ele><time>2026-05-02T14:39:40.035Z</time></trkpt><trkpt lat="45.9856856" lon="11.7501212"><ele>431.0</ele><time>2026-05-02T14:39:41.035Z</time></trkpt><trkpt lat="45.9855557" lon="11.7500935"><ele>430.99999999999994</ele><time>2026-05-02T14:39:43.035Z</time></trkpt><trkpt lat="45.9854823" lon="11.7500863"><ele>431.0</ele><time>2026-05-02T14:39:57.035Z</time></trkpt><trkpt lat="45.9853833" lon="11.7500239"><ele>429.42857142857144</ele><time>2026-05-02T14:39:59.035Z</time></trkpt><trkpt lat="45.985319" lon="11.7499748"><ele>427.85714285714283</ele><time>2026-05-02T14:40:00.035Z</time></trkpt><trkpt lat="45.9852474" lon="11.7499189"><ele>426.2857142857143</ele><time>2026-05-02T14:40:01.036Z</time></trkpt><trkpt lat="45.9851917" lon="11.7498755"><ele>424.7142857142857</ele><time>2026-05-02T14:40:02.035Z</time></trkpt><trkpt lat="45.9851467" lon="11.7498003"><ele>423.1428571428571</ele><time>2026-05-02T14:40:03.035Z</time></trkpt><trkpt lat="45.9851033" lon="11.7497234"><ele>421.57142857142856</ele><time>2026-05-02T14:40:04.036Z</time></trkpt><trkpt lat="45.9850724" lon="11.7496359"><ele>420.0</ele><time>2026-05-02T14:40:05.035Z</time></trkpt><trkpt lat="45.9850464" lon="11.7495434"><ele>420.0</ele><time>2026-05-02T14:40:06.035Z</time></trkpt><trkpt lat="45.9850237" lon="11.7494569"><ele>420.0</ele><time>2026-05-02T14:40:07.035Z</time></trkpt><trkpt lat="45.9850073" lon="11.7493591"><ele>420.0</ele><time>2026-05-02T14:40:08.035Z</time></trkpt><trkpt lat="45.9850018" lon="11.7492525"><ele>420.0</ele><time>2026-05-02T14:40:09.035Z</time></trkpt><trkpt lat="45.9850126" lon="11.7490932"><ele>420.0</ele><time>2026-05-02T14:40:11.035Z</time></trkpt><trkpt lat="45.9850319" lon="11.7489872"><ele>420.0</ele><time>2026-05-02T14:40:14.035Z</time></trkpt><trkpt lat="45.9850594" lon="11.7489029"><ele>420.2857142857143</ele><time>2026-05-02T14:40:35.036Z</time></trkpt><trkpt lat="45.9850054" lon="11.7488557"><ele>420.57142857142856</ele><time>2026-05-02T14:40:51.091Z</time></trkpt><trkpt lat="45.9850498" lon="11.7487767"><ele>420.8571428571429</ele><time>2026-05-02T14:41:15.091Z</time></trkpt><trkpt lat="45.9850419" lon="11.7488678"><ele>421.1428571428571</ele><time>2026-05-02T14:41:21.183Z</time></trkpt><trkpt lat="45.9849975" lon="11.7489422"><ele>421.42857142857144</ele><time>2026-05-02T14:42:16.077Z</time></trkpt><trkpt lat="45.9849363" lon="11.7489711"><ele>421.7142857142857</ele><time>2026-05-02T14:42:19.092Z</time></trkpt><trkpt lat="45.9848507" lon="11.7490083"><ele>422.0</ele><time>2026-05-02T14:42:22.106Z</time></trkpt><trkpt lat="45.9846573" lon="11.7490904"><ele>418.16666666666663</ele><time>2026-05-02T14:42:23.037Z</time></trkpt><trkpt lat="45.9845888" lon="11.7491243"><ele>414.3333333333333</ele><time>2026-05-02T14:42:24.077Z</time></trkpt><trkpt lat="45.9844823" lon="11.7492198"><ele>410.5</ele><time>2026-05-02T14:42:26.142Z</time></trkpt><trkpt lat="45.9844168" lon="11.7493119"><ele>406.66666666666663</ele><time>2026-05-02T14:42:28.135Z</time></trkpt><trkpt lat="45.9843884" lon="11.7494026"><ele>402.8333333333333</ele><time>2026-05-02T14:42:30.106Z</time></trkpt><trkpt lat="45.9843665" lon="11.7494949"><ele>399.0</ele><time>2026-05-02T14:42:32.077Z</time></trkpt><trkpt lat="45.9843268" lon="11.7496051"><ele>398.75</ele><time>2026-05-02T14:42:33.987Z</time></trkpt><trkpt lat="45.9843068" lon="11.7497481"><ele>398.5</ele><time>2026-05-02T14:42:36.135Z</time></trkpt><trkpt lat="45.9843057" lon="11.7499016"><ele>398.25</ele><time>2026-05-02T14:42:38.106Z</time></trkpt><trkpt lat="45.9843372" lon="11.7500473"><ele>398.0</ele><time>2026-05-02T14:42:40.183Z</time></trkpt><trkpt lat="45.9844016" lon="11.7502234"><ele>396.79999999999995</ele><time>2026-05-02T14:42:42.039Z</time></trkpt><trkpt lat="45.9844668" lon="11.750364"><ele>395.6</ele><time>2026-05-02T14:42:44.038Z</time></trkpt><trkpt lat="45.9845293" lon="11.7505023"><ele>394.4</ele><time>2026-05-02T14:42:46.039Z</time></trkpt><trkpt lat="45.9845827" lon="11.7506317"><ele>393.20000000000005</ele><time>2026-05-02T14:42:48.039Z</time></trkpt><trkpt lat="45.9846176" lon="11.7507706"><ele>392.0</ele><time>2026-05-02T14:42:50.039Z</time></trkpt><trkpt lat="45.9846368" lon="11.7508592"><ele>391.99999999999994</ele><time>2026-05-02T14:42:51.039Z</time></trkpt><trkpt lat="45.9846605" lon="11.750956"><ele>392.0</ele><time>2026-05-02T14:42:52.039Z</time></trkpt><trkpt lat="45.9846869" lon="11.751057"><ele>392.0</ele><time>2026-05-02T14:42:53.038Z</time></trkpt><trkpt lat="45.9847147" lon="11.751162"><ele>392.0</ele><time>2026-05-02T14:42:54.038Z</time></trkpt><trkpt lat="45.9847343" lon="11.751267"><ele>391.99999999999994</ele><time>2026-05-02T14:42:55.038Z</time></trkpt><trkpt lat="45.9847511" lon="11.7513723"><ele>392.0</ele><time>2026-05-02T14:42:56.038Z</time></trkpt><trkpt lat="45.9847669" lon="11.751478"><ele>390.99999999999994</ele><time>2026-05-02T14:42:57.038Z</time></trkpt><trkpt lat="45.9847781" lon="11.7515809"><ele>390.0</ele><time>2026-05-02T14:42:58.038Z</time></trkpt><trkpt lat="45.9847865" lon="11.751682"><ele>389.0</ele><time>2026-05-02T14:42:59.038Z</time></trkpt><trkpt lat="45.9847962" lon="11.7517824"><ele>388.0</ele><time>2026-05-02T14:43:00.038Z</time></trkpt><trkpt lat="45.9848079" lon="11.7518781"><ele>386.99999999999994</ele><time>2026-05-02T14:43:01.038Z</time></trkpt><trkpt lat="45.9848218" lon="11.7519665"><ele>386.0</ele><time>2026-05-02T14:43:02.038Z</time></trkpt><trkpt lat="45.9848524" lon="11.7521169"><ele>386.20000000000005</ele><time>2026-05-02T14:43:04.038Z</time></trkpt><trkpt lat="45.9848808" lon="11.7522527"><ele>386.40000000000003</ele><time>2026-05-02T14:43:07.038Z</time></trkpt><trkpt lat="45.9849433" lon="11.7523765"><ele>386.6</ele><time>2026-05-02T14:43:09.038Z</time></trkpt><trkpt lat="45.9850121" lon="11.7525231"><ele>386.8</ele><time>2026-05-02T14:43:11.038Z</time></trkpt><trkpt lat="45.9850444" lon="11.7526096"><ele>387.0</ele><time>2026-05-02T14:43:12.038Z</time></trkpt><trkpt lat="45.9850923" lon="11.7527454"><ele>383.8</ele><time>2026-05-02T14:43:14.038Z</time></trkpt><trkpt lat="45.9851099" lon="11.752874"><ele>380.6</ele><time>2026-05-02T14:43:17.038Z</time></trkpt><trkpt lat="45.985093" lon="11.753068"><ele>377.40000000000003</ele><time>2026-05-02T14:43:19.038Z</time></trkpt><trkpt lat="45.9850963" lon="11.7531745"><ele>374.20000000000005</ele><time>2026-05-02T14:43:20.039Z</time></trkpt><trkpt lat="45.9851178" lon="11.7532782"><ele>371.0</ele><time>2026-05-02T14:43:21.038Z</time></trkpt><trkpt lat="45.9851509" lon="11.7533807"><ele>371.0</ele><time>2026-05-02T14:43:22.038Z</time></trkpt><trkpt lat="45.9851822" lon="11.7534831"><ele>371.0</ele><time>2026-05-02T14:43:23.039Z</time></trkpt><trkpt lat="45.9852102" lon="11.7535936"><ele>371.0</ele><time>2026-05-02T14:43:24.038Z</time></trkpt><trkpt lat="45.9852452" lon="11.7537044"><ele>371.0</ele><time>2026-05-02T14:43:25.038Z</time></trkpt><trkpt lat="45.9852783" lon="11.7538036"><ele>371.0</ele><time>2026-05-02T14:43:26.039Z</time></trkpt><trkpt lat="45.9853135" lon="11.7538974"><ele>371.0</ele><time>2026-05-02T14:43:27.038Z</time></trkpt><trkpt lat="45.9853505" lon="11.7539858"><ele>369.85714285714283</ele><time>2026-05-02T14:43:28.039Z</time></trkpt><trkpt lat="45.985386" lon="11.7540749"><ele>368.7142857142857</ele><time>2026-05-02T14:43:29.04Z</time></trkpt><trkpt lat="45.9854169" lon="11.7541565"><ele>367.57142857142856</ele><time>2026-05-02T14:43:30.038Z</time></trkpt><trkpt lat="45.9854472" lon="11.7542375"><ele>366.42857142857144</ele><time>2026-05-02T14:43:31.039Z</time></trkpt><trkpt lat="45.9854726" lon="11.7543205"><ele>365.2857142857143</ele><time>2026-05-02T14:43:32.039Z</time></trkpt><trkpt lat="45.9855042" lon="11.7544493"><ele>364.1428571428571</ele><time>2026-05-02T14:43:34.038Z</time></trkpt><trkpt lat="45.9855157" lon="11.7545425"><ele>363.0</ele><time>2026-05-02T14:43:37.039Z</time></trkpt><trkpt lat="45.9855859" lon="11.7545851"><ele>363.4</ele><time>2026-05-02T14:43:40.038Z</time></trkpt><trkpt lat="45.9856849" lon="11.7545562"><ele>363.79999999999995</ele><time>2026-05-02T14:43:42.04Z</time></trkpt><trkpt lat="45.9857759" lon="11.7544913"><ele>364.2</ele><time>2026-05-02T14:43:44.038Z</time></trkpt><trkpt lat="45.9858674" lon="11.7544023"><ele>364.6</ele><time>2026-05-02T14:43:46.039Z</time></trkpt><trkpt lat="45.9859573" lon="11.7543202"><ele>365.0</ele><time>2026-05-02T14:43:48.039Z</time></trkpt><trkpt lat="45.9860359" lon="11.7542539"><ele>364.1666666666667</ele><time>2026-05-02T14:43:50.039Z</time></trkpt><trkpt lat="45.9861064" lon="11.7542007"><ele>363.33333333333337</ele><time>2026-05-02T14:43:52.04Z</time></trkpt><trkpt lat="45.986195" lon="11.7541306"><ele>362.5</ele><time>2026-05-02T14:43:54.039Z</time></trkpt><trkpt lat="45.9862687" lon="11.7540477"><ele>361.6666666666667</ele><time>2026-05-02T14:43:56.039Z</time></trkpt><trkpt lat="45.9863366" lon="11.7540161"><ele>360.8333333333333</ele><time>2026-05-02T14:43:59.039Z</time></trkpt><trkpt lat="45.9863933" lon="11.7540966"><ele>360.0</ele><time>2026-05-02T14:44:02.039Z</time></trkpt><trkpt lat="45.986418" lon="11.7541975"><ele>360.0</ele><time>2026-05-02T14:44:05.04Z</time></trkpt><trkpt lat="45.9864113" lon="11.754298"><ele>360.0</ele><time>2026-05-02T14:44:07.039Z</time></trkpt><trkpt lat="45.9864001" lon="11.75439"><ele>360.0</ele><time>2026-05-02T14:44:10.039Z</time></trkpt><trkpt lat="45.9864126" lon="11.7544913"><ele>360.0</ele><time>2026-05-02T14:44:18.039Z</time></trkpt><trkpt lat="45.9864305" lon="11.7546089"><ele>360.0</ele><time>2026-05-02T14:44:21.04Z</time></trkpt><trkpt lat="45.9864542" lon="11.7547341"><ele>360.0</ele><time>2026-05-02T14:44:23.039Z</time></trkpt><trkpt lat="45.9865025" lon="11.7548379"><ele>361.0</ele><time>2026-05-02T14:44:24.039Z</time></trkpt><trkpt lat="45.9865694" lon="11.7549077"><ele>362.0</ele><time>2026-05-02T14:44:26.039Z</time></trkpt><trkpt lat="45.9866557" lon="11.7549673"><ele>363.0</ele><time>2026-05-02T14:44:28.039Z</time></trkpt><trkpt lat="45.9867277" lon="11.7549388"><ele>364.0</ele><time>2026-05-02T14:44:30.039Z</time></trkpt><trkpt lat="45.9867913" lon="11.7547917"><ele>365.0</ele><time>2026-05-02T14:44:32.039Z</time></trkpt><trkpt lat="45.9868657" lon="11.7546684"><ele>366.4</ele><time>2026-05-02T14:44:34.04Z</time></trkpt><trkpt lat="45.9869078" lon="11.7545962"><ele>367.8</ele><time>2026-05-02T14:44:35.041Z</time></trkpt><trkpt lat="45.9869934" lon="11.7544779"><ele>369.20000000000005</ele><time>2026-05-02T14:44:37.039Z</time></trkpt><trkpt lat="45.9870341" lon="11.7543465"><ele>370.6</ele><time>2026-05-02T14:44:39.04Z</time></trkpt><trkpt lat="45.9871061" lon="11.7542317"><ele>372.0</ele><time>2026-05-02T14:44:41.039Z</time></trkpt><trkpt lat="45.9871619" lon="11.7541786"><ele>372.0</ele><time>2026-05-02T14:44:42.04Z</time></trkpt><trkpt lat="45.9872477" lon="11.7541062"><ele>372.0</ele><time>2026-05-02T14:44:44.04Z</time></trkpt><trkpt lat="45.9873001" lon="11.7540288"><ele>372.0</ele><time>2026-05-02T14:44:46.039Z</time></trkpt><trkpt lat="45.9873858" lon="11.7538931"><ele>372.0</ele><time>2026-05-02T14:44:48.04Z</time></trkpt><trkpt lat="45.9874333" lon="11.753814"><ele>372.0</ele><time>2026-05-02T14:44:50.039Z</time></trkpt><trkpt lat="45.9874697" lon="11.7537391"><ele>372.0</ele><time>2026-05-02T14:44:53.039Z</time></trkpt><trkpt lat="45.9875165" lon="11.7536668"><ele>373.6</ele><time>2026-05-02T14:44:55.04Z</time></trkpt><trkpt lat="45.9876051" lon="11.7535658"><ele>375.20000000000005</ele><time>2026-05-02T14:44:57.04Z</time></trkpt><trkpt lat="45.9877104" lon="11.7535513"><ele>376.8</ele><time>2026-05-02T14:44:59.04Z</time></trkpt><trkpt lat="45.9878112" lon="11.7535181"><ele>378.4</ele><time>2026-05-02T14:45:01.04Z</time></trkpt><trkpt lat="45.9879109" lon="11.7534813"><ele>380.0</ele><time>2026-05-02T14:45:03.04Z</time></trkpt><trkpt lat="45.9880026" lon="11.7534805"><ele>380.0</ele><time>2026-05-02T14:45:05.04Z</time></trkpt><trkpt lat="45.9880719" lon="11.753482"><ele>380.0</ele><time>2026-05-02T14:45:07.04Z</time></trkpt><trkpt lat="45.9881606" lon="11.753472"><ele>380.0</ele><time>2026-05-02T14:45:09.04Z</time></trkpt><trkpt lat="45.9882383" lon="11.7534986"><ele>380.0</ele><time>2026-05-02T14:45:11.04Z</time></trkpt><trkpt lat="45.9882929" lon="11.7535474"><ele>380.0</ele><time>2026-05-02T14:45:12.04Z</time></trkpt><trkpt lat="45.9883543" lon="11.7536072"><ele>380.0</ele><time>2026-05-02T14:45:14.04Z</time></trkpt><trkpt lat="45.9884063" lon="11.7536704"><ele>380.0</ele><time>2026-05-02T14:45:15.04Z</time></trkpt><trkpt lat="45.9885032" lon="11.7537408"><ele>384.57142857142856</ele><time>2026-05-02T14:45:17.041Z</time></trkpt><trkpt lat="45.9885658" lon="11.7537893"><ele>389.14285714285717</ele><time>2026-05-02T14:45:18.04Z</time></trkpt><trkpt lat="45.9886249" lon="11.7538406"><ele>393.71428571428567</ele><time>2026-05-02T14:45:19.04Z</time></trkpt><trkpt lat="45.9886893" lon="11.7539059"><ele>398.2857142857143</ele><time>2026-05-02T14:45:20.04Z</time></trkpt><trkpt lat="45.9887725" lon="11.7539561"><ele>402.85714285714283</ele><time>2026-05-02T14:45:22.04Z</time></trkpt><trkpt lat="45.9888025" lon="11.7538738"><ele>407.4285714285714</ele><time>2026-05-02T14:45:25.041Z</time></trkpt><trkpt lat="45.9888165" lon="11.7537679"><ele>412.0</ele><time>2026-05-02T14:45:26.04Z</time></trkpt><trkpt lat="45.9888754" lon="11.7536709"><ele>412.0</ele><time>2026-05-02T14:45:28.04Z</time></trkpt><trkpt lat="45.988941" lon="11.7537292"><ele>412.0</ele><time>2026-05-02T14:45:30.041Z</time></trkpt><trkpt lat="45.9890109" lon="11.7539202"><ele>412.0</ele><time>2026-05-02T14:45:32.04Z</time></trkpt><trkpt lat="45.9891082" lon="11.7539327"><ele>412.0</ele><time>2026-05-02T14:45:34.04Z</time></trkpt><trkpt lat="45.9891785" lon="11.7539188"><ele>412.0</ele><time>2026-05-02T14:45:36.042Z</time></trkpt><trkpt lat="45.9892403" lon="11.753877"><ele>416.6666666666667</ele><time>2026-05-02T14:45:40.04Z</time></trkpt><trkpt lat="45.9892945" lon="11.7538268"><ele>421.33333333333337</ele><time>2026-05-02T14:45:42.041Z</time></trkpt><trkpt lat="45.9893654" lon="11.7538011"><ele>426.0</ele><time>2026-05-02T14:45:44.042Z</time></trkpt><trkpt lat="45.9894357" lon="11.7538008"><ele>430.66666666666663</ele><time>2026-05-02T14:45:45.04Z</time></trkpt><trkpt lat="45.9895126" lon="11.7537028"><ele>435.3333333333333</ele><time>2026-05-02T14:45:48.041Z</time></trkpt><trkpt lat="45.9895968" lon="11.7536444"><ele>440.0</ele><time>2026-05-02T14:45:50.04Z</time></trkpt><trkpt lat="45.9896694" lon="11.753508"><ele>440.0</ele><time>2026-05-02T14:45:52.04Z</time></trkpt><trkpt lat="45.989701" lon="11.7533258"><ele>440.0</ele><time>2026-05-02T14:45:54.041Z</time></trkpt><trkpt lat="45.989725" lon="11.7532082"><ele>440.0</ele><time>2026-05-02T14:45:56.042Z</time></trkpt><trkpt lat="45.9898001" lon="11.7530971"><ele>440.0</ele><time>2026-05-02T14:45:58.041Z</time></trkpt><trkpt lat="45.9898586" lon="11.752939"><ele>440.0</ele><time>2026-05-02T14:46:00.041Z</time></trkpt><trkpt lat="45.9898843" lon="11.7528366"><ele>439.99999999999994</ele><time>2026-05-02T14:46:01.041Z</time></trkpt><trkpt lat="45.9899109" lon="11.7527138"><ele>440.0</ele><time>2026-05-02T14:46:02.041Z</time></trkpt><trkpt lat="45.9899372" lon="11.7525717"><ele>440.0</ele><time>2026-05-02T14:46:03.041Z</time></trkpt><trkpt lat="45.9899714" lon="11.7524473"><ele>440.0</ele><time>2026-05-02T14:46:04.041Z</time></trkpt><trkpt lat="45.990005" lon="11.7523677"><ele>439.99999999999994</ele><time>2026-05-02T14:46:05.041Z</time></trkpt><trkpt lat="45.9900759" lon="11.7523044"><ele>440.0</ele><time>2026-05-02T14:46:07.041Z</time></trkpt><trkpt lat="45.9901951" lon="11.7522806"><ele>445.49999999999994</ele><time>2026-05-02T14:46:09.041Z</time></trkpt><trkpt lat="45.9902731" lon="11.7522226"><ele>451.0</ele><time>2026-05-02T14:46:11.041Z</time></trkpt><trkpt lat="45.9903086" lon="11.7521163"><ele>456.5</ele><time>2026-05-02T14:46:13.041Z</time></trkpt><trkpt lat="45.9903414" lon="11.7520336"><ele>462.0</ele><time>2026-05-02T14:46:16.041Z</time></trkpt><trkpt lat="45.9903356" lon="11.7521256"><ele>467.49999999999994</ele><time>2026-05-02T14:46:25.041Z</time></trkpt><trkpt lat="45.9902868" lon="11.7522249"><ele>473.0</ele><time>2026-05-02T14:46:27.041Z</time></trkpt><trkpt lat="45.9902571" lon="11.752351"><ele>473.0</ele><time>2026-05-02T14:46:30.041Z</time></trkpt><trkpt lat="45.9902471" lon="11.7525207"><ele>472.99999999999994</ele><time>2026-05-02T14:46:32.041Z</time></trkpt><trkpt lat="45.9902696" lon="11.7527288"><ele>472.99999999999994</ele><time>2026-05-02T14:46:34.041Z</time></trkpt><trkpt lat="45.9902823" lon="11.7528255"><ele>473.0</ele><time>2026-05-02T14:46:35.042Z</time></trkpt><trkpt lat="45.9903006" lon="11.752913"><ele>473.0</ele><time>2026-05-02T14:46:36.042Z</time></trkpt><trkpt lat="45.9903297" lon="11.7530089"><ele>474.49999999999994</ele><time>2026-05-02T14:46:37.041Z</time></trkpt><trkpt lat="45.9903507" lon="11.7531016"><ele>476.0</ele><time>2026-05-02T14:46:38.042Z</time></trkpt><trkpt lat="45.990376" lon="11.7532245"><ele>477.5</ele><time>2026-05-02T14:46:40.041Z</time></trkpt><trkpt lat="45.9904332" lon="11.753279"><ele>479.0</ele><time>2026-05-02T14:46:43.041Z</time></trkpt><trkpt lat="45.9905262" lon="11.7533209"><ele>480.49999999999994</ele><time>2026-05-02T14:46:46.041Z</time></trkpt><trkpt lat="45.9905413" lon="11.7534114"><ele>482.0</ele><time>2026-05-02T14:46:49.042Z</time></trkpt><trkpt lat="45.9905628" lon="11.753536"><ele>482.99999999999994</ele><time>2026-05-02T14:46:52.042Z</time></trkpt><trkpt lat="45.990564" lon="11.753657"><ele>484.0</ele><time>2026-05-02T14:46:54.041Z</time></trkpt><trkpt lat="45.9906173" lon="11.7537389"><ele>485.0</ele><time>2026-05-02T14:46:56.041Z</time></trkpt><trkpt lat="45.9906832" lon="11.7537364"><ele>486.0</ele><time>2026-05-02T14:46:58.041Z</time></trkpt><trkpt lat="45.9907581" lon="11.7537355"><ele>486.99999999999994</ele><time>2026-05-02T14:47:00.041Z</time></trkpt><trkpt lat="45.9907361" lon="11.75388"><ele>488.0</ele><time>2026-05-02T14:47:04.042Z</time></trkpt><trkpt lat="45.9907363" lon="11.7540137"><ele>487.99999999999994</ele><time>2026-05-02T14:47:07.042Z</time></trkpt><trkpt lat="45.9907385" lon="11.7541312"><ele>488.0</ele><time>2026-05-02T14:47:09.042Z</time></trkpt><trkpt lat="45.9907609" lon="11.7542834"><ele>488.0</ele><time>2026-05-02T14:47:11.042Z</time></trkpt><trkpt lat="45.9907734" lon="11.7543739"><ele>488.0</ele><time>2026-05-02T14:47:13.042Z</time></trkpt><trkpt lat="45.9907998" lon="11.7545123"><ele>487.99999999999994</ele><time>2026-05-02T14:47:16.042Z</time></trkpt><trkpt lat="45.9908134" lon="11.7546232"><ele>488.0</ele><time>2026-05-02T14:47:18.042Z</time></trkpt><trkpt lat="45.9908647" lon="11.7547365"><ele>492.3333333333333</ele><time>2026-05-02T14:47:20.043Z</time></trkpt><trkpt lat="45.9909167" lon="11.754846"><ele>496.66666666666663</ele><time>2026-05-02T14:47:22.042Z</time></trkpt><trkpt lat="45.9909553" lon="11.7549293"><ele>501.0</ele><time>2026-05-02T14:47:27.042Z</time></trkpt><trkpt lat="45.9910125" lon="11.7550413"><ele>505.33333333333337</ele><time>2026-05-02T14:47:32.042Z</time></trkpt><trkpt lat="45.9910548" lon="11.7551646"><ele>509.6666666666667</ele><time>2026-05-02T14:47:34.042Z</time></trkpt><trkpt lat="45.9911127" lon="11.7552563"><ele>514.0</ele><time>2026-05-02T14:47:36.043Z</time></trkpt><trkpt lat="45.9911866" lon="11.7552451"><ele>514.0</ele><time>2026-05-02T14:47:39.042Z</time></trkpt><trkpt lat="45.9912651" lon="11.7552332"><ele>514.0</ele><time>2026-05-02T14:47:41.042Z</time></trkpt><trkpt lat="45.9913504" lon="11.7551994"><ele>514.0</ele><time>2026-05-02T14:47:43.042Z</time></trkpt><trkpt lat="45.9914249" lon="11.7552727"><ele>514.0</ele><time>2026-05-02T14:47:45.043Z</time></trkpt><trkpt lat="45.9914918" lon="11.7553023"><ele>514.0</ele><time>2026-05-02T14:47:47.042Z</time></trkpt><trkpt lat="45.9915832" lon="11.7552955"><ele>514.0</ele><time>2026-05-02T14:47:50.043Z</time></trkpt><trkpt lat="45.9916455" lon="11.7552334"><ele>518.6</ele><time>2026-05-02T14:47:52.042Z</time></trkpt><trkpt lat="45.9917103" lon="11.7551227"><ele>523.2</ele><time>2026-05-02T14:47:54.042Z</time></trkpt><trkpt lat="45.9917685" lon="11.755055"><ele>527.8000000000001</ele><time>2026-05-02T14:47:56.042Z</time></trkpt><trkpt lat="45.9918669" lon="11.7550782"><ele>532.4</ele><time>2026-05-02T14:47:58.042Z</time></trkpt><trkpt lat="45.9919414" lon="11.7551322"><ele>537.0</ele><time>2026-05-02T14:47:59.043Z</time></trkpt><trkpt lat="45.9920209" lon="11.7552088"><ele>537.1666666666666</ele><time>2026-05-02T14:48:00.043Z</time></trkpt><trkpt lat="45.9920888" lon="11.7552801"><ele>537.3333333333334</ele><time>2026-05-02T14:48:01.042Z</time></trkpt><trkpt lat="45.9921773" lon="11.7553774"><ele>537.5</ele><time>2026-05-02T14:48:03.042Z</time></trkpt><trkpt lat="45.992258" lon="11.7554738"><ele>537.6666666666667</ele><time>2026-05-02T14:48:07.043Z</time></trkpt><trkpt lat="45.9923212" lon="11.7554345"><ele>537.8333333333334</ele><time>2026-05-02T14:48:09.043Z</time></trkpt><trkpt lat="45.9923707" lon="11.7553753"><ele>538.0</ele><time>2026-05-02T14:48:10.043Z</time></trkpt><trkpt lat="45.9924606" lon="11.7552867"><ele>537.8333333333334</ele><time>2026-05-02T14:48:12.044Z</time></trkpt><trkpt lat="45.9924687" lon="11.7551425"><ele>537.6666666666667</ele><time>2026-05-02T14:48:14.043Z</time></trkpt><trkpt lat="45.992458" lon="11.7550378"><ele>537.5</ele><time>2026-05-02T14:48:15.043Z</time></trkpt><trkpt lat="45.9924455" lon="11.7549196"><ele>537.3333333333334</ele><time>2026-05-02T14:48:16.043Z</time></trkpt><trkpt lat="45.9924391" lon="11.7548075"><ele>537.1666666666666</ele><time>2026-05-02T14:48:17.043Z</time></trkpt><trkpt lat="45.9924243" lon="11.7546958"><ele>537.0</ele><time>2026-05-02T14:48:18.043Z</time></trkpt><trkpt lat="45.9924281" lon="11.7545755"><ele>537.0</ele><time>2026-05-02T14:48:19.044Z</time></trkpt><trkpt lat="45.9924461" lon="11.7544874"><ele>537.0</ele><time>2026-05-02T14:48:20.043Z</time></trkpt><trkpt lat="45.9925076" lon="11.7544082"><ele>537.0</ele><time>2026-05-02T14:48:22.044Z</time></trkpt><trkpt lat="45.9926116" lon="11.7543359"><ele>537.0</ele><time>2026-05-02T14:48:24.043Z</time></trkpt><trkpt lat="45.9926673" lon="11.7542891"><ele>537.0</ele><time>2026-05-02T14:48:25.043Z</time></trkpt><trkpt lat="45.9927164" lon="11.7542275"><ele>537.0</ele><time>2026-05-02T14:48:26.043Z</time></trkpt><trkpt lat="45.9927522" lon="11.7541105"><ele>547.3333333333334</ele><time>2026-05-02T14:48:27.043Z</time></trkpt><trkpt lat="45.9927873" lon="11.7539362"><ele>557.6666666666667</ele><time>2026-05-02T14:48:28.043Z</time></trkpt><trkpt lat="45.9928136" lon="11.7537036"><ele>568.0</ele><time>2026-05-02T14:48:29.043Z</time></trkpt><trkpt lat="45.9928258" lon="11.7534543"><ele>568.6666666666667</ele><time>2026-05-02T14:48:30.043Z</time></trkpt><trkpt lat="45.9928257" lon="11.7532603"><ele>569.3333333333334</ele><time>2026-05-02T14:48:31.043Z</time></trkpt><trkpt lat="45.992809" lon="11.7531384"><ele>570.0</ele><time>2026-05-02T14:48:32.043Z</time></trkpt><trkpt lat="45.9928078" lon="11.7530127"><ele>570.6666666666666</ele><time>2026-05-02T14:48:33.043Z</time></trkpt><trkpt lat="45.9928136" lon="11.7529154"><ele>571.3333333333333</ele><time>2026-05-02T14:48:34.043Z</time></trkpt><trkpt lat="45.9928249" lon="11.7528188"><ele>572.0</ele><time>2026-05-02T14:48:35.043Z</time></trkpt><trkpt lat="45.992854" lon="11.7527095"><ele>572.0</ele><time>2026-05-02T14:48:37.043Z</time></trkpt><trkpt lat="45.9929149" lon="11.7527775"><ele>572.0</ele><time>2026-05-02T14:48:39.044Z</time></trkpt><trkpt lat="45.9929557" lon="11.7529548"><ele>572.0</ele><time>2026-05-02T14:48:40.043Z</time></trkpt><trkpt lat="45.9929518" lon="11.7530918"><ele>572.0</ele><time>2026-05-02T14:48:41.044Z</time></trkpt><trkpt lat="45.9929404" lon="11.7531887"><ele>572.0</ele><time>2026-05-02T14:48:42.043Z</time></trkpt><trkpt lat="45.9929472" lon="11.7532987"><ele>572.0</ele><time>2026-05-02T14:48:43.043Z</time></trkpt><trkpt lat="45.9929475" lon="11.7534446"><ele>571.2</ele><time>2026-05-02T14:48:44.044Z</time></trkpt><trkpt lat="45.9929527" lon="11.7535785"><ele>570.4000000000001</ele><time>2026-05-02T14:48:45.044Z</time></trkpt><trkpt lat="45.9929484" lon="11.7537317"><ele>569.5999999999999</ele><time>2026-05-02T14:48:47.044Z</time></trkpt><trkpt lat="45.9929521" lon="11.753828"><ele>568.8</ele><time>2026-05-02T14:48:48.043Z</time></trkpt><trkpt lat="45.9929871" lon="11.7540276"><ele>568.0</ele><time>2026-05-02T14:48:50.044Z</time></trkpt><trkpt lat="45.9930085" lon="11.7541746"><ele>568.0</ele><time>2026-05-02T14:48:52.043Z</time></trkpt><trkpt lat="45.9930159" lon="11.7542694"><ele>568.0</ele><time>2026-05-02T14:48:53.044Z</time></trkpt><trkpt lat="45.9930227" lon="11.7543819"><ele>568.0</ele><time>2026-05-02T14:48:54.044Z</time></trkpt><trkpt lat="45.9930322" lon="11.7545325"><ele>568.0</ele><time>2026-05-02T14:48:55.044Z</time></trkpt><trkpt lat="45.9930959" lon="11.7546417"><ele>568.0</ele><time>2026-05-02T14:48:58.044Z</time></trkpt><trkpt lat="45.9932011" lon="11.7546206"><ele>567.8333333333334</ele><time>2026-05-02T14:49:01.044Z</time></trkpt><trkpt lat="45.9932189" lon="11.7547194"><ele>567.6666666666667</ele><time>2026-05-02T14:49:05.044Z</time></trkpt><trkpt lat="45.9932603" lon="11.7548173"><ele>567.5</ele><time>2026-05-02T14:49:08.043Z</time></trkpt><trkpt lat="45.9932722" lon="11.7549524"><ele>567.3333333333334</ele><time>2026-05-02T14:49:10.044Z</time></trkpt><trkpt lat="45.9933163" lon="11.7550835"><ele>567.1666666666666</ele><time>2026-05-02T14:49:12.045Z</time></trkpt><trkpt lat="45.9933318" lon="11.7552284"><ele>567.0</ele><time>2026-05-02T14:49:13.044Z</time></trkpt><trkpt lat="45.9933851" lon="11.7553579"><ele>575.2</ele><time>2026-05-02T14:49:14.044Z</time></trkpt><trkpt lat="45.9934823" lon="11.7555294"><ele>583.4000000000001</ele><time>2026-05-02T14:49:15.044Z</time></trkpt><trkpt lat="45.9935036" lon="11.7556253"><ele>591.5999999999999</ele><time>2026-05-02T14:49:16.044Z</time></trkpt><trkpt lat="45.9935307" lon="11.7557428"><ele>599.8</ele><time>2026-05-02T14:49:17.045Z</time></trkpt><trkpt lat="45.9935623" lon="11.7558595"><ele>608.0</ele><time>2026-05-02T14:49:18.044Z</time></trkpt><trkpt lat="45.9935834" lon="11.7559515"><ele>608.0</ele><time>2026-05-02T14:49:19.044Z</time></trkpt><trkpt lat="45.9936184" lon="11.7560534"><ele>608.0</ele><time>2026-05-02T14:49:20.044Z</time></trkpt><trkpt lat="45.9936502" lon="11.756165"><ele>608.0</ele><time>2026-05-02T14:49:21.044Z</time></trkpt><trkpt lat="45.9936871" lon="11.7562866"><ele>608.0</ele><time>2026-05-02T14:49:22.044Z</time></trkpt><trkpt lat="45.9937324" lon="11.756429"><ele>608.0</ele><time>2026-05-02T14:49:23.044Z</time></trkpt><trkpt lat="45.9937681" lon="11.7565553"><ele>608.0</ele><time>2026-05-02T14:49:24.045Z</time></trkpt><trkpt lat="45.9938004" lon="11.7566809"><ele>608.0</ele><time>2026-05-02T14:49:25.045Z</time></trkpt><trkpt lat="45.9938377" lon="11.7568135"><ele>608.0</ele><time>2026-05-02T14:49:26.044Z</time></trkpt><trkpt lat="45.993875" lon="11.7569242"><ele>608.0</ele><time>2026-05-02T14:49:27.045Z</time></trkpt><trkpt lat="45.993914" lon="11.7570323"><ele>608.0</ele><time>2026-05-02T14:49:28.044Z</time></trkpt><trkpt lat="45.9939553" lon="11.7571356"><ele>608.0</ele><time>2026-05-02T14:49:29.044Z</time></trkpt><trkpt lat="45.9940126" lon="11.7572064"><ele>609.4</ele><time>2026-05-02T14:49:30.045Z</time></trkpt><trkpt lat="45.9940905" lon="11.757304"><ele>610.8</ele><time>2026-05-02T14:49:32.044Z</time></trkpt><trkpt lat="45.9941845" lon="11.7574584"><ele>612.2</ele><time>2026-05-02T14:49:35.044Z</time></trkpt><trkpt lat="45.9942187" lon="11.7575511"><ele>613.6</ele><time>2026-05-02T14:49:36.045Z</time></trkpt><trkpt lat="45.9942576" lon="11.7576652"><ele>615.0</ele><time>2026-05-02T14:49:37.044Z</time></trkpt><trkpt lat="45.9942888" lon="11.7577717"><ele>615.0</ele><time>2026-05-02T14:49:38.044Z</time></trkpt><trkpt lat="45.9943187" lon="11.7578771"><ele>615.0</ele><time>2026-05-02T14:49:39.044Z</time></trkpt><trkpt lat="45.9943487" lon="11.7580007"><ele>615.0</ele><time>2026-05-02T14:49:40.044Z</time></trkpt><trkpt lat="45.9943721" lon="11.75812"><ele>615.0</ele><time>2026-05-02T14:49:41.044Z</time></trkpt><trkpt lat="45.9943762" lon="11.7582428"><ele>615.0</ele><time>2026-05-02T14:49:42.044Z</time></trkpt><trkpt lat="45.9943735" lon="11.7583617"><ele>615.0</ele><time>2026-05-02T14:49:43.045Z</time></trkpt><trkpt lat="45.9943748" lon="11.7584723"><ele>613.8333333333334</ele><time>2026-05-02T14:49:44.044Z</time></trkpt><trkpt lat="45.9943804" lon="11.7585825"><ele>612.6666666666666</ele><time>2026-05-02T14:49:45.044Z</time></trkpt><trkpt lat="45.9943901" lon="11.758686"><ele>611.5</ele><time>2026-05-02T14:49:46.044Z</time></trkpt><trkpt lat="45.9944022" lon="11.7587817"><ele>610.3333333333333</ele><time>2026-05-02T14:49:47.045Z</time></trkpt><trkpt lat="45.9944301" lon="11.7589425"><ele>609.1666666666666</ele><time>2026-05-02T14:49:49.044Z</time></trkpt><trkpt lat="45.9944483" lon="11.7590785"><ele>608.0</ele><time>2026-05-02T14:49:51.044Z</time></trkpt><trkpt lat="45.9944712" lon="11.7592053"><ele>608.0</ele><time>2026-05-02T14:49:53.044Z</time></trkpt><trkpt lat="45.994444" lon="11.7593049"><ele>608.0</ele><time>2026-05-02T14:49:56.044Z</time></trkpt><trkpt lat="45.9943703" lon="11.7593037"><ele>608.0</ele><time>2026-05-02T14:49:59.045Z</time></trkpt><trkpt lat="45.9943045" lon="11.7592754"><ele>608.0</ele><time>2026-05-02T14:50:02.044Z</time></trkpt><trkpt lat="45.9942346" lon="11.7592538"><ele>608.0</ele><time>2026-05-02T14:50:05.045Z</time></trkpt><trkpt lat="45.9941685" lon="11.7592752"><ele>608.0</ele><time>2026-05-02T14:50:11.044Z</time></trkpt><trkpt lat="45.9941104" lon="11.7593173"><ele>608.0</ele><time>2026-05-02T14:50:27.045Z</time></trkpt><trkpt lat="45.9940799" lon="11.7594017"><ele>604.6666666666666</ele><time>2026-05-02T14:50:39.046Z</time></trkpt><trkpt lat="45.9940555" lon="11.759501"><ele>601.3333333333333</ele><time>2026-05-02T14:51:30.046Z</time></trkpt><trkpt lat="45.9939939" lon="11.7595555"><ele>598.0</ele><time>2026-05-02T14:51:49.047Z</time></trkpt><trkpt lat="45.9938885" lon="11.7595321"><ele>594.6666666666666</ele><time>2026-05-02T14:52:10.046Z</time></trkpt><trkpt lat="45.9938147" lon="11.7595164"><ele>591.3333333333334</ele><time>2026-05-02T14:52:16.048Z</time></trkpt><trkpt lat="45.9937466" lon="11.7594843"><ele>588.0</ele><time>2026-05-02T14:52:21.047Z</time></trkpt><trkpt lat="45.9937068" lon="11.759406"><ele>588.0</ele><time>2026-05-02T14:52:26.047Z</time></trkpt><trkpt lat="45.993642" lon="11.7593815"><ele>588.0</ele><time>2026-05-02T14:52:30.047Z</time></trkpt><trkpt lat="45.9935778" lon="11.7593887"><ele>588.0</ele><time>2026-05-02T14:52:33.047Z</time></trkpt><trkpt lat="45.993501" lon="11.7593669"><ele>588.0</ele><time>2026-05-02T14:52:37.047Z</time></trkpt><trkpt lat="45.993427" lon="11.7593748"><ele>588.0</ele><time>2026-05-02T14:52:40.048Z</time></trkpt><trkpt lat="45.9933449" lon="11.7593596"><ele>588.0</ele><time>2026-05-02T14:52:42.047Z</time></trkpt><trkpt lat="45.9932229" lon="11.7593585"><ele>582.1999999999999</ele><time>2026-05-02T14:52:44.047Z</time></trkpt><trkpt lat="45.9931537" lon="11.7593694"><ele>576.4</ele><time>2026-05-02T14:52:45.047Z</time></trkpt><trkpt lat="45.9930606" lon="11.7593812"><ele>570.5999999999999</ele><time>2026-05-02T14:52:46.048Z</time></trkpt><trkpt lat="45.9929699" lon="11.7593886"><ele>564.8</ele><time>2026-05-02T14:52:47.047Z</time></trkpt><trkpt lat="45.9928943" lon="11.7593963"><ele>559.0</ele><time>2026-05-02T14:52:48.047Z</time></trkpt><trkpt lat="45.9927707" lon="11.7594384"><ele>559.0</ele><time>2026-05-02T14:52:50.047Z</time></trkpt><trkpt lat="45.9927043" lon="11.7594538"><ele>559.0</ele><time>2026-05-02T14:52:51.047Z</time></trkpt><trkpt lat="45.9926166" lon="11.7594549"><ele>559.0</ele><time>2026-05-02T14:52:53.047Z</time></trkpt><trkpt lat="45.9925455" lon="11.7594366"><ele>559.0</ele><time>2026-05-02T14:52:56.047Z</time></trkpt><trkpt lat="45.9924868" lon="11.7593416"><ele>559.0</ele><time>2026-05-02T14:52:58.048Z</time></trkpt><trkpt lat="45.9924497" lon="11.759257"><ele>559.0</ele><time>2026-05-02T14:52:59.047Z</time></trkpt><trkpt lat="45.992415" lon="11.7591581"><ele>556.6666666666667</ele><time>2026-05-02T14:53:00.047Z</time></trkpt><trkpt lat="45.9923807" lon="11.7590524"><ele>554.3333333333334</ele><time>2026-05-02T14:53:01.047Z</time></trkpt><trkpt lat="45.9923471" lon="11.7589433"><ele>552.0</ele><time>2026-05-02T14:53:02.047Z</time></trkpt><trkpt lat="45.9923149" lon="11.7588336"><ele>549.6666666666666</ele><time>2026-05-02T14:53:03.047Z</time></trkpt><trkpt lat="45.9922846" lon="11.7587221"><ele>547.3333333333333</ele><time>2026-05-02T14:53:04.047Z</time></trkpt><trkpt lat="45.9922551" lon="11.758613"><ele>545.0</ele><time>2026-05-02T14:53:05.047Z</time></trkpt><trkpt lat="45.9922255" lon="11.7585059"><ele>544.6666666666666</ele><time>2026-05-02T14:53:06.047Z</time></trkpt><trkpt lat="45.9921966" lon="11.758402"><ele>544.3333333333333</ele><time>2026-05-02T14:53:07.047Z</time></trkpt><trkpt lat="45.9921727" lon="11.7583"><ele>544.0</ele><time>2026-05-02T14:53:08.047Z</time></trkpt><trkpt lat="45.992158" lon="11.7582063"><ele>543.6666666666666</ele><time>2026-05-02T14:53:09.048Z</time></trkpt><trkpt lat="45.9921402" lon="11.7580512"><ele>543.3333333333334</ele><time>2026-05-02T14:53:11.047Z</time></trkpt><trkpt lat="45.9921105" lon="11.7579454"><ele>543.0</ele><time>2026-05-02T14:53:13.047Z</time></trkpt><trkpt lat="45.9920534" lon="11.757852"><ele>543.0</ele><time>2026-05-02T14:53:15.047Z</time></trkpt><trkpt lat="45.9919816" lon="11.7577518"><ele>543.0</ele><time>2026-05-02T14:53:17.048Z</time></trkpt><trkpt lat="45.9918841" lon="11.7576603"><ele>543.0</ele><time>2026-05-02T14:53:19.047Z</time></trkpt><trkpt lat="45.9918181" lon="11.7576331"><ele>543.0</ele><time>2026-05-02T14:53:20.047Z</time></trkpt><trkpt lat="45.9917447" lon="11.7576198"><ele>543.0</ele><time>2026-05-02T14:53:21.047Z</time></trkpt><trkpt lat="45.9916702" lon="11.7576145"><ele>543.0</ele><time>2026-05-02T14:53:22.047Z</time></trkpt><trkpt lat="45.9915948" lon="11.7576082"><ele>542.1666666666666</ele><time>2026-05-02T14:53:23.048Z</time></trkpt><trkpt lat="45.9914957" lon="11.7575944"><ele>541.3333333333334</ele><time>2026-05-02T14:53:25.049Z</time></trkpt><trkpt lat="45.9914247" lon="11.7575847"><ele>540.5</ele><time>2026-05-02T14:53:28.048Z</time></trkpt><trkpt lat="45.9913527" lon="11.7575649"><ele>539.6666666666667</ele><time>2026-05-02T14:53:32.048Z</time></trkpt><trkpt lat="45.991283" lon="11.7575302"><ele>538.8333333333334</ele><time>2026-05-02T14:53:35.049Z</time></trkpt><trkpt lat="45.9912148" lon="11.7575186"><ele>538.0</ele><time>2026-05-02T14:53:39.048Z</time></trkpt><trkpt lat="45.9911287" lon="11.7574749"><ele>538.0</ele><time>2026-05-02T14:53:41.048Z</time></trkpt><trkpt lat="45.9910089" lon="11.7574016"><ele>538.0</ele><time>2026-05-02T14:53:43.049Z</time></trkpt><trkpt lat="45.9909249" lon="11.7573654"><ele>538.0</ele><time>2026-05-02T14:53:44.049Z</time></trkpt><trkpt lat="45.990827" lon="11.7573462"><ele>538.0</ele><time>2026-05-02T14:53:45.048Z</time></trkpt><trkpt lat="45.9907508" lon="11.7573421"><ele>538.0</ele><time>2026-05-02T14:53:46.048Z</time></trkpt><trkpt lat="45.9906442" lon="11.7573792"><ele>537.8</ele><time>2026-05-02T14:53:48.048Z</time></trkpt><trkpt lat="45.9905305" lon="11.7574319"><ele>537.5999999999999</ele><time>2026-05-02T14:53:51.048Z</time></trkpt><trkpt lat="45.9904291" lon="11.7574994"><ele>537.4000000000001</ele><time>2026-05-02T14:53:53.048Z</time></trkpt><trkpt lat="45.9903423" lon="11.75757"><ele>537.2</ele><time>2026-05-02T14:53:55.048Z</time></trkpt><trkpt lat="45.9902417" lon="11.7576214"><ele>537.0</ele><time>2026-05-02T14:53:57.049Z</time></trkpt><trkpt lat="45.9901469" lon="11.7576545"><ele>537.0</ele><time>2026-05-02T14:53:59.048Z</time></trkpt><trkpt lat="45.9900612" lon="11.7575894"><ele>537.0</ele><time>2026-05-02T14:54:02.048Z</time></trkpt><trkpt lat="45.9899941" lon="11.7575221"><ele>537.0</ele><time>2026-05-02T14:54:04.049Z</time></trkpt><trkpt lat="45.989954" lon="11.7574384"><ele>537.0</ele><time>2026-05-02T14:54:06.048Z</time></trkpt><trkpt lat="45.9899" lon="11.7573233"><ele>537.0</ele><time>2026-05-02T14:54:08.048Z</time></trkpt><trkpt lat="45.9898614" lon="11.7572471"><ele>537.0</ele><time>2026-05-02T14:54:09.048Z</time></trkpt><trkpt lat="45.9898305" lon="11.7571662"><ele>533.0</ele><time>2026-05-02T14:54:10.049Z</time></trkpt><trkpt lat="45.9897872" lon="11.7570244"><ele>529.0</ele><time>2026-05-02T14:54:11.049Z</time></trkpt><trkpt lat="45.9897541" lon="11.7569312"><ele>525.0</ele><time>2026-05-02T14:54:12.049Z</time></trkpt><trkpt lat="45.9896811" lon="11.756789"><ele>521.0</ele><time>2026-05-02T14:54:14.048Z</time></trkpt><trkpt lat="45.9895845" lon="11.7567178"><ele>517.0</ele><time>2026-05-02T14:54:16.048Z</time></trkpt><trkpt lat="45.9894629" lon="11.756683"><ele>515.0</ele><time>2026-05-02T14:54:18.048Z</time></trkpt><trkpt lat="45.9893953" lon="11.7566915"><ele>513.0</ele><time>2026-05-02T14:54:19.049Z</time></trkpt><trkpt lat="45.9893241" lon="11.7567291"><ele>511.00000000000006</ele><time>2026-05-02T14:54:20.049Z</time></trkpt><trkpt lat="45.9892145" lon="11.7567663"><ele>509.0</ele><time>2026-05-02T14:54:21.049Z</time></trkpt><trkpt lat="45.9891019" lon="11.7568224"><ele>507.0</ele><time>2026-05-02T14:54:22.048Z</time></trkpt><trkpt lat="45.9890108" lon="11.7568937"><ele>505.6666666666667</ele><time>2026-05-02T14:54:23.048Z</time></trkpt><trkpt lat="45.9889496" lon="11.7569377"><ele>504.33333333333337</ele><time>2026-05-02T14:54:24.049Z</time></trkpt><trkpt lat="45.9888874" lon="11.7569736"><ele>503.0</ele><time>2026-05-02T14:54:25.049Z</time></trkpt><trkpt lat="45.9887757" lon="11.7569726"><ele>501.6666666666667</ele><time>2026-05-02T14:54:27.05Z</time></trkpt><trkpt lat="45.9886762" lon="11.7569829"><ele>500.33333333333337</ele><time>2026-05-02T14:54:29.049Z</time></trkpt><trkpt lat="45.9886066" lon="11.7570911"><ele>499.0</ele><time>2026-05-02T14:54:31.049Z</time></trkpt><trkpt lat="45.9885748" lon="11.7572271"><ele>499.00000000000006</ele><time>2026-05-02T14:54:33.05Z</time></trkpt><trkpt lat="45.9885646" lon="11.7573481"><ele>499.0</ele><time>2026-05-02T14:54:35.048Z</time></trkpt><trkpt lat="45.9885681" lon="11.7574462"><ele>499.0</ele><time>2026-05-02T14:54:37.049Z</time></trkpt><trkpt lat="45.9886098" lon="11.7575485"><ele>499.0</ele><time>2026-05-02T14:54:40.049Z</time></trkpt><trkpt lat="45.9886646" lon="11.7576299"><ele>499.00000000000006</ele><time>2026-05-02T14:54:42.049Z</time></trkpt><trkpt lat="45.9887364" lon="11.7577158"><ele>499.0</ele><time>2026-05-02T14:54:44.05Z</time></trkpt><trkpt lat="45.9887952" lon="11.7577725"><ele>498.33333333333337</ele><time>2026-05-02T14:54:46.049Z</time></trkpt><trkpt lat="45.9888683" lon="11.7578172"><ele>497.6666666666667</ele><time>2026-05-02T14:54:50.049Z</time></trkpt><trkpt lat="45.988931" lon="11.757848"><ele>497.0</ele><time>2026-05-02T14:54:53.049Z</time></trkpt><trkpt lat="45.9890006" lon="11.7579255"><ele>496.33333333333337</ele><time>2026-05-02T14:55:01.049Z</time></trkpt><trkpt lat="45.9890762" lon="11.7578758"><ele>495.6666666666667</ele><time>2026-05-02T14:55:37.051Z</time></trkpt><trkpt lat="45.9891231" lon="11.757951"><ele>495.0</ele><time>2026-05-02T14:56:34.243Z</time></trkpt><trkpt lat="45.9890416" lon="11.757945"><ele>495.0</ele><time>2026-05-02T14:57:03.167Z</time></trkpt><trkpt lat="45.9889115" lon="11.7580319"><ele>495.0</ele><time>2026-05-02T14:57:27.051Z</time></trkpt><trkpt lat="45.9888695" lon="11.7581007"><ele>495.0</ele><time>2026-05-02T14:57:28.051Z</time></trkpt><trkpt lat="45.9888476" lon="11.758267"><ele>495.0</ele><time>2026-05-02T14:57:30.052Z</time></trkpt><trkpt lat="45.9888938" lon="11.7584505"><ele>495.0</ele><time>2026-05-02T14:57:32.052Z</time></trkpt><trkpt lat="45.9889463" lon="11.7585537"><ele>495.0</ele><time>2026-05-02T14:57:33.051Z</time></trkpt><trkpt lat="45.9890085" lon="11.7586444"><ele>495.0</ele><time>2026-05-02T14:57:34.052Z</time></trkpt><trkpt lat="45.9890779" lon="11.7587339"><ele>495.0</ele><time>2026-05-02T14:57:35.054Z</time></trkpt><trkpt lat="45.9891393" lon="11.7588195"><ele>495.0</ele><time>2026-05-02T14:57:36.052Z</time></trkpt><trkpt lat="45.9891898" lon="11.7589038"><ele>495.0</ele><time>2026-05-02T14:57:37.052Z</time></trkpt><trkpt lat="45.9892264" lon="11.7589856"><ele>501.25</ele><time>2026-05-02T14:57:38.051Z</time></trkpt><trkpt lat="45.9892686" lon="11.7591436"><ele>507.5</ele><time>2026-05-02T14:57:40.053Z</time></trkpt><trkpt lat="45.9892874" lon="11.7593084"><ele>513.75</ele><time>2026-05-02T14:57:42.052Z</time></trkpt><trkpt lat="45.9892979" lon="11.7594782"><ele>520.0</ele><time>2026-05-02T14:57:44.052Z</time></trkpt><trkpt lat="45.989281" lon="11.7596289"><ele>521.0</ele><time>2026-05-02T14:57:46.052Z</time></trkpt><trkpt lat="45.9892348" lon="11.7597922"><ele>522.0</ele><time>2026-05-02T14:57:48.052Z</time></trkpt><trkpt lat="45.9892058" lon="11.759882"><ele>523.0</ele><time>2026-05-02T14:57:49.051Z</time></trkpt><trkpt lat="45.9891771" lon="11.7599652"><ele>524.0</ele><time>2026-05-02T14:57:50.052Z</time></trkpt><trkpt lat="45.9891167" lon="11.7601147"><ele>525.0</ele><time>2026-05-02T14:57:52.052Z</time></trkpt><trkpt lat="45.9890745" lon="11.7602383"><ele>523.3333333333334</ele><time>2026-05-02T14:57:54.052Z</time></trkpt><trkpt lat="45.9890466" lon="11.7603345"><ele>521.6666666666666</ele><time>2026-05-02T14:57:56.052Z</time></trkpt><trkpt lat="45.9889505" lon="11.7604302"><ele>520.0</ele><time>2026-05-02T14:57:58.052Z</time></trkpt><trkpt lat="45.9888948" lon="11.7604782"><ele>518.3333333333333</ele><time>2026-05-02T14:57:59.052Z</time></trkpt><trkpt lat="45.9888342" lon="11.7605234"><ele>516.6666666666666</ele><time>2026-05-02T14:58:00.052Z</time></trkpt><trkpt lat="45.9887685" lon="11.7605641"><ele>515.0</ele><time>2026-05-02T14:58:01.052Z</time></trkpt><trkpt lat="45.9886969" lon="11.7605895"><ele>515.0</ele><time>2026-05-02T14:58:02.052Z</time></trkpt><trkpt lat="45.9886176" lon="11.7606081"><ele>515.0</ele><time>2026-05-02T14:58:03.053Z</time></trkpt><trkpt lat="45.9885398" lon="11.7606156"><ele>515.0</ele><time>2026-05-02T14:58:04.052Z</time></trkpt><trkpt lat="45.9884714" lon="11.7606141"><ele>515.0</ele><time>2026-05-02T14:58:05.052Z</time></trkpt><trkpt lat="45.9883484" lon="11.7605948"><ele>515.0</ele><time>2026-05-02T14:58:07.053Z</time></trkpt><trkpt lat="45.9882273" lon="11.7605858"><ele>512.3333333333333</ele><time>2026-05-02T14:58:09.052Z</time></trkpt><trkpt lat="45.9881584" lon="11.7605787"><ele>509.66666666666663</ele><time>2026-05-02T14:58:10.053Z</time></trkpt><trkpt lat="45.9880895" lon="11.7605784"><ele>507.0</ele><time>2026-05-02T14:58:11.053Z</time></trkpt><trkpt lat="45.9880238" lon="11.7605763"><ele>504.33333333333337</ele><time>2026-05-02T14:58:12.052Z</time></trkpt><trkpt lat="45.9879588" lon="11.7605692"><ele>501.6666666666667</ele><time>2026-05-02T14:58:13.052Z</time></trkpt><trkpt lat="45.9878336" lon="11.7605425"><ele>499.0</ele><time>2026-05-02T14:58:15.052Z</time></trkpt><trkpt lat="45.987722" lon="11.7604902"><ele>499.0</ele><time>2026-05-02T14:58:17.052Z</time></trkpt><trkpt lat="45.987657" lon="11.7604484"><ele>499.0</ele><time>2026-05-02T14:58:18.052Z</time></trkpt><trkpt lat="45.9875431" lon="11.7604122"><ele>499.0</ele><time>2026-05-02T14:58:20.052Z</time></trkpt><trkpt lat="45.9874225" lon="11.7604055"><ele>499.0</ele><time>2026-05-02T14:58:22.052Z</time></trkpt><trkpt lat="45.9873157" lon="11.7604053"><ele>499.0</ele><time>2026-05-02T14:58:24.054Z</time></trkpt><trkpt lat="45.9871978" lon="11.7604195"><ele>498.33333333333337</ele><time>2026-05-02T14:58:26.052Z</time></trkpt><trkpt lat="45.9871335" lon="11.7604401"><ele>497.6666666666667</ele><time>2026-05-02T14:58:27.052Z</time></trkpt><trkpt lat="45.9870631" lon="11.7604683"><ele>497.0</ele><time>2026-05-02T14:58:28.052Z</time></trkpt><trkpt lat="45.9869941" lon="11.7605014"><ele>496.33333333333337</ele><time>2026-05-02T14:58:29.053Z</time></trkpt><trkpt lat="45.9869149" lon="11.7605656"><ele>495.6666666666667</ele><time>2026-05-02T14:58:31.052Z</time></trkpt><trkpt lat="45.9868135" lon="11.7606649"><ele>495.0</ele><time>2026-05-02T14:58:33.052Z</time></trkpt><trkpt lat="45.9867598" lon="11.7607254"><ele>495.0</ele><time>2026-05-02T14:58:34.052Z</time></trkpt><trkpt lat="45.9867121" lon="11.7608129"><ele>495.0</ele><time>2026-05-02T14:58:35.053Z</time></trkpt><trkpt lat="45.9866521" lon="11.7609056"><ele>495.0</ele><time>2026-05-02T14:58:36.052Z</time></trkpt><trkpt lat="45.9865841" lon="11.7609969"><ele>495.0</ele><time>2026-05-02T14:58:37.052Z</time></trkpt><trkpt lat="45.9865206" lon="11.7610789"><ele>495.0</ele><time>2026-05-02T14:58:38.053Z</time></trkpt><trkpt lat="45.9864389" lon="11.7612226"><ele>495.1428571428571</ele><time>2026-05-02T14:58:40.053Z</time></trkpt><trkpt lat="45.9864032" lon="11.7613183"><ele>495.2857142857143</ele><time>2026-05-02T14:58:42.053Z</time></trkpt><trkpt lat="45.9864128" lon="11.7614084"><ele>495.42857142857144</ele><time>2026-05-02T14:58:51.052Z</time></trkpt><trkpt lat="45.9863816" lon="11.7614961"><ele>495.57142857142856</ele><time>2026-05-02T14:58:53.053Z</time></trkpt><trkpt lat="45.9863588" lon="11.7615925"><ele>495.7142857142858</ele><time>2026-05-02T14:58:55.053Z</time></trkpt><trkpt lat="45.9863299" lon="11.7616751"><ele>495.8571428571429</ele><time>2026-05-02T14:58:58.053Z</time></trkpt><trkpt lat="45.9863379" lon="11.7617975"><ele>496.0</ele><time>2026-05-02T14:59:01.054Z</time></trkpt><trkpt lat="45.986304" lon="11.7619134"><ele>496.0</ele><time>2026-05-02T14:59:04.053Z</time></trkpt><trkpt lat="45.9862328" lon="11.7619839"><ele>496.0</ele><time>2026-05-02T14:59:07.053Z</time></trkpt><trkpt lat="45.9861748" lon="11.7620677"><ele>496.0</ele><time>2026-05-02T14:59:10.054Z</time></trkpt><trkpt lat="45.9861507" lon="11.762201"><ele>496.0</ele><time>2026-05-02T14:59:13.053Z</time></trkpt><trkpt lat="45.9861317" lon="11.76236"><ele>496.0</ele><time>2026-05-02T14:59:15.053Z</time></trkpt><trkpt lat="45.9861174" lon="11.7624988"><ele>496.00000000000006</ele><time>2026-05-02T14:59:17.053Z</time></trkpt><trkpt lat="45.9861178" lon="11.7626256"><ele>496.0</ele><time>2026-05-02T14:59:19.053Z</time></trkpt><trkpt lat="45.9861126" lon="11.7627234"><ele>496.0</ele><time>2026-05-02T14:59:21.053Z</time></trkpt><trkpt lat="45.9861314" lon="11.7628321"><ele>496.0</ele><time>2026-05-02T14:59:25.054Z</time></trkpt><trkpt lat="45.9861532" lon="11.7629648"><ele>496.00000000000006</ele><time>2026-05-02T14:59:28.053Z</time></trkpt><trkpt lat="45.9861797" lon="11.7630763"><ele>496.0</ele><time>2026-05-02T14:59:30.053Z</time></trkpt><trkpt lat="45.9862043" lon="11.7632036"><ele>496.8</ele><time>2026-05-02T14:59:32.053Z</time></trkpt><trkpt lat="45.9862341" lon="11.76331"><ele>497.6</ele><time>2026-05-02T14:59:34.053Z</time></trkpt><trkpt lat="45.9862989" lon="11.7634569"><ele>498.4</ele><time>2026-05-02T14:59:37.053Z</time></trkpt><trkpt lat="45.9863395" lon="11.7635305"><ele>499.2</ele><time>2026-05-02T14:59:38.053Z</time></trkpt><trkpt lat="45.986414" lon="11.7636509"><ele>500.0</ele><time>2026-05-02T14:59:40.053Z</time></trkpt><trkpt lat="45.9864874" lon="11.7637228"><ele>499.49999999999994</ele><time>2026-05-02T14:59:42.053Z</time></trkpt><trkpt lat="45.986562" lon="11.7638019"><ele>499.0</ele><time>2026-05-02T14:59:45.053Z</time></trkpt><trkpt lat="45.9866272" lon="11.763868"><ele>498.5</ele><time>2026-05-02T14:59:48.053Z</time></trkpt><trkpt lat="45.9867226" lon="11.7638799"><ele>498.0</ele><time>2026-05-02T14:59:50.053Z</time></trkpt><trkpt lat="45.9868233" lon="11.7638617"><ele>497.49999999999994</ele><time>2026-05-02T14:59:52.053Z</time></trkpt><trkpt lat="45.9868899" lon="11.763899"><ele>497.0</ele><time>2026-05-02T14:59:54.054Z</time></trkpt><trkpt lat="45.986961" lon="11.7639701"><ele>497.0</ele><time>2026-05-02T14:59:56.053Z</time></trkpt><trkpt lat="45.9870214" lon="11.7640566"><ele>497.00000000000006</ele><time>2026-05-02T14:59:58.054Z</time></trkpt><trkpt lat="45.9870701" lon="11.7641453"><ele>497.00000000000006</ele><time>2026-05-02T15:00:00.053Z</time></trkpt><trkpt lat="45.9871783" lon="11.7641491"><ele>497.0</ele><time>2026-05-02T15:00:02.054Z</time></trkpt><trkpt lat="45.9872771" lon="11.7641982"><ele>497.0</ele><time>2026-05-02T15:00:04.054Z</time></trkpt><trkpt lat="45.9873592" lon="11.7642383"><ele>496.99999999999994</ele><time>2026-05-02T15:00:06.054Z</time></trkpt><trkpt lat="45.9874293" lon="11.7642404"><ele>497.0</ele><time>2026-05-02T15:00:08.054Z</time></trkpt><trkpt lat="45.9874952" lon="11.7642104"><ele>497.0</ele><time>2026-05-02T15:00:10.054Z</time></trkpt><trkpt lat="45.9876158" lon="11.7641694"><ele>497.0</ele><time>2026-05-02T15:00:12.054Z</time></trkpt><trkpt lat="45.9876938" lon="11.7641386"><ele>496.99999999999994</ele><time>2026-05-02T15:00:13.054Z</time></trkpt><trkpt lat="45.9877773" lon="11.7641234"><ele>497.0</ele><time>2026-05-02T15:00:15.054Z</time></trkpt><trkpt lat="45.9878613" lon="11.7641951"><ele>499.75</ele><time>2026-05-02T15:00:17.054Z</time></trkpt><trkpt lat="45.9879908" lon="11.7643086"><ele>502.5</ele><time>2026-05-02T15:00:19.054Z</time></trkpt><trkpt lat="45.9880719" lon="11.7644082"><ele>505.25</ele><time>2026-05-02T15:00:21.054Z</time></trkpt><trkpt lat="45.9882072" lon="11.7644297"><ele>508.0</ele><time>2026-05-02T15:00:23.054Z</time></trkpt><trkpt lat="45.9882766" lon="11.7644335"><ele>502.75</ele><time>2026-05-02T15:00:24.054Z</time></trkpt><trkpt lat="45.9883678" lon="11.7644408"><ele>497.5</ele><time>2026-05-02T15:00:25.054Z</time></trkpt><trkpt lat="45.988584" lon="11.7644876"><ele>492.25</ele><time>2026-05-02T15:00:27.054Z</time></trkpt><trkpt lat="45.9886877" lon="11.7644974"><ele>487.0</ele><time>2026-05-02T15:00:28.054Z</time></trkpt><trkpt lat="45.9887903" lon="11.7644884"><ele>487.0</ele><time>2026-05-02T15:00:29.054Z</time></trkpt><trkpt lat="45.9889059" lon="11.7644767"><ele>487.0</ele><time>2026-05-02T15:00:30.054Z</time></trkpt><trkpt lat="45.9890104" lon="11.7644431"><ele>487.0</ele><time>2026-05-02T15:00:31.055Z</time></trkpt><trkpt lat="45.9891249" lon="11.7644082"><ele>487.0</ele><time>2026-05-02T15:00:32.054Z</time></trkpt><trkpt lat="45.9892392" lon="11.764383"><ele>489.20000000000005</ele><time>2026-05-02T15:00:33.054Z</time></trkpt><trkpt lat="45.9893398" lon="11.7643731"><ele>491.40000000000003</ele><time>2026-05-02T15:00:34.054Z</time></trkpt><trkpt lat="45.989422" lon="11.7643702"><ele>493.59999999999997</ele><time>2026-05-02T15:00:35.055Z</time></trkpt><trkpt lat="45.9895179" lon="11.7644051"><ele>495.79999999999995</ele><time>2026-05-02T15:00:36.054Z</time></trkpt><trkpt lat="45.9896433" lon="11.7644725"><ele>498.0</ele><time>2026-05-02T15:00:38.054Z</time></trkpt><trkpt lat="45.9897387" lon="11.764505"><ele>498.0</ele><time>2026-05-02T15:00:39.054Z</time></trkpt><trkpt lat="45.9898173" lon="11.7645442"><ele>498.0</ele><time>2026-05-02T15:00:40.055Z</time></trkpt><trkpt lat="45.9898908" lon="11.7645747"><ele>498.0</ele><time>2026-05-02T15:00:41.054Z</time></trkpt><trkpt lat="45.9899945" lon="11.7645831"><ele>498.0</ele><time>2026-05-02T15:00:43.054Z</time></trkpt><trkpt lat="45.989957" lon="11.7644804"><ele>498.0</ele><time>2026-05-02T15:00:49.055Z</time></trkpt><trkpt lat="45.990004" lon="11.7644059"><ele>498.0</ele><time>2026-05-02T15:00:53.054Z</time></trkpt><trkpt lat="45.9901275" lon="11.7644386"><ele>499.59999999999997</ele><time>2026-05-02T15:00:57.055Z</time></trkpt><trkpt lat="45.9902298" lon="11.7644544"><ele>501.19999999999993</ele><time>2026-05-02T15:00:58.054Z</time></trkpt><trkpt lat="45.990361" lon="11.7644927"><ele>502.8</ele><time>2026-05-02T15:00:59.055Z</time></trkpt><trkpt lat="45.9904715" lon="11.7645122"><ele>504.4</ele><time>2026-05-02T15:01:00.054Z</time></trkpt><trkpt lat="45.9905532" lon="11.7644863"><ele>506.0</ele><time>2026-05-02T15:01:01.055Z</time></trkpt><trkpt lat="45.990656" lon="11.7644537"><ele>506.0</ele><time>2026-05-02T15:01:02.054Z</time></trkpt><trkpt lat="45.9907595" lon="11.7644326"><ele>506.0</ele><time>2026-05-02T15:01:03.055Z</time></trkpt><trkpt lat="45.9908699" lon="11.7644262"><ele>506.0</ele><time>2026-05-02T15:01:04.055Z</time></trkpt><trkpt lat="45.9909689" lon="11.7644388"><ele>506.0</ele><time>2026-05-02T15:01:05.055Z</time></trkpt><trkpt lat="45.9911365" lon="11.7645062"><ele>508.16666666666663</ele><time>2026-05-02T15:01:07.055Z</time></trkpt><trkpt lat="45.9912241" lon="11.7645387"><ele>510.3333333333333</ele><time>2026-05-02T15:01:09.055Z</time></trkpt><trkpt lat="45.9912834" lon="11.7644491"><ele>512.5</ele><time>2026-05-02T15:01:13.055Z</time></trkpt><trkpt lat="45.9913364" lon="11.7643697"><ele>514.6666666666666</ele><time>2026-05-02T15:01:15.055Z</time></trkpt><trkpt lat="45.9913962" lon="11.7642793"><ele>516.8333333333334</ele><time>2026-05-02T15:01:17.055Z</time></trkpt><trkpt lat="45.9914825" lon="11.7641985"><ele>519.0</ele><time>2026-05-02T15:01:19.055Z</time></trkpt><trkpt lat="45.991581" lon="11.7640997"><ele>521.4</ele><time>2026-05-02T15:01:21.056Z</time></trkpt><trkpt lat="45.99168" lon="11.7640129"><ele>523.8</ele><time>2026-05-02T15:01:23.055Z</time></trkpt><trkpt lat="45.99175" lon="11.7639395"><ele>526.2</ele><time>2026-05-02T15:01:25.055Z</time></trkpt><trkpt lat="45.9918045" lon="11.7638672"><ele>528.6</ele><time>2026-05-02T15:01:27.055Z</time></trkpt><trkpt lat="45.9918406" lon="11.7637359"><ele>531.0</ele><time>2026-05-02T15:01:29.055Z</time></trkpt><trkpt lat="45.991878" lon="11.7636007"><ele>531.5714285714286</ele><time>2026-05-02T15:01:31.055Z</time></trkpt><trkpt lat="45.9919053" lon="11.7634914"><ele>532.1428571428572</ele><time>2026-05-02T15:01:33.056Z</time></trkpt><trkpt lat="45.991931" lon="11.7633898"><ele>532.7142857142858</ele><time>2026-05-02T15:01:35.055Z</time></trkpt><trkpt lat="45.9919756" lon="11.7633254"><ele>533.2857142857143</ele><time>2026-05-02T15:01:37.055Z</time></trkpt><trkpt lat="45.9920371" lon="11.7632534"><ele>533.8571428571429</ele><time>2026-05-02T15:01:40.055Z</time></trkpt><trkpt lat="45.9921012" lon="11.7632225"><ele>534.4285714285714</ele><time>2026-05-02T15:01:44.055Z</time></trkpt><trkpt lat="45.9921779" lon="11.7632141"><ele>535.0</ele><time>2026-05-02T15:01:47.055Z</time></trkpt><trkpt lat="45.9922768" lon="11.7631946"><ele>535.0</ele><time>2026-05-02T15:01:50.055Z</time></trkpt><trkpt lat="45.9923765" lon="11.7631574"><ele>535.0</ele><time>2026-05-02T15:01:52.055Z</time></trkpt><trkpt lat="45.9924769" lon="11.7630651"><ele>535.0</ele><time>2026-05-02T15:01:54.056Z</time></trkpt><trkpt lat="45.9925503" lon="11.7629307"><ele>535.0</ele><time>2026-05-02T15:01:56.055Z</time></trkpt><trkpt lat="45.9925981" lon="11.7628283"><ele>535.0</ele><time>2026-05-02T15:01:58.055Z</time></trkpt><trkpt lat="45.9926655" lon="11.7627564"><ele>538.1666666666667</ele><time>2026-05-02T15:02:01.055Z</time></trkpt><trkpt lat="45.9927156" lon="11.7626909"><ele>541.3333333333334</ele><time>2026-05-02T15:02:03.055Z</time></trkpt><trkpt lat="45.9927732" lon="11.7625954"><ele>544.5</ele><time>2026-05-02T15:02:05.056Z</time></trkpt><trkpt lat="45.9928203" lon="11.7625101"><ele>547.6666666666666</ele><time>2026-05-02T15:02:07.055Z</time></trkpt><trkpt lat="45.9928564" lon="11.7624187"><ele>550.8333333333333</ele><time>2026-05-02T15:02:09.055Z</time></trkpt><trkpt lat="45.9928811" lon="11.7622937"><ele>554.0</ele><time>2026-05-02T15:02:11.057Z</time></trkpt><trkpt lat="45.9929183" lon="11.7621821"><ele>554.0</ele><time>2026-05-02T15:02:13.057Z</time></trkpt><trkpt lat="45.992974" lon="11.7620906"><ele>554.0</ele><time>2026-05-02T15:02:15.057Z</time></trkpt><trkpt lat="45.9930549" lon="11.7619919"><ele>554.0</ele><time>2026-05-02T15:02:17.056Z</time></trkpt><trkpt lat="45.9931334" lon="11.7619267"><ele>554.0</ele><time>2026-05-02T15:02:19.056Z</time></trkpt><trkpt lat="45.9931908" lon="11.7618754"><ele>554.0</ele><time>2026-05-02T15:02:22.056Z</time></trkpt><trkpt lat="45.9932029" lon="11.7617599"><ele>554.0</ele><time>2026-05-02T15:02:26.056Z</time></trkpt><trkpt lat="45.9931955" lon="11.7616571"><ele>554.1666666666666</ele><time>2026-05-02T15:02:31.056Z</time></trkpt><trkpt lat="45.9931872" lon="11.7615596"><ele>554.3333333333333</ele><time>2026-05-02T15:02:34.056Z</time></trkpt><trkpt lat="45.9931797" lon="11.761458"><ele>554.5</ele><time>2026-05-02T15:02:38.057Z</time></trkpt><trkpt lat="45.9932168" lon="11.7613622"><ele>554.6666666666666</ele><time>2026-05-02T15:03:12.057Z</time></trkpt><trkpt lat="45.9931604" lon="11.7614307"><ele>554.8333333333334</ele><time>2026-05-02T15:03:16.056Z</time></trkpt><trkpt lat="45.9931644" lon="11.7615266"><ele>555.0</ele><time>2026-05-02T15:03:19.057Z</time></trkpt><trkpt lat="45.9931648" lon="11.7616624"><ele>555.0000000000001</ele><time>2026-05-02T15:03:22.057Z</time></trkpt><trkpt lat="45.9931688" lon="11.7617682"><ele>555.0</ele><time>2026-05-02T15:03:24.057Z</time></trkpt><trkpt lat="45.9931043" lon="11.7617643"><ele>555.0</ele><time>2026-05-02T15:03:38.057Z</time></trkpt><trkpt lat="45.9931692" lon="11.7617731"><ele>555.0</ele><time>2026-05-02T15:03:49.057Z</time></trkpt><trkpt lat="45.9932016" lon="11.7618527"><ele>555.0</ele><time>2026-05-02T15:03:57.057Z</time></trkpt><trkpt lat="45.9932695" lon="11.7618141"><ele>555.0000000000001</ele><time>2026-05-02T15:04:00.058Z</time></trkpt><trkpt lat="45.9933212" lon="11.7616966"><ele>555.0</ele><time>2026-05-02T15:04:03.058Z</time></trkpt><trkpt lat="45.9933734" lon="11.7615968"><ele>558.5</ele><time>2026-05-02T15:04:05.057Z</time></trkpt><trkpt lat="45.9934465" lon="11.7616009"><ele>562.0</ele><time>2026-05-02T15:04:08.058Z</time></trkpt><trkpt lat="45.9935036" lon="11.761669"><ele>565.5</ele><time>2026-05-02T15:04:11.057Z</time></trkpt><trkpt lat="45.9935885" lon="11.7616515"><ele>569.0</ele><time>2026-05-02T15:04:14.058Z</time></trkpt><trkpt lat="45.99366" lon="11.7616505"><ele>572.5</ele><time>2026-05-02T15:04:16.058Z</time></trkpt><trkpt lat="45.9937338" lon="11.7616399"><ele>576.0</ele><time>2026-05-02T15:04:18.057Z</time></trkpt><trkpt lat="45.9938304" lon="11.7616299"><ele>576.0</ele><time>2026-05-02T15:04:21.057Z</time></trkpt><trkpt lat="45.9939635" lon="11.7616045"><ele>576.0</ele><time>2026-05-02T15:04:23.057Z</time></trkpt><trkpt lat="45.9940282" lon="11.7615766"><ele>576.0</ele><time>2026-05-02T15:04:24.057Z</time></trkpt><trkpt lat="45.9941312" lon="11.7614882"><ele>576.0</ele><time>2026-05-02T15:04:26.058Z</time></trkpt><trkpt lat="45.9942172" lon="11.7613722"><ele>576.0</ele><time>2026-05-02T15:04:28.058Z</time></trkpt><trkpt lat="45.9942968" lon="11.7612575"><ele>580.4</ele><time>2026-05-02T15:04:30.058Z</time></trkpt><trkpt lat="45.9943671" lon="11.7611155"><ele>584.8</ele><time>2026-05-02T15:04:32.058Z</time></trkpt><trkpt lat="45.9943975" lon="11.7610359"><ele>589.1999999999999</ele><time>2026-05-02T15:04:33.058Z</time></trkpt><trkpt lat="45.9944575" lon="11.7608869"><ele>593.6</ele><time>2026-05-02T15:04:35.058Z</time></trkpt><trkpt lat="45.9945009" lon="11.7607808"><ele>598.0</ele><time>2026-05-02T15:04:37.058Z</time></trkpt><trkpt lat="45.9945673" lon="11.7607422"><ele>599.0</ele><time>2026-05-02T15:04:41.059Z</time></trkpt><trkpt lat="45.9946234" lon="11.7606806"><ele>600.0</ele><time>2026-05-02T15:04:45.058Z</time></trkpt><trkpt lat="45.9946417" lon="11.760546"><ele>601.0</ele><time>2026-05-02T15:04:47.058Z</time></trkpt><trkpt lat="45.9946553" lon="11.7604459"><ele>602.0</ele><time>2026-05-02T15:04:48.058Z</time></trkpt><trkpt lat="45.9947121" lon="11.7603111"><ele>603.0</ele><time>2026-05-02T15:04:50.058Z</time></trkpt><trkpt lat="45.9948035" lon="11.7602239"><ele>603.0</ele><time>2026-05-02T15:04:52.058Z</time></trkpt><trkpt lat="45.99487" lon="11.7601277"><ele>604.0</ele><time>2026-05-02T15:04:56.058Z</time></trkpt><trkpt lat="45.9948996" lon="11.7599715"><ele>604.0</ele><time>2026-05-02T15:04:59.058Z</time></trkpt><trkpt lat="45.9949491" lon="11.759899"><ele>604.0</ele><time>2026-05-02T15:05:01.058Z</time></trkpt><trkpt lat="45.9949878" lon="11.7598178"><ele>604.0</ele><time>2026-05-02T15:05:04.058Z</time></trkpt><trkpt lat="45.9950137" lon="11.7597204"><ele>636.0</ele><time>2026-05-02T15:05:15.059Z</time></trkpt></trkseg></trk></gpx>